<?xml version="1.0" encoding="UTF-8" standalone="no" ?>
<gpx xmlns="http://www.topografix.com/GPX/1/1" xmlns:xsi="http://www.w3.org/2001/XMLSchema-instance" xsi:schemaLocation="http://www.topografix.com/GPX/1/1 http://www.topografix.com/GPX/1/1/gpx.xsd" version="1.1" creator="VisuGPX - https://www.visugpx.com">
  <metadata>
    <name>Le tour de l'Aiguille du Rateau</name>
  </metadata>
  <wpt lat="45.38508" lon="6.67231">
    <ele>1858</ele>
    <name><![CDATA[Croix du Biol]]></name>
  </wpt>
  <wpt lat="45.36143" lon="6.66567">
    <ele>2171</ele>
    <name><![CDATA[Carrefour de la boucle]]></name>
  </wpt>
  <wpt lat="45.35919" lon="6.66885">
    <ele>2229</ele>
    <name><![CDATA[Carrefour de la Cabane Cave de la Petite Val]]></name>
  </wpt>
  <wpt lat="45.34417" lon="6.67154">
    <ele>2443</ele>
    <name><![CDATA[Lac du Râteau]]></name>
  </wpt>
  <wpt lat="45.33746" lon="6.6711">
    <ele>2630</ele>
    <name><![CDATA[Rocher gravé]]></name>
  </wpt>
  <wpt lat="45.33631" lon="6.66969">
    <ele>2687</ele>
    <name><![CDATA[Col du Râteau]]></name>
  </wpt>
  <wpt lat="45.33646" lon="6.66338">
    <ele>2566</ele>
    <name><![CDATA[Fin du pierrier]]></name>
  </wpt>
  <wpt lat="45.33589" lon="6.65695">
    <ele>2482</ele>
    <name><![CDATA[Carrefour Ruisseau des Avals]]></name>
  </wpt>
  <wpt lat="45.3341" lon="6.65342">
    <ele>2531</ele>
    <name><![CDATA[Col de Chanrouge]]></name>
  </wpt>
  <wpt lat="45.35242" lon="6.65455">
    <ele>2290</ele>
    <name><![CDATA[Lac du Pêtre]]></name>
  </wpt>
  <wpt lat="45.385" lon="6.6723">
    <ele>1859</ele>
    <name><![CDATA[Croix du Biol ]]></name>
  </wpt>
  <trk>
    <name><![CDATA[Le tour de l'Aiguille du Rateau]]></name>
    <trkseg>
      <trkpt lat="45.38508" lon="6.67231">
        <ele>1858</ele>
        <time>2018-09-20T09:51:26+02:00</time>
      </trkpt>
      <trkpt lat="45.38508" lon="6.67231">
        <ele>1858</ele>
        <time>2018-09-20T09:51:27+02:00</time>
      </trkpt>
      <trkpt lat="45.38493" lon="6.67241">
        <ele>1861</ele>
        <time>2018-09-20T09:51:48+02:00</time>
      </trkpt>
      <trkpt lat="45.38486" lon="6.67243">
        <ele>1862</ele>
        <time>2018-09-20T09:51:56+02:00</time>
      </trkpt>
      <trkpt lat="45.38471" lon="6.67245">
        <ele>1864</ele>
        <time>2018-09-20T09:52:12+02:00</time>
      </trkpt>
      <trkpt lat="45.38455" lon="6.67248">
        <ele>1865</ele>
        <time>2018-09-20T09:52:30+02:00</time>
      </trkpt>
      <trkpt lat="45.38437" lon="6.67254">
        <ele>1867</ele>
        <time>2018-09-20T09:52:45+02:00</time>
      </trkpt>
      <trkpt lat="45.38426" lon="6.67266">
        <ele>1870</ele>
        <time>2018-09-20T09:52:57+02:00</time>
      </trkpt>
      <trkpt lat="45.38411" lon="6.67279">
        <ele>1874</ele>
        <time>2018-09-20T09:53:15+02:00</time>
      </trkpt>
      <trkpt lat="45.38393" lon="6.67281">
        <ele>1880</ele>
        <time>2018-09-20T09:53:33+02:00</time>
      </trkpt>
      <trkpt lat="45.38386" lon="6.67273">
        <ele>1880</ele>
        <time>2018-09-20T09:53:44+02:00</time>
      </trkpt>
      <trkpt lat="45.38383" lon="6.67256">
        <ele>1878</ele>
        <time>2018-09-20T09:54:02+02:00</time>
      </trkpt>
      <trkpt lat="45.38381" lon="6.67255">
        <ele>1879</ele>
        <time>2018-09-20T09:54:27+02:00</time>
      </trkpt>
      <trkpt lat="45.38375" lon="6.67237">
        <ele>1878</ele>
        <time>2018-09-20T09:54:49+02:00</time>
      </trkpt>
      <trkpt lat="45.38366" lon="6.67226">
        <ele>1879</ele>
        <time>2018-09-20T09:55:05+02:00</time>
      </trkpt>
      <trkpt lat="45.3836" lon="6.6722">
        <ele>1879</ele>
        <time>2018-09-20T09:55:13+02:00</time>
      </trkpt>
      <trkpt lat="45.38349" lon="6.67207">
        <ele>1879</ele>
        <time>2018-09-20T09:55:24+02:00</time>
      </trkpt>
      <trkpt lat="45.38328" lon="6.6719">
        <ele>1879</ele>
        <time>2018-09-20T09:55:43+02:00</time>
      </trkpt>
      <trkpt lat="45.3832" lon="6.67189">
        <ele>1879</ele>
        <time>2018-09-20T09:55:57+02:00</time>
      </trkpt>
      <trkpt lat="45.38319" lon="6.67189">
        <ele>1879</ele>
        <time>2018-09-20T09:55:58+02:00</time>
      </trkpt>
      <trkpt lat="45.38295" lon="6.67184">
        <ele>1880</ele>
        <time>2018-09-20T09:56:18+02:00</time>
      </trkpt>
      <trkpt lat="45.38291" lon="6.6718">
        <ele>1879</ele>
        <time>2018-09-20T09:56:22+02:00</time>
      </trkpt>
      <trkpt lat="45.38274" lon="6.67162">
        <ele>1879</ele>
        <time>2018-09-20T09:56:40+02:00</time>
      </trkpt>
      <trkpt lat="45.38268" lon="6.67155">
        <ele>1879</ele>
        <time>2018-09-20T09:56:49+02:00</time>
      </trkpt>
      <trkpt lat="45.38262" lon="6.67151">
        <ele>1880</ele>
        <time>2018-09-20T09:56:54+02:00</time>
      </trkpt>
      <trkpt lat="45.38244" lon="6.6714">
        <ele>1881</ele>
        <time>2018-09-20T09:57:09+02:00</time>
      </trkpt>
      <trkpt lat="45.38238" lon="6.67115">
        <ele>1881</ele>
        <time>2018-09-20T09:57:26+02:00</time>
      </trkpt>
      <trkpt lat="45.38232" lon="6.67086">
        <ele>1882</ele>
        <time>2018-09-20T09:57:42+02:00</time>
      </trkpt>
      <trkpt lat="45.38229" lon="6.67082">
        <ele>1883</ele>
        <time>2018-09-20T09:57:48+02:00</time>
      </trkpt>
      <trkpt lat="45.38228" lon="6.67083">
        <ele>1882</ele>
        <time>2018-09-20T09:57:52+02:00</time>
      </trkpt>
      <trkpt lat="45.38225" lon="6.6708">
        <ele>1883</ele>
        <time>2018-09-20T09:57:56+02:00</time>
      </trkpt>
      <trkpt lat="45.38213" lon="6.67075">
        <ele>1885</ele>
        <time>2018-09-20T09:58:11+02:00</time>
      </trkpt>
      <trkpt lat="45.38194" lon="6.67061">
        <ele>1888</ele>
        <time>2018-09-20T09:58:35+02:00</time>
      </trkpt>
      <trkpt lat="45.38182" lon="6.67043">
        <ele>1890</ele>
        <time>2018-09-20T09:58:53+02:00</time>
      </trkpt>
      <trkpt lat="45.38165" lon="6.67017">
        <ele>1890</ele>
        <time>2018-09-20T09:59:15+02:00</time>
      </trkpt>
      <trkpt lat="45.38146" lon="6.6699">
        <ele>1890</ele>
        <time>2018-09-20T09:59:37+02:00</time>
      </trkpt>
      <trkpt lat="45.38133" lon="6.66971">
        <ele>1890</ele>
        <time>2018-09-20T09:59:56+02:00</time>
      </trkpt>
      <trkpt lat="45.3811" lon="6.66952">
        <ele>1890</ele>
        <time>2018-09-20T10:00:18+02:00</time>
      </trkpt>
      <trkpt lat="45.38106" lon="6.66949">
        <ele>1891</ele>
        <time>2018-09-20T10:00:23+02:00</time>
      </trkpt>
      <trkpt lat="45.38091" lon="6.66939">
        <ele>1892</ele>
        <time>2018-09-20T10:00:37+02:00</time>
      </trkpt>
      <trkpt lat="45.38078" lon="6.66926">
        <ele>1893</ele>
        <time>2018-09-20T10:00:51+02:00</time>
      </trkpt>
      <trkpt lat="45.38063" lon="6.66918">
        <ele>1896</ele>
        <time>2018-09-20T10:01:08+02:00</time>
      </trkpt>
      <trkpt lat="45.38052" lon="6.66916">
        <ele>1897</ele>
        <time>2018-09-20T10:01:19+02:00</time>
      </trkpt>
      <trkpt lat="45.3804" lon="6.66913">
        <ele>1899</ele>
        <time>2018-09-20T10:01:28+02:00</time>
      </trkpt>
      <trkpt lat="45.38026" lon="6.66904">
        <ele>1900</ele>
        <time>2018-09-20T10:01:42+02:00</time>
      </trkpt>
      <trkpt lat="45.38009" lon="6.66894">
        <ele>1900</ele>
        <time>2018-09-20T10:01:56+02:00</time>
      </trkpt>
      <trkpt lat="45.37992" lon="6.66886">
        <ele>1900</ele>
        <time>2018-09-20T10:02:10+02:00</time>
      </trkpt>
      <trkpt lat="45.37987" lon="6.66883">
        <ele>1900</ele>
        <time>2018-09-20T10:02:15+02:00</time>
      </trkpt>
      <trkpt lat="45.37982" lon="6.66882">
        <ele>1900</ele>
        <time>2018-09-20T10:02:20+02:00</time>
      </trkpt>
      <trkpt lat="45.37973" lon="6.66876">
        <ele>1900</ele>
        <time>2018-09-20T10:02:29+02:00</time>
      </trkpt>
      <trkpt lat="45.37965" lon="6.66869">
        <ele>1900</ele>
        <time>2018-09-20T10:02:39+02:00</time>
      </trkpt>
      <trkpt lat="45.37963" lon="6.66867">
        <ele>1900</ele>
        <time>2018-09-20T10:02:41+02:00</time>
      </trkpt>
      <trkpt lat="45.37954" lon="6.6686">
        <ele>1900</ele>
        <time>2018-09-20T10:02:48+02:00</time>
      </trkpt>
      <trkpt lat="45.3794" lon="6.66849">
        <ele>1900</ele>
        <time>2018-09-20T10:03:05+02:00</time>
      </trkpt>
      <trkpt lat="45.37932" lon="6.66844">
        <ele>1900</ele>
        <time>2018-09-20T10:03:13+02:00</time>
      </trkpt>
      <trkpt lat="45.37916" lon="6.66831">
        <ele>1900</ele>
        <time>2018-09-20T10:03:30+02:00</time>
      </trkpt>
      <trkpt lat="45.37905" lon="6.66821">
        <ele>1900</ele>
        <time>2018-09-20T10:03:41+02:00</time>
      </trkpt>
      <trkpt lat="45.37892" lon="6.66812">
        <ele>1900</ele>
        <time>2018-09-20T10:03:57+02:00</time>
      </trkpt>
      <trkpt lat="45.37884" lon="6.66812">
        <ele>1900</ele>
        <time>2018-09-20T10:04:07+02:00</time>
      </trkpt>
      <trkpt lat="45.37863" lon="6.66796">
        <ele>1900</ele>
        <time>2018-09-20T10:04:28+02:00</time>
      </trkpt>
      <trkpt lat="45.37846" lon="6.66794">
        <ele>1900</ele>
        <time>2018-09-20T10:04:43+02:00</time>
      </trkpt>
      <trkpt lat="45.37821" lon="6.66776">
        <ele>1900</ele>
        <time>2018-09-20T10:05:05+02:00</time>
      </trkpt>
      <trkpt lat="45.37804" lon="6.66768">
        <ele>1901</ele>
        <time>2018-09-20T10:05:20+02:00</time>
      </trkpt>
      <trkpt lat="45.37793" lon="6.66766">
        <ele>1902</ele>
        <time>2018-09-20T10:05:34+02:00</time>
      </trkpt>
      <trkpt lat="45.3778" lon="6.66763">
        <ele>1903</ele>
        <time>2018-09-20T10:05:55+02:00</time>
      </trkpt>
      <trkpt lat="45.37768" lon="6.66761">
        <ele>1905</ele>
        <time>2018-09-20T10:06:09+02:00</time>
      </trkpt>
      <trkpt lat="45.37767" lon="6.6676">
        <ele>1905</ele>
        <time>2018-09-20T10:06:10+02:00</time>
      </trkpt>
      <trkpt lat="45.37752" lon="6.66741">
        <ele>1907</ele>
        <time>2018-09-20T10:06:26+02:00</time>
      </trkpt>
      <trkpt lat="45.37735" lon="6.66712">
        <ele>1909</ele>
        <time>2018-09-20T10:06:48+02:00</time>
      </trkpt>
      <trkpt lat="45.37725" lon="6.66694">
        <ele>1909</ele>
        <time>2018-09-20T10:07:04+02:00</time>
      </trkpt>
      <trkpt lat="45.3771" lon="6.66677">
        <ele>1910</ele>
        <time>2018-09-20T10:07:22+02:00</time>
      </trkpt>
      <trkpt lat="45.37701" lon="6.66666">
        <ele>1910</ele>
        <time>2018-09-20T10:07:33+02:00</time>
      </trkpt>
      <trkpt lat="45.37682" lon="6.66643">
        <ele>1912</ele>
        <time>2018-09-20T10:07:59+02:00</time>
      </trkpt>
      <trkpt lat="45.37672" lon="6.66627">
        <ele>1915</ele>
        <time>2018-09-20T10:08:17+02:00</time>
      </trkpt>
      <trkpt lat="45.37659" lon="6.6661">
        <ele>1918</ele>
        <time>2018-09-20T10:08:36+02:00</time>
      </trkpt>
      <trkpt lat="45.37644" lon="6.66597">
        <ele>1919</ele>
        <time>2018-09-20T10:08:57+02:00</time>
      </trkpt>
      <trkpt lat="45.37629" lon="6.66586">
        <ele>1920</ele>
        <time>2018-09-20T10:09:13+02:00</time>
      </trkpt>
      <trkpt lat="45.37614" lon="6.6657">
        <ele>1921</ele>
        <time>2018-09-20T10:09:31+02:00</time>
      </trkpt>
      <trkpt lat="45.37597" lon="6.66559">
        <ele>1921</ele>
        <time>2018-09-20T10:09:51+02:00</time>
      </trkpt>
      <trkpt lat="45.37588" lon="6.66554">
        <ele>1922</ele>
        <time>2018-09-20T10:10:02+02:00</time>
      </trkpt>
      <trkpt lat="45.37586" lon="6.66553">
        <ele>1922</ele>
        <time>2018-09-20T10:10:04+02:00</time>
      </trkpt>
      <trkpt lat="45.3757" lon="6.66542">
        <ele>1925</ele>
        <time>2018-09-20T10:10:23+02:00</time>
      </trkpt>
      <trkpt lat="45.37551" lon="6.66528">
        <ele>1927</ele>
        <time>2018-09-20T10:10:45+02:00</time>
      </trkpt>
      <trkpt lat="45.37536" lon="6.66516">
        <ele>1931</ele>
        <time>2018-09-20T10:11:07+02:00</time>
      </trkpt>
      <trkpt lat="45.37521" lon="6.66507">
        <ele>1933</ele>
        <time>2018-09-20T10:11:26+02:00</time>
      </trkpt>
      <trkpt lat="45.37503" lon="6.66498">
        <ele>1935</ele>
        <time>2018-09-20T10:11:48+02:00</time>
      </trkpt>
      <trkpt lat="45.37489" lon="6.66488">
        <ele>1939</ele>
        <time>2018-09-20T10:12:08+02:00</time>
      </trkpt>
      <trkpt lat="45.37476" lon="6.66483">
        <ele>1940</ele>
        <time>2018-09-20T10:12:24+02:00</time>
      </trkpt>
      <trkpt lat="45.3746" lon="6.66476">
        <ele>1940</ele>
        <time>2018-09-20T10:12:45+02:00</time>
      </trkpt>
      <trkpt lat="45.37444" lon="6.66468">
        <ele>1942</ele>
        <time>2018-09-20T10:13:05+02:00</time>
      </trkpt>
      <trkpt lat="45.37427" lon="6.66463">
        <ele>1944</ele>
        <time>2018-09-20T10:13:29+02:00</time>
      </trkpt>
      <trkpt lat="45.37412" lon="6.66453">
        <ele>1947</ele>
        <time>2018-09-20T10:13:51+02:00</time>
      </trkpt>
      <trkpt lat="45.374" lon="6.66445">
        <ele>1950</ele>
        <time>2018-09-20T10:14:10+02:00</time>
      </trkpt>
      <trkpt lat="45.37385" lon="6.66438">
        <ele>1953</ele>
        <time>2018-09-20T10:14:33+02:00</time>
      </trkpt>
      <trkpt lat="45.3737" lon="6.66437">
        <ele>1954</ele>
        <time>2018-09-20T10:14:53+02:00</time>
      </trkpt>
      <trkpt lat="45.37356" lon="6.66435">
        <ele>1957</ele>
        <time>2018-09-20T10:15:11+02:00</time>
      </trkpt>
      <trkpt lat="45.37337" lon="6.6644">
        <ele>1958</ele>
        <time>2018-09-20T10:15:32+02:00</time>
      </trkpt>
      <trkpt lat="45.37321" lon="6.66434">
        <ele>1962</ele>
        <time>2018-09-20T10:15:53+02:00</time>
      </trkpt>
      <trkpt lat="45.37305" lon="6.66421">
        <ele>1967</ele>
        <time>2018-09-20T10:16:17+02:00</time>
      </trkpt>
      <trkpt lat="45.37294" lon="6.66409">
        <ele>1971</ele>
        <time>2018-09-20T10:16:39+02:00</time>
      </trkpt>
      <trkpt lat="45.37283" lon="6.66398">
        <ele>1974</ele>
        <time>2018-09-20T10:17:01+02:00</time>
      </trkpt>
      <trkpt lat="45.3727" lon="6.66388">
        <ele>1976</ele>
        <time>2018-09-20T10:17:25+02:00</time>
      </trkpt>
      <trkpt lat="45.37258" lon="6.66381">
        <ele>1978</ele>
        <time>2018-09-20T10:17:46+02:00</time>
      </trkpt>
      <trkpt lat="45.37249" lon="6.66376">
        <ele>1980</ele>
        <time>2018-09-20T10:18:06+02:00</time>
      </trkpt>
      <trkpt lat="45.37234" lon="6.66368">
        <ele>1981</ele>
        <time>2018-09-20T10:18:28+02:00</time>
      </trkpt>
      <trkpt lat="45.37218" lon="6.66365">
        <ele>1983</ele>
        <time>2018-09-20T10:18:51+02:00</time>
      </trkpt>
      <trkpt lat="45.37205" lon="6.66361">
        <ele>1986</ele>
        <time>2018-09-20T10:19:14+02:00</time>
      </trkpt>
      <trkpt lat="45.3719" lon="6.66354">
        <ele>1989</ele>
        <time>2018-09-20T10:19:35+02:00</time>
      </trkpt>
      <trkpt lat="45.37174" lon="6.66344">
        <ele>1993</ele>
        <time>2018-09-20T10:19:56+02:00</time>
      </trkpt>
      <trkpt lat="45.37158" lon="6.66347">
        <ele>1995</ele>
        <time>2018-09-20T10:20:18+02:00</time>
      </trkpt>
      <trkpt lat="45.37151" lon="6.66342">
        <ele>1997</ele>
        <time>2018-09-20T10:20:36+02:00</time>
      </trkpt>
      <trkpt lat="45.37139" lon="6.66344">
        <ele>1999</ele>
        <time>2018-09-20T10:20:57+02:00</time>
      </trkpt>
      <trkpt lat="45.37129" lon="6.6636">
        <ele>2000</ele>
        <time>2018-09-20T10:21:17+02:00</time>
      </trkpt>
      <trkpt lat="45.37111" lon="6.6636">
        <ele>2002</ele>
        <time>2018-09-20T10:21:40+02:00</time>
      </trkpt>
      <trkpt lat="45.37104" lon="6.66353">
        <ele>2004</ele>
        <time>2018-09-20T10:21:58+02:00</time>
      </trkpt>
      <trkpt lat="45.37093" lon="6.66339">
        <ele>2007</ele>
        <time>2018-09-20T10:22:19+02:00</time>
      </trkpt>
      <trkpt lat="45.37083" lon="6.66329">
        <ele>2010</ele>
        <time>2018-09-20T10:22:40+02:00</time>
      </trkpt>
      <trkpt lat="45.37074" lon="6.66326">
        <ele>2012</ele>
        <time>2018-09-20T10:22:52+02:00</time>
      </trkpt>
      <trkpt lat="45.37056" lon="6.66326">
        <ele>2016</ele>
        <time>2018-09-20T10:23:18+02:00</time>
      </trkpt>
      <trkpt lat="45.37052" lon="6.66328">
        <ele>2016</ele>
        <time>2018-09-20T10:23:22+02:00</time>
      </trkpt>
      <trkpt lat="45.3705" lon="6.66329">
        <ele>2017</ele>
        <time>2018-09-20T10:23:24+02:00</time>
      </trkpt>
      <trkpt lat="45.37039" lon="6.66344">
        <ele>2016</ele>
        <time>2018-09-20T10:23:40+02:00</time>
      </trkpt>
      <trkpt lat="45.37028" lon="6.66345">
        <ele>2018</ele>
        <time>2018-09-20T10:24:01+02:00</time>
      </trkpt>
      <trkpt lat="45.37015" lon="6.66333">
        <ele>2021</ele>
        <time>2018-09-20T10:24:21+02:00</time>
      </trkpt>
      <trkpt lat="45.37" lon="6.66322">
        <ele>2025</ele>
        <time>2018-09-20T10:24:44+02:00</time>
      </trkpt>
      <trkpt lat="45.36985" lon="6.66317">
        <ele>2027</ele>
        <time>2018-09-20T10:25:06+02:00</time>
      </trkpt>
      <trkpt lat="45.3697" lon="6.66313">
        <ele>2030</ele>
        <time>2018-09-20T10:25:26+02:00</time>
      </trkpt>
      <trkpt lat="45.36969" lon="6.66312">
        <ele>2030</ele>
        <time>2018-09-20T10:25:28+02:00</time>
      </trkpt>
      <trkpt lat="45.36953" lon="6.66309">
        <ele>2032</ele>
        <time>2018-09-20T10:25:48+02:00</time>
      </trkpt>
      <trkpt lat="45.36947" lon="6.66296">
        <ele>2035</ele>
        <time>2018-09-20T10:26:08+02:00</time>
      </trkpt>
      <trkpt lat="45.36947" lon="6.6629">
        <ele>2037</ele>
        <time>2018-09-20T10:26:13+02:00</time>
      </trkpt>
      <trkpt lat="45.36948" lon="6.66282">
        <ele>2039</ele>
        <time>2018-09-20T10:26:23+02:00</time>
      </trkpt>
      <trkpt lat="45.36955" lon="6.66264">
        <ele>2042</ele>
        <time>2018-09-20T10:26:40+02:00</time>
      </trkpt>
      <trkpt lat="45.36957" lon="6.66266">
        <ele>2041</ele>
        <time>2018-09-20T10:27:05+02:00</time>
      </trkpt>
      <trkpt lat="45.36958" lon="6.6627">
        <ele>2040</ele>
        <time>2018-09-20T10:27:35+02:00</time>
      </trkpt>
      <trkpt lat="45.36958" lon="6.66269">
        <ele>2040</ele>
        <time>2018-09-20T10:28:07+02:00</time>
      </trkpt>
      <trkpt lat="45.36956" lon="6.66268">
        <ele>2041</ele>
        <time>2018-09-20T10:28:37+02:00</time>
      </trkpt>
      <trkpt lat="45.36957" lon="6.66268">
        <ele>2041</ele>
        <time>2018-09-20T10:29:09+02:00</time>
      </trkpt>
      <trkpt lat="45.36955" lon="6.66264">
        <ele>2042</ele>
        <time>2018-09-20T10:29:33+02:00</time>
      </trkpt>
      <trkpt lat="45.36952" lon="6.66267">
        <ele>2041</ele>
        <time>2018-09-20T10:30:00+02:00</time>
      </trkpt>
      <trkpt lat="45.36954" lon="6.66267">
        <ele>2041</ele>
        <time>2018-09-20T10:30:29+02:00</time>
      </trkpt>
      <trkpt lat="45.36955" lon="6.66269">
        <ele>2041</ele>
        <time>2018-09-20T10:30:58+02:00</time>
      </trkpt>
      <trkpt lat="45.36955" lon="6.66265">
        <ele>2042</ele>
        <time>2018-09-20T10:31:30+02:00</time>
      </trkpt>
      <trkpt lat="45.36958" lon="6.66265">
        <ele>2041</ele>
        <time>2018-09-20T10:32:02+02:00</time>
      </trkpt>
      <trkpt lat="45.36958" lon="6.66264">
        <ele>2041</ele>
        <time>2018-09-20T10:32:08+02:00</time>
      </trkpt>
      <trkpt lat="45.36957" lon="6.66261">
        <ele>2042</ele>
        <time>2018-09-20T10:32:11+02:00</time>
      </trkpt>
      <trkpt lat="45.36964" lon="6.66253">
        <ele>2043</ele>
        <time>2018-09-20T10:32:36+02:00</time>
      </trkpt>
      <trkpt lat="45.36975" lon="6.66241">
        <ele>2044</ele>
        <time>2018-09-20T10:33:00+02:00</time>
      </trkpt>
      <trkpt lat="45.36972" lon="6.66208">
        <ele>2052</ele>
        <time>2018-09-20T10:33:25+02:00</time>
      </trkpt>
      <trkpt lat="45.36962" lon="6.66208">
        <ele>2053</ele>
        <time>2018-09-20T10:33:45+02:00</time>
      </trkpt>
      <trkpt lat="45.36948" lon="6.66209">
        <ele>2055</ele>
        <time>2018-09-20T10:34:05+02:00</time>
      </trkpt>
      <trkpt lat="45.36929" lon="6.66199">
        <ele>2060</ele>
        <time>2018-09-20T10:34:31+02:00</time>
      </trkpt>
      <trkpt lat="45.36912" lon="6.66195">
        <ele>2062</ele>
        <time>2018-09-20T10:34:53+02:00</time>
      </trkpt>
      <trkpt lat="45.36897" lon="6.66183">
        <ele>2065</ele>
        <time>2018-09-20T10:35:16+02:00</time>
      </trkpt>
      <trkpt lat="45.369" lon="6.6617">
        <ele>2069</ele>
        <time>2018-09-20T10:35:36+02:00</time>
      </trkpt>
      <trkpt lat="45.36913" lon="6.66159">
        <ele>2072</ele>
        <time>2018-09-20T10:35:58+02:00</time>
      </trkpt>
      <trkpt lat="45.36903" lon="6.66145">
        <ele>2077</ele>
        <time>2018-09-20T10:36:18+02:00</time>
      </trkpt>
      <trkpt lat="45.36886" lon="6.66146">
        <ele>2080</ele>
        <time>2018-09-20T10:36:40+02:00</time>
      </trkpt>
      <trkpt lat="45.3687" lon="6.66158">
        <ele>2083</ele>
        <time>2018-09-20T10:37:02+02:00</time>
      </trkpt>
      <trkpt lat="45.36857" lon="6.66174">
        <ele>2083</ele>
        <time>2018-09-20T10:37:26+02:00</time>
      </trkpt>
      <trkpt lat="45.36844" lon="6.66179">
        <ele>2087</ele>
        <time>2018-09-20T10:37:48+02:00</time>
      </trkpt>
      <trkpt lat="45.36828" lon="6.66184">
        <ele>2092</ele>
        <time>2018-09-20T10:38:10+02:00</time>
      </trkpt>
      <trkpt lat="45.36825" lon="6.66185">
        <ele>2093</ele>
        <time>2018-09-20T10:38:14+02:00</time>
      </trkpt>
      <trkpt lat="45.36813" lon="6.66196">
        <ele>2093</ele>
        <time>2018-09-20T10:38:33+02:00</time>
      </trkpt>
      <trkpt lat="45.36797" lon="6.66206">
        <ele>2095</ele>
        <time>2018-09-20T10:38:56+02:00</time>
      </trkpt>
      <trkpt lat="45.36784" lon="6.66209">
        <ele>2097</ele>
        <time>2018-09-20T10:39:15+02:00</time>
      </trkpt>
      <trkpt lat="45.36768" lon="6.66205">
        <ele>2103</ele>
        <time>2018-09-20T10:39:36+02:00</time>
      </trkpt>
      <trkpt lat="45.36751" lon="6.66208">
        <ele>2106</ele>
        <time>2018-09-20T10:39:57+02:00</time>
      </trkpt>
      <trkpt lat="45.36736" lon="6.66216">
        <ele>2108</ele>
        <time>2018-09-20T10:40:15+02:00</time>
      </trkpt>
      <trkpt lat="45.36731" lon="6.66221">
        <ele>2109</ele>
        <time>2018-09-20T10:40:23+02:00</time>
      </trkpt>
      <trkpt lat="45.36723" lon="6.66235">
        <ele>2109</ele>
        <time>2018-09-20T10:40:40+02:00</time>
      </trkpt>
      <trkpt lat="45.36721" lon="6.66239">
        <ele>2110</ele>
        <time>2018-09-20T10:41:02+02:00</time>
      </trkpt>
      <trkpt lat="45.3672" lon="6.66237">
        <ele>2110</ele>
        <time>2018-09-20T10:41:30+02:00</time>
      </trkpt>
      <trkpt lat="45.36719" lon="6.66239">
        <ele>2110</ele>
        <time>2018-09-20T10:42:06+02:00</time>
      </trkpt>
      <trkpt lat="45.36711" lon="6.66252">
        <ele>2110</ele>
        <time>2018-09-20T10:42:33+02:00</time>
      </trkpt>
      <trkpt lat="45.36694" lon="6.66264">
        <ele>2113</ele>
        <time>2018-09-20T10:42:51+02:00</time>
      </trkpt>
      <trkpt lat="45.36674" lon="6.66276">
        <ele>2114</ele>
        <time>2018-09-20T10:43:11+02:00</time>
      </trkpt>
      <trkpt lat="45.36665" lon="6.66276">
        <ele>2115</ele>
        <time>2018-09-20T10:43:19+02:00</time>
      </trkpt>
      <trkpt lat="45.36655" lon="6.66276">
        <ele>2116</ele>
        <time>2018-09-20T10:43:30+02:00</time>
      </trkpt>
      <trkpt lat="45.3664" lon="6.66275">
        <ele>2117</ele>
        <time>2018-09-20T10:43:47+02:00</time>
      </trkpt>
      <trkpt lat="45.36623" lon="6.66272">
        <ele>2120</ele>
        <time>2018-09-20T10:44:06+02:00</time>
      </trkpt>
      <trkpt lat="45.36618" lon="6.66271">
        <ele>2121</ele>
        <time>2018-09-20T10:44:10+02:00</time>
      </trkpt>
      <trkpt lat="45.36613" lon="6.6629">
        <ele>2121</ele>
        <time>2018-09-20T10:44:29+02:00</time>
      </trkpt>
      <trkpt lat="45.36615" lon="6.66297">
        <ele>2121</ele>
        <time>2018-09-20T10:44:35+02:00</time>
      </trkpt>
      <trkpt lat="45.36616" lon="6.66308">
        <ele>2122</ele>
        <time>2018-09-20T10:44:44+02:00</time>
      </trkpt>
      <trkpt lat="45.36608" lon="6.66327">
        <ele>2126</ele>
        <time>2018-09-20T10:45:01+02:00</time>
      </trkpt>
      <trkpt lat="45.36594" lon="6.66334">
        <ele>2128</ele>
        <time>2018-09-20T10:45:21+02:00</time>
      </trkpt>
      <trkpt lat="45.36583" lon="6.66349">
        <ele>2130</ele>
        <time>2018-09-20T10:45:40+02:00</time>
      </trkpt>
      <trkpt lat="45.36575" lon="6.66367">
        <ele>2130</ele>
        <time>2018-09-20T10:45:58+02:00</time>
      </trkpt>
      <trkpt lat="45.36567" lon="6.6638">
        <ele>2132</ele>
        <time>2018-09-20T10:46:18+02:00</time>
      </trkpt>
      <trkpt lat="45.36556" lon="6.6639">
        <ele>2135</ele>
        <time>2018-09-20T10:46:38+02:00</time>
      </trkpt>
      <trkpt lat="45.36542" lon="6.66407">
        <ele>2138</ele>
        <time>2018-09-20T10:46:57+02:00</time>
      </trkpt>
      <trkpt lat="45.3653" lon="6.66419">
        <ele>2141</ele>
        <time>2018-09-20T10:47:17+02:00</time>
      </trkpt>
      <trkpt lat="45.36526" lon="6.66425">
        <ele>2143</ele>
        <time>2018-09-20T10:47:25+02:00</time>
      </trkpt>
      <trkpt lat="45.36519" lon="6.66438">
        <ele>2145</ele>
        <time>2018-09-20T10:47:43+02:00</time>
      </trkpt>
      <trkpt lat="45.3651" lon="6.66453">
        <ele>2148</ele>
        <time>2018-09-20T10:48:02+02:00</time>
      </trkpt>
      <trkpt lat="45.36492" lon="6.66466">
        <ele>2153</ele>
        <time>2018-09-20T10:48:27+02:00</time>
      </trkpt>
      <trkpt lat="45.36479" lon="6.66479">
        <ele>2156</ele>
        <time>2018-09-20T10:48:48+02:00</time>
      </trkpt>
      <trkpt lat="45.3646" lon="6.66497">
        <ele>2159</ele>
        <time>2018-09-20T10:49:10+02:00</time>
      </trkpt>
      <trkpt lat="45.36444" lon="6.66513">
        <ele>2159</ele>
        <time>2018-09-20T10:49:30+02:00</time>
      </trkpt>
      <trkpt lat="45.36436" lon="6.66518">
        <ele>2160</ele>
        <time>2018-09-20T10:49:38+02:00</time>
      </trkpt>
      <trkpt lat="45.36412" lon="6.66527">
        <ele>2162</ele>
        <time>2018-09-20T10:50:01+02:00</time>
      </trkpt>
      <trkpt lat="45.36391" lon="6.6654">
        <ele>2163</ele>
        <time>2018-09-20T10:50:22+02:00</time>
      </trkpt>
      <trkpt lat="45.36372" lon="6.66551">
        <ele>2164</ele>
        <time>2018-09-20T10:50:43+02:00</time>
      </trkpt>
      <trkpt lat="45.36362" lon="6.66555">
        <ele>2164</ele>
        <time>2018-09-20T10:50:53+02:00</time>
      </trkpt>
      <trkpt lat="45.36345" lon="6.66561">
        <ele>2165</ele>
        <time>2018-09-20T10:51:11+02:00</time>
      </trkpt>
      <trkpt lat="45.3633" lon="6.66561">
        <ele>2166</ele>
        <time>2018-09-20T10:51:29+02:00</time>
      </trkpt>
      <trkpt lat="45.36311" lon="6.66562">
        <ele>2167</ele>
        <time>2018-09-20T10:51:46+02:00</time>
      </trkpt>
      <trkpt lat="45.36296" lon="6.66561">
        <ele>2168</ele>
        <time>2018-09-20T10:52:00+02:00</time>
      </trkpt>
      <trkpt lat="45.36277" lon="6.66557">
        <ele>2169</ele>
        <time>2018-09-20T10:52:23+02:00</time>
      </trkpt>
      <trkpt lat="45.36269" lon="6.66561">
        <ele>2169</ele>
        <time>2018-09-20T10:52:45+02:00</time>
      </trkpt>
      <trkpt lat="45.36267" lon="6.66558">
        <ele>2169</ele>
        <time>2018-09-20T10:53:07+02:00</time>
      </trkpt>
      <trkpt lat="45.36266" lon="6.66553">
        <ele>2170</ele>
        <time>2018-09-20T10:53:37+02:00</time>
      </trkpt>
      <trkpt lat="45.36268" lon="6.66555">
        <ele>2170</ele>
        <time>2018-09-20T10:53:49+02:00</time>
      </trkpt>
      <trkpt lat="45.36271" lon="6.66559">
        <ele>2169</ele>
        <time>2018-09-20T10:54:26+02:00</time>
      </trkpt>
      <trkpt lat="45.3627" lon="6.6656">
        <ele>2169</ele>
        <time>2018-09-20T10:54:28+02:00</time>
      </trkpt>
      <trkpt lat="45.36271" lon="6.66564">
        <ele>2168</ele>
        <time>2018-09-20T10:54:48+02:00</time>
      </trkpt>
      <trkpt lat="45.36246" lon="6.66566">
        <ele>2168</ele>
        <time>2018-09-20T10:55:05+02:00</time>
      </trkpt>
      <trkpt lat="45.36217" lon="6.66568">
        <ele>2170</ele>
        <time>2018-09-20T10:55:29+02:00</time>
      </trkpt>
      <trkpt lat="45.36215" lon="6.66568">
        <ele>2170</ele>
        <time>2018-09-20T10:55:31+02:00</time>
      </trkpt>
      <trkpt lat="45.3621" lon="6.66568">
        <ele>2170</ele>
        <time>2018-09-20T10:55:35+02:00</time>
      </trkpt>
      <trkpt lat="45.36208" lon="6.66569">
        <ele>2170</ele>
        <time>2018-09-20T10:55:37+02:00</time>
      </trkpt>
      <trkpt lat="45.36189" lon="6.66572">
        <ele>2170</ele>
        <time>2018-09-20T10:55:55+02:00</time>
      </trkpt>
      <trkpt lat="45.36184" lon="6.66577">
        <ele>2169</ele>
        <time>2018-09-20T10:56:01+02:00</time>
      </trkpt>
      <trkpt lat="45.36165" lon="6.6657">
        <ele>2171</ele>
        <time>2018-09-20T10:56:17+02:00</time>
      </trkpt>
      <trkpt lat="45.36143" lon="6.66567">
        <ele>2171</ele>
        <time>2018-09-20T10:56:33+02:00</time>
      </trkpt>
      <trkpt lat="45.36141" lon="6.66567">
        <ele>2171</ele>
        <time>2018-09-20T10:56:34+02:00</time>
      </trkpt>
      <trkpt lat="45.36128" lon="6.66568">
        <ele>2171</ele>
        <time>2018-09-20T10:56:45+02:00</time>
      </trkpt>
      <trkpt lat="45.36118" lon="6.6657">
        <ele>2171</ele>
        <time>2018-09-20T10:56:53+02:00</time>
      </trkpt>
      <trkpt lat="45.36099" lon="6.66564">
        <ele>2172</ele>
        <time>2018-09-20T10:57:09+02:00</time>
      </trkpt>
      <trkpt lat="45.36083" lon="6.66568">
        <ele>2171</ele>
        <time>2018-09-20T10:57:27+02:00</time>
      </trkpt>
      <trkpt lat="45.36078" lon="6.66573">
        <ele>2171</ele>
        <time>2018-09-20T10:57:38+02:00</time>
      </trkpt>
      <trkpt lat="45.36075" lon="6.66576">
        <ele>2171</ele>
        <time>2018-09-20T10:57:41+02:00</time>
      </trkpt>
      <trkpt lat="45.36064" lon="6.66593">
        <ele>2171</ele>
        <time>2018-09-20T10:57:59+02:00</time>
      </trkpt>
      <trkpt lat="45.3606" lon="6.66596">
        <ele>2171</ele>
        <time>2018-09-20T10:58:22+02:00</time>
      </trkpt>
      <trkpt lat="45.36048" lon="6.66602">
        <ele>2173</ele>
        <time>2018-09-20T10:58:41+02:00</time>
      </trkpt>
      <trkpt lat="45.36039" lon="6.666">
        <ele>2175</ele>
        <time>2018-09-20T10:58:52+02:00</time>
      </trkpt>
      <trkpt lat="45.36033" lon="6.66601">
        <ele>2176</ele>
        <time>2018-09-20T10:58:59+02:00</time>
      </trkpt>
      <trkpt lat="45.3603" lon="6.66601">
        <ele>2177</ele>
        <time>2018-09-20T10:59:02+02:00</time>
      </trkpt>
      <trkpt lat="45.36019" lon="6.66597">
        <ele>2178</ele>
        <time>2018-09-20T10:59:21+02:00</time>
      </trkpt>
      <trkpt lat="45.36013" lon="6.66597">
        <ele>2179</ele>
        <time>2018-09-20T10:59:27+02:00</time>
      </trkpt>
      <trkpt lat="45.35994" lon="6.66605">
        <ele>2179</ele>
        <time>2018-09-20T10:59:45+02:00</time>
      </trkpt>
      <trkpt lat="45.35976" lon="6.66615">
        <ele>2180</ele>
        <time>2018-09-20T11:00:02+02:00</time>
      </trkpt>
      <trkpt lat="45.35959" lon="6.66622">
        <ele>2180</ele>
        <time>2018-09-20T11:00:18+02:00</time>
      </trkpt>
      <trkpt lat="45.35947" lon="6.66626">
        <ele>2179</ele>
        <time>2018-09-20T11:00:29+02:00</time>
      </trkpt>
      <trkpt lat="45.35929" lon="6.66624">
        <ele>2180</ele>
        <time>2018-09-20T11:00:46+02:00</time>
      </trkpt>
      <trkpt lat="45.35916" lon="6.66617">
        <ele>2182</ele>
        <time>2018-09-20T11:01:01+02:00</time>
      </trkpt>
      <trkpt lat="45.35901" lon="6.66613">
        <ele>2184</ele>
        <time>2018-09-20T11:01:18+02:00</time>
      </trkpt>
      <trkpt lat="45.35885" lon="6.66611">
        <ele>2186</ele>
        <time>2018-09-20T11:01:38+02:00</time>
      </trkpt>
      <trkpt lat="45.35868" lon="6.66621">
        <ele>2188</ele>
        <time>2018-09-20T11:02:00+02:00</time>
      </trkpt>
      <trkpt lat="45.35864" lon="6.66646">
        <ele>2192</ele>
        <time>2018-09-20T11:02:22+02:00</time>
      </trkpt>
      <trkpt lat="45.35865" lon="6.66654">
        <ele>2193</ele>
        <time>2018-09-20T11:02:30+02:00</time>
      </trkpt>
      <trkpt lat="45.35869" lon="6.66676">
        <ele>2196</ele>
        <time>2018-09-20T11:02:50+02:00</time>
      </trkpt>
      <trkpt lat="45.35879" lon="6.66698">
        <ele>2200</ele>
        <time>2018-09-20T11:03:11+02:00</time>
      </trkpt>
      <trkpt lat="45.35887" lon="6.66715">
        <ele>2203</ele>
        <time>2018-09-20T11:03:32+02:00</time>
      </trkpt>
      <trkpt lat="45.35896" lon="6.66735">
        <ele>2206</ele>
        <time>2018-09-20T11:03:56+02:00</time>
      </trkpt>
      <trkpt lat="45.35905" lon="6.66749">
        <ele>2209</ele>
        <time>2018-09-20T11:04:17+02:00</time>
      </trkpt>
      <trkpt lat="45.35917" lon="6.66764">
        <ele>2210</ele>
        <time>2018-09-20T11:04:41+02:00</time>
      </trkpt>
      <trkpt lat="45.35925" lon="6.66779">
        <ele>2211</ele>
        <time>2018-09-20T11:05:02+02:00</time>
      </trkpt>
      <trkpt lat="45.35933" lon="6.66801">
        <ele>2213</ele>
        <time>2018-09-20T11:05:27+02:00</time>
      </trkpt>
      <trkpt lat="45.35933" lon="6.66827">
        <ele>2217</ele>
        <time>2018-09-20T11:05:49+02:00</time>
      </trkpt>
      <trkpt lat="45.35934" lon="6.6685">
        <ele>2221</ele>
        <time>2018-09-20T11:06:11+02:00</time>
      </trkpt>
      <trkpt lat="45.35937" lon="6.66869">
        <ele>2224</ele>
        <time>2018-09-20T11:06:32+02:00</time>
      </trkpt>
      <trkpt lat="45.35936" lon="6.66884">
        <ele>2227</ele>
        <time>2018-09-20T11:06:53+02:00</time>
      </trkpt>
      <trkpt lat="45.35924" lon="6.66888">
        <ele>2229</ele>
        <time>2018-09-20T11:07:13+02:00</time>
      </trkpt>
      <trkpt lat="45.35919" lon="6.66885">
        <ele>2229</ele>
        <time>2018-09-20T11:07:34+02:00</time>
      </trkpt>
      <trkpt lat="45.35915" lon="6.66883">
        <ele>2229</ele>
        <time>2018-09-20T11:07:54+02:00</time>
      </trkpt>
      <trkpt lat="45.3591" lon="6.66881">
        <ele>2230</ele>
        <time>2018-09-20T11:08:21+02:00</time>
      </trkpt>
      <trkpt lat="45.35892" lon="6.66872">
        <ele>2234</ele>
        <time>2018-09-20T11:08:43+02:00</time>
      </trkpt>
      <trkpt lat="45.35881" lon="6.66875">
        <ele>2236</ele>
        <time>2018-09-20T11:09:05+02:00</time>
      </trkpt>
      <trkpt lat="45.3588" lon="6.6687">
        <ele>2236</ele>
        <time>2018-09-20T11:09:28+02:00</time>
      </trkpt>
      <trkpt lat="45.35867" lon="6.66873">
        <ele>2238</ele>
        <time>2018-09-20T11:09:48+02:00</time>
      </trkpt>
      <trkpt lat="45.35855" lon="6.66868">
        <ele>2240</ele>
        <time>2018-09-20T11:10:07+02:00</time>
      </trkpt>
      <trkpt lat="45.35846" lon="6.66863">
        <ele>2242</ele>
        <time>2018-09-20T11:10:24+02:00</time>
      </trkpt>
      <trkpt lat="45.35837" lon="6.66863">
        <ele>2244</ele>
        <time>2018-09-20T11:10:41+02:00</time>
      </trkpt>
      <trkpt lat="45.35822" lon="6.66858">
        <ele>2247</ele>
        <time>2018-09-20T11:11:04+02:00</time>
      </trkpt>
      <trkpt lat="45.3581" lon="6.6686">
        <ele>2248</ele>
        <time>2018-09-20T11:11:23+02:00</time>
      </trkpt>
      <trkpt lat="45.35797" lon="6.66858">
        <ele>2249</ele>
        <time>2018-09-20T11:11:42+02:00</time>
      </trkpt>
      <trkpt lat="45.35789" lon="6.66855">
        <ele>2250</ele>
        <time>2018-09-20T11:11:59+02:00</time>
      </trkpt>
      <trkpt lat="45.35775" lon="6.66847">
        <ele>2250</ele>
        <time>2018-09-20T11:12:17+02:00</time>
      </trkpt>
      <trkpt lat="45.3576" lon="6.66839">
        <ele>2250</ele>
        <time>2018-09-20T11:12:37+02:00</time>
      </trkpt>
      <trkpt lat="45.35744" lon="6.66832">
        <ele>2250</ele>
        <time>2018-09-20T11:12:57+02:00</time>
      </trkpt>
      <trkpt lat="45.35728" lon="6.66823">
        <ele>2250</ele>
        <time>2018-09-20T11:13:16+02:00</time>
      </trkpt>
      <trkpt lat="45.35712" lon="6.66821">
        <ele>2250</ele>
        <time>2018-09-20T11:13:36+02:00</time>
      </trkpt>
      <trkpt lat="45.35701" lon="6.66818">
        <ele>2250</ele>
        <time>2018-09-20T11:13:53+02:00</time>
      </trkpt>
      <trkpt lat="45.35696" lon="6.66812">
        <ele>2249</ele>
        <time>2018-09-20T11:14:09+02:00</time>
      </trkpt>
      <trkpt lat="45.35684" lon="6.66799">
        <ele>2248</ele>
        <time>2018-09-20T11:14:26+02:00</time>
      </trkpt>
      <trkpt lat="45.35669" lon="6.66791">
        <ele>2250</ele>
        <time>2018-09-20T11:14:46+02:00</time>
      </trkpt>
      <trkpt lat="45.35659" lon="6.6678">
        <ele>2251</ele>
        <time>2018-09-20T11:15:05+02:00</time>
      </trkpt>
      <trkpt lat="45.35655" lon="6.6677">
        <ele>2252</ele>
        <time>2018-09-20T11:15:29+02:00</time>
      </trkpt>
      <trkpt lat="45.35648" lon="6.6677">
        <ele>2254</ele>
        <time>2018-09-20T11:15:52+02:00</time>
      </trkpt>
      <trkpt lat="45.35637" lon="6.6677">
        <ele>2257</ele>
        <time>2018-09-20T11:16:18+02:00</time>
      </trkpt>
      <trkpt lat="45.35624" lon="6.66768">
        <ele>2261</ele>
        <time>2018-09-20T11:16:42+02:00</time>
      </trkpt>
      <trkpt lat="45.35617" lon="6.66767">
        <ele>2263</ele>
        <time>2018-09-20T11:16:59+02:00</time>
      </trkpt>
      <trkpt lat="45.35608" lon="6.66765">
        <ele>2265</ele>
        <time>2018-09-20T11:17:21+02:00</time>
      </trkpt>
      <trkpt lat="45.35598" lon="6.66761">
        <ele>2269</ele>
        <time>2018-09-20T11:17:47+02:00</time>
      </trkpt>
      <trkpt lat="45.35583" lon="6.66759">
        <ele>2273</ele>
        <time>2018-09-20T11:18:11+02:00</time>
      </trkpt>
      <trkpt lat="45.35573" lon="6.66752">
        <ele>2276</ele>
        <time>2018-09-20T11:18:30+02:00</time>
      </trkpt>
      <trkpt lat="45.35563" lon="6.66744">
        <ele>2278</ele>
        <time>2018-09-20T11:18:56+02:00</time>
      </trkpt>
      <trkpt lat="45.35558" lon="6.66738">
        <ele>2279</ele>
        <time>2018-09-20T11:19:15+02:00</time>
      </trkpt>
      <trkpt lat="45.35549" lon="6.66731">
        <ele>2282</ele>
        <time>2018-09-20T11:19:40+02:00</time>
      </trkpt>
      <trkpt lat="45.35541" lon="6.66727">
        <ele>2284</ele>
        <time>2018-09-20T11:20:02+02:00</time>
      </trkpt>
      <trkpt lat="45.35533" lon="6.66723">
        <ele>2287</ele>
        <time>2018-09-20T11:20:24+02:00</time>
      </trkpt>
      <trkpt lat="45.35523" lon="6.66721">
        <ele>2290</ele>
        <time>2018-09-20T11:20:44+02:00</time>
      </trkpt>
      <trkpt lat="45.35512" lon="6.66715">
        <ele>2293</ele>
        <time>2018-09-20T11:21:07+02:00</time>
      </trkpt>
      <trkpt lat="45.35503" lon="6.66713">
        <ele>2296</ele>
        <time>2018-09-20T11:21:32+02:00</time>
      </trkpt>
      <trkpt lat="45.35494" lon="6.6672">
        <ele>2298</ele>
        <time>2018-09-20T11:21:57+02:00</time>
      </trkpt>
      <trkpt lat="45.35487" lon="6.66721">
        <ele>2300</ele>
        <time>2018-09-20T11:22:18+02:00</time>
      </trkpt>
      <trkpt lat="45.35477" lon="6.66719">
        <ele>2303</ele>
        <time>2018-09-20T11:22:43+02:00</time>
      </trkpt>
      <trkpt lat="45.35468" lon="6.6671">
        <ele>2306</ele>
        <time>2018-09-20T11:23:05+02:00</time>
      </trkpt>
      <trkpt lat="45.35457" lon="6.66711">
        <ele>2308</ele>
        <time>2018-09-20T11:23:22+02:00</time>
      </trkpt>
      <trkpt lat="45.35448" lon="6.6671">
        <ele>2311</ele>
        <time>2018-09-20T11:23:48+02:00</time>
      </trkpt>
      <trkpt lat="45.35435" lon="6.66706">
        <ele>2314</ele>
        <time>2018-09-20T11:24:12+02:00</time>
      </trkpt>
      <trkpt lat="45.35423" lon="6.66706">
        <ele>2318</ele>
        <time>2018-09-20T11:24:40+02:00</time>
      </trkpt>
      <trkpt lat="45.35414" lon="6.66705">
        <ele>2321</ele>
        <time>2018-09-20T11:25:05+02:00</time>
      </trkpt>
      <trkpt lat="45.35399" lon="6.66714">
        <ele>2325</ele>
        <time>2018-09-20T11:25:33+02:00</time>
      </trkpt>
      <trkpt lat="45.35387" lon="6.66714">
        <ele>2327</ele>
        <time>2018-09-20T11:25:59+02:00</time>
      </trkpt>
      <trkpt lat="45.35372" lon="6.6671">
        <ele>2329</ele>
        <time>2018-09-20T11:26:21+02:00</time>
      </trkpt>
      <trkpt lat="45.35355" lon="6.66707">
        <ele>2331</ele>
        <time>2018-09-20T11:26:45+02:00</time>
      </trkpt>
      <trkpt lat="45.35339" lon="6.66707">
        <ele>2333</ele>
        <time>2018-09-20T11:27:07+02:00</time>
      </trkpt>
      <trkpt lat="45.3533" lon="6.66707">
        <ele>2335</ele>
        <time>2018-09-20T11:27:31+02:00</time>
      </trkpt>
      <trkpt lat="45.35319" lon="6.66701">
        <ele>2339</ele>
        <time>2018-09-20T11:27:53+02:00</time>
      </trkpt>
      <trkpt lat="45.35309" lon="6.66709">
        <ele>2340</ele>
        <time>2018-09-20T11:28:12+02:00</time>
      </trkpt>
      <trkpt lat="45.35305" lon="6.66709">
        <ele>2341</ele>
        <time>2018-09-20T11:28:16+02:00</time>
      </trkpt>
      <trkpt lat="45.35295" lon="6.66719">
        <ele>2342</ele>
        <time>2018-09-20T11:28:36+02:00</time>
      </trkpt>
      <trkpt lat="45.35283" lon="6.66724">
        <ele>2344</ele>
        <time>2018-09-20T11:29:02+02:00</time>
      </trkpt>
      <trkpt lat="45.35273" lon="6.66724">
        <ele>2346</ele>
        <time>2018-09-20T11:29:28+02:00</time>
      </trkpt>
      <trkpt lat="45.35262" lon="6.66719">
        <ele>2350</ele>
        <time>2018-09-20T11:29:55+02:00</time>
      </trkpt>
      <trkpt lat="45.3525" lon="6.66725">
        <ele>2352</ele>
        <time>2018-09-20T11:30:21+02:00</time>
      </trkpt>
      <trkpt lat="45.35235" lon="6.6673">
        <ele>2355</ele>
        <time>2018-09-20T11:30:48+02:00</time>
      </trkpt>
      <trkpt lat="45.35222" lon="6.66732">
        <ele>2357</ele>
        <time>2018-09-20T11:31:15+02:00</time>
      </trkpt>
      <trkpt lat="45.35209" lon="6.66732">
        <ele>2359</ele>
        <time>2018-09-20T11:31:36+02:00</time>
      </trkpt>
      <trkpt lat="45.35198" lon="6.66737">
        <ele>2359</ele>
        <time>2018-09-20T11:31:59+02:00</time>
      </trkpt>
      <trkpt lat="45.35186" lon="6.66734">
        <ele>2361</ele>
        <time>2018-09-20T11:32:22+02:00</time>
      </trkpt>
      <trkpt lat="45.35171" lon="6.66731">
        <ele>2364</ele>
        <time>2018-09-20T11:32:46+02:00</time>
      </trkpt>
      <trkpt lat="45.35161" lon="6.6673">
        <ele>2366</ele>
        <time>2018-09-20T11:33:09+02:00</time>
      </trkpt>
      <trkpt lat="45.35152" lon="6.66733">
        <ele>2367</ele>
        <time>2018-09-20T11:33:30+02:00</time>
      </trkpt>
      <trkpt lat="45.35141" lon="6.66742">
        <ele>2367</ele>
        <time>2018-09-20T11:33:52+02:00</time>
      </trkpt>
      <trkpt lat="45.35129" lon="6.6675">
        <ele>2368</ele>
        <time>2018-09-20T11:34:15+02:00</time>
      </trkpt>
      <trkpt lat="45.35114" lon="6.66754">
        <ele>2369</ele>
        <time>2018-09-20T11:34:37+02:00</time>
      </trkpt>
      <trkpt lat="45.35101" lon="6.66762">
        <ele>2369</ele>
        <time>2018-09-20T11:34:58+02:00</time>
      </trkpt>
      <trkpt lat="45.35083" lon="6.66773">
        <ele>2369</ele>
        <time>2018-09-20T11:35:25+02:00</time>
      </trkpt>
      <trkpt lat="45.3507" lon="6.66785">
        <ele>2370</ele>
        <time>2018-09-20T11:35:49+02:00</time>
      </trkpt>
      <trkpt lat="45.35063" lon="6.66796">
        <ele>2370</ele>
        <time>2018-09-20T11:36:02+02:00</time>
      </trkpt>
      <trkpt lat="45.35052" lon="6.66803">
        <ele>2370</ele>
        <time>2018-09-20T11:36:24+02:00</time>
      </trkpt>
      <trkpt lat="45.35045" lon="6.6681">
        <ele>2371</ele>
        <time>2018-09-20T11:36:43+02:00</time>
      </trkpt>
      <trkpt lat="45.35031" lon="6.6682">
        <ele>2372</ele>
        <time>2018-09-20T11:37:03+02:00</time>
      </trkpt>
      <trkpt lat="45.35019" lon="6.66833">
        <ele>2373</ele>
        <time>2018-09-20T11:37:22+02:00</time>
      </trkpt>
      <trkpt lat="45.35014" lon="6.66849">
        <ele>2376</ele>
        <time>2018-09-20T11:37:46+02:00</time>
      </trkpt>
      <trkpt lat="45.35012" lon="6.66864">
        <ele>2378</ele>
        <time>2018-09-20T11:38:08+02:00</time>
      </trkpt>
      <trkpt lat="45.35017" lon="6.66878">
        <ele>2379</ele>
        <time>2018-09-20T11:38:30+02:00</time>
      </trkpt>
      <trkpt lat="45.3501" lon="6.66888">
        <ele>2383</ele>
        <time>2018-09-20T11:38:53+02:00</time>
      </trkpt>
      <trkpt lat="45.35012" lon="6.66896">
        <ele>2383</ele>
        <time>2018-09-20T11:39:24+02:00</time>
      </trkpt>
      <trkpt lat="45.35005" lon="6.66912">
        <ele>2386</ele>
        <time>2018-09-20T11:39:47+02:00</time>
      </trkpt>
      <trkpt lat="45.34998" lon="6.66922">
        <ele>2388</ele>
        <time>2018-09-20T11:40:07+02:00</time>
      </trkpt>
      <trkpt lat="45.34993" lon="6.66925">
        <ele>2389</ele>
        <time>2018-09-20T11:40:39+02:00</time>
      </trkpt>
      <trkpt lat="45.34983" lon="6.66932">
        <ele>2392</ele>
        <time>2018-09-20T11:41:02+02:00</time>
      </trkpt>
      <trkpt lat="45.34973" lon="6.66939">
        <ele>2394</ele>
        <time>2018-09-20T11:41:22+02:00</time>
      </trkpt>
      <trkpt lat="45.34958" lon="6.66951">
        <ele>2397</ele>
        <time>2018-09-20T11:41:45+02:00</time>
      </trkpt>
      <trkpt lat="45.34944" lon="6.66957">
        <ele>2400</ele>
        <time>2018-09-20T11:42:06+02:00</time>
      </trkpt>
      <trkpt lat="45.34927" lon="6.66962">
        <ele>2401</ele>
        <time>2018-09-20T11:42:32+02:00</time>
      </trkpt>
      <trkpt lat="45.34917" lon="6.66971">
        <ele>2401</ele>
        <time>2018-09-20T11:42:53+02:00</time>
      </trkpt>
      <trkpt lat="45.34901" lon="6.66975">
        <ele>2403</ele>
        <time>2018-09-20T11:43:16+02:00</time>
      </trkpt>
      <trkpt lat="45.34891" lon="6.66983">
        <ele>2404</ele>
        <time>2018-09-20T11:43:36+02:00</time>
      </trkpt>
      <trkpt lat="45.34883" lon="6.66986">
        <ele>2405</ele>
        <time>2018-09-20T11:43:52+02:00</time>
      </trkpt>
      <trkpt lat="45.34871" lon="6.66993">
        <ele>2406</ele>
        <time>2018-09-20T11:44:10+02:00</time>
      </trkpt>
      <trkpt lat="45.34864" lon="6.67001">
        <ele>2407</ele>
        <time>2018-09-20T11:44:31+02:00</time>
      </trkpt>
      <trkpt lat="45.34853" lon="6.6701">
        <ele>2408</ele>
        <time>2018-09-20T11:44:51+02:00</time>
      </trkpt>
      <trkpt lat="45.34842" lon="6.67013">
        <ele>2409</ele>
        <time>2018-09-20T11:45:12+02:00</time>
      </trkpt>
      <trkpt lat="45.3483" lon="6.67022">
        <ele>2409</ele>
        <time>2018-09-20T11:45:30+02:00</time>
      </trkpt>
      <trkpt lat="45.34819" lon="6.67029">
        <ele>2409</ele>
        <time>2018-09-20T11:45:51+02:00</time>
      </trkpt>
      <trkpt lat="45.34812" lon="6.67029">
        <ele>2409</ele>
        <time>2018-09-20T11:46:14+02:00</time>
      </trkpt>
      <trkpt lat="45.348" lon="6.67035">
        <ele>2410</ele>
        <time>2018-09-20T11:46:36+02:00</time>
      </trkpt>
      <trkpt lat="45.34791" lon="6.67048">
        <ele>2414</ele>
        <time>2018-09-20T11:46:59+02:00</time>
      </trkpt>
      <trkpt lat="45.34785" lon="6.67067">
        <ele>2418</ele>
        <time>2018-09-20T11:47:23+02:00</time>
      </trkpt>
      <trkpt lat="45.3478" lon="6.67084">
        <ele>2420</ele>
        <time>2018-09-20T11:47:47+02:00</time>
      </trkpt>
      <trkpt lat="45.34772" lon="6.67093">
        <ele>2424</ele>
        <time>2018-09-20T11:48:09+02:00</time>
      </trkpt>
      <trkpt lat="45.34763" lon="6.671">
        <ele>2428</ele>
        <time>2018-09-20T11:48:36+02:00</time>
      </trkpt>
      <trkpt lat="45.34756" lon="6.67111">
        <ele>2431</ele>
        <time>2018-09-20T11:49:01+02:00</time>
      </trkpt>
      <trkpt lat="45.34746" lon="6.67123">
        <ele>2436</ele>
        <time>2018-09-20T11:49:27+02:00</time>
      </trkpt>
      <trkpt lat="45.34735" lon="6.67135">
        <ele>2439</ele>
        <time>2018-09-20T11:49:52+02:00</time>
      </trkpt>
      <trkpt lat="45.34722" lon="6.67147">
        <ele>2443</ele>
        <time>2018-09-20T11:50:16+02:00</time>
      </trkpt>
      <trkpt lat="45.34708" lon="6.67153">
        <ele>2445</ele>
        <time>2018-09-20T11:50:40+02:00</time>
      </trkpt>
      <trkpt lat="45.34694" lon="6.67163">
        <ele>2443</ele>
        <time>2018-09-20T11:50:58+02:00</time>
      </trkpt>
      <trkpt lat="45.34676" lon="6.67169">
        <ele>2443</ele>
        <time>2018-09-20T11:51:17+02:00</time>
      </trkpt>
      <trkpt lat="45.3466" lon="6.67175">
        <ele>2443</ele>
        <time>2018-09-20T11:51:36+02:00</time>
      </trkpt>
      <trkpt lat="45.34644" lon="6.6718">
        <ele>2443</ele>
        <time>2018-09-20T11:51:57+02:00</time>
      </trkpt>
      <trkpt lat="45.34629" lon="6.67179">
        <ele>2444</ele>
        <time>2018-09-20T11:52:20+02:00</time>
      </trkpt>
      <trkpt lat="45.34615" lon="6.67181">
        <ele>2446</ele>
        <time>2018-09-20T11:52:39+02:00</time>
      </trkpt>
      <trkpt lat="45.34608" lon="6.67179">
        <ele>2446</ele>
        <time>2018-09-20T11:53:05+02:00</time>
      </trkpt>
      <trkpt lat="45.34598" lon="6.67177">
        <ele>2447</ele>
        <time>2018-09-20T11:53:24+02:00</time>
      </trkpt>
      <trkpt lat="45.34583" lon="6.67175">
        <ele>2448</ele>
        <time>2018-09-20T11:53:42+02:00</time>
      </trkpt>
      <trkpt lat="45.34577" lon="6.67173">
        <ele>2449</ele>
        <time>2018-09-20T11:53:49+02:00</time>
      </trkpt>
      <trkpt lat="45.34569" lon="6.67176">
        <ele>2449</ele>
        <time>2018-09-20T11:53:57+02:00</time>
      </trkpt>
      <trkpt lat="45.34547" lon="6.67177">
        <ele>2449</ele>
        <time>2018-09-20T11:54:20+02:00</time>
      </trkpt>
      <trkpt lat="45.34524" lon="6.67169">
        <ele>2447</ele>
        <time>2018-09-20T11:54:42+02:00</time>
      </trkpt>
      <trkpt lat="45.34518" lon="6.67172">
        <ele>2446</ele>
        <time>2018-09-20T11:55:01+02:00</time>
      </trkpt>
      <trkpt lat="45.34513" lon="6.67177">
        <ele>2446</ele>
        <time>2018-09-20T11:55:20+02:00</time>
      </trkpt>
      <trkpt lat="45.34508" lon="6.67176">
        <ele>2445</ele>
        <time>2018-09-20T11:55:43+02:00</time>
      </trkpt>
      <trkpt lat="45.34506" lon="6.67167">
        <ele>2444</ele>
        <time>2018-09-20T11:56:13+02:00</time>
      </trkpt>
      <trkpt lat="45.34503" lon="6.6716">
        <ele>2444</ele>
        <time>2018-09-20T11:56:34+02:00</time>
      </trkpt>
      <trkpt lat="45.34504" lon="6.6716">
        <ele>2445</ele>
        <time>2018-09-20T11:56:59+02:00</time>
      </trkpt>
      <trkpt lat="45.34505" lon="6.67164">
        <ele>2444</ele>
        <time>2018-09-20T11:57:32+02:00</time>
      </trkpt>
      <trkpt lat="45.34506" lon="6.6716">
        <ele>2445</ele>
        <time>2018-09-20T11:58:10+02:00</time>
      </trkpt>
      <trkpt lat="45.34507" lon="6.67159">
        <ele>2445</ele>
        <time>2018-09-20T11:58:41+02:00</time>
      </trkpt>
      <trkpt lat="45.34502" lon="6.6716">
        <ele>2444</ele>
        <time>2018-09-20T12:00:37+02:00</time>
      </trkpt>
      <trkpt lat="45.34504" lon="6.67161">
        <ele>2444</ele>
        <time>2018-09-20T12:02:50+02:00</time>
      </trkpt>
      <trkpt lat="45.34504" lon="6.67159">
        <ele>2445</ele>
        <time>2018-09-20T12:03:16+02:00</time>
      </trkpt>
      <trkpt lat="45.34504" lon="6.67162">
        <ele>2444</ele>
        <time>2018-09-20T12:03:51+02:00</time>
      </trkpt>
      <trkpt lat="45.34506" lon="6.6716">
        <ele>2445</ele>
        <time>2018-09-20T12:04:24+02:00</time>
      </trkpt>
      <trkpt lat="45.34503" lon="6.67161">
        <ele>2444</ele>
        <time>2018-09-20T12:04:55+02:00</time>
      </trkpt>
      <trkpt lat="45.34494" lon="6.67164">
        <ele>2443</ele>
        <time>2018-09-20T12:05:20+02:00</time>
      </trkpt>
      <trkpt lat="45.34478" lon="6.67162">
        <ele>2443</ele>
        <time>2018-09-20T12:05:41+02:00</time>
      </trkpt>
      <trkpt lat="45.34462" lon="6.6716">
        <ele>2443</ele>
        <time>2018-09-20T12:06:03+02:00</time>
      </trkpt>
      <trkpt lat="45.34459" lon="6.6716">
        <ele>2443</ele>
        <time>2018-09-20T12:06:06+02:00</time>
      </trkpt>
      <trkpt lat="45.3445" lon="6.67162">
        <ele>2442</ele>
        <time>2018-09-20T12:06:17+02:00</time>
      </trkpt>
      <trkpt lat="45.34434" lon="6.67163">
        <ele>2442</ele>
        <time>2018-09-20T12:06:37+02:00</time>
      </trkpt>
      <trkpt lat="45.34417" lon="6.67154">
        <ele>2443</ele>
        <time>2018-09-20T12:06:54+02:00</time>
      </trkpt>
      <trkpt lat="45.34405" lon="6.67147">
        <ele>2444</ele>
        <time>2018-09-20T12:07:08+02:00</time>
      </trkpt>
      <trkpt lat="45.34391" lon="6.67143">
        <ele>2444</ele>
        <time>2018-09-20T12:07:26+02:00</time>
      </trkpt>
      <trkpt lat="45.34381" lon="6.67142">
        <ele>2444</ele>
        <time>2018-09-20T12:07:39+02:00</time>
      </trkpt>
      <trkpt lat="45.34376" lon="6.67133">
        <ele>2448</ele>
        <time>2018-09-20T12:08:00+02:00</time>
      </trkpt>
      <trkpt lat="45.34363" lon="6.67126">
        <ele>2452</ele>
        <time>2018-09-20T12:08:26+02:00</time>
      </trkpt>
      <trkpt lat="45.34354" lon="6.67125">
        <ele>2454</ele>
        <time>2018-09-20T12:08:48+02:00</time>
      </trkpt>
      <trkpt lat="45.34353" lon="6.67123">
        <ele>2455</ele>
        <time>2018-09-20T12:09:07+02:00</time>
      </trkpt>
      <trkpt lat="45.34354" lon="6.67122">
        <ele>2455</ele>
        <time>2018-09-20T12:09:08+02:00</time>
      </trkpt>
      <trkpt lat="45.34355" lon="6.67122">
        <ele>2454</ele>
        <time>2018-09-20T12:09:12+02:00</time>
      </trkpt>
      <trkpt lat="45.3435" lon="6.67124">
        <ele>2455</ele>
        <time>2018-09-20T12:09:38+02:00</time>
      </trkpt>
      <trkpt lat="45.34338" lon="6.67122">
        <ele>2459</ele>
        <time>2018-09-20T12:10:00+02:00</time>
      </trkpt>
      <trkpt lat="45.34337" lon="6.67121">
        <ele>2459</ele>
        <time>2018-09-20T12:10:08+02:00</time>
      </trkpt>
      <trkpt lat="45.34324" lon="6.67129">
        <ele>2462</ele>
        <time>2018-09-20T12:10:25+02:00</time>
      </trkpt>
      <trkpt lat="45.34316" lon="6.67132">
        <ele>2466</ele>
        <time>2018-09-20T12:10:44+02:00</time>
      </trkpt>
      <trkpt lat="45.34316" lon="6.67134">
        <ele>2465</ele>
        <time>2018-09-20T12:11:09+02:00</time>
      </trkpt>
      <trkpt lat="45.3431" lon="6.67139">
        <ele>2467</ele>
        <time>2018-09-20T12:11:31+02:00</time>
      </trkpt>
      <trkpt lat="45.34311" lon="6.67147">
        <ele>2465</ele>
        <time>2018-09-20T12:11:52+02:00</time>
      </trkpt>
      <trkpt lat="45.34308" lon="6.67149">
        <ele>2466</ele>
        <time>2018-09-20T12:12:14+02:00</time>
      </trkpt>
      <trkpt lat="45.34289" lon="6.67146">
        <ele>2472</ele>
        <time>2018-09-20T12:12:39+02:00</time>
      </trkpt>
      <trkpt lat="45.34276" lon="6.67146">
        <ele>2475</ele>
        <time>2018-09-20T12:13:01+02:00</time>
      </trkpt>
      <trkpt lat="45.34268" lon="6.67147">
        <ele>2477</ele>
        <time>2018-09-20T12:13:22+02:00</time>
      </trkpt>
      <trkpt lat="45.34263" lon="6.67139">
        <ele>2479</ele>
        <time>2018-09-20T12:13:41+02:00</time>
      </trkpt>
      <trkpt lat="45.3425" lon="6.67135">
        <ele>2482</ele>
        <time>2018-09-20T12:14:04+02:00</time>
      </trkpt>
      <trkpt lat="45.34248" lon="6.67129">
        <ele>2483</ele>
        <time>2018-09-20T12:14:23+02:00</time>
      </trkpt>
      <trkpt lat="45.34236" lon="6.67124">
        <ele>2489</ele>
        <time>2018-09-20T12:14:47+02:00</time>
      </trkpt>
      <trkpt lat="45.34227" lon="6.67118">
        <ele>2492</ele>
        <time>2018-09-20T12:15:09+02:00</time>
      </trkpt>
      <trkpt lat="45.34225" lon="6.67111">
        <ele>2492</ele>
        <time>2018-09-20T12:15:31+02:00</time>
      </trkpt>
      <trkpt lat="45.34218" lon="6.67104">
        <ele>2496</ele>
        <time>2018-09-20T12:15:50+02:00</time>
      </trkpt>
      <trkpt lat="45.34209" lon="6.67109">
        <ele>2499</ele>
        <time>2018-09-20T12:16:11+02:00</time>
      </trkpt>
      <trkpt lat="45.34202" lon="6.67116">
        <ele>2502</ele>
        <time>2018-09-20T12:16:35+02:00</time>
      </trkpt>
      <trkpt lat="45.34196" lon="6.67113">
        <ele>2504</ele>
        <time>2018-09-20T12:16:59+02:00</time>
      </trkpt>
      <trkpt lat="45.34191" lon="6.67115">
        <ele>2506</ele>
        <time>2018-09-20T12:17:19+02:00</time>
      </trkpt>
      <trkpt lat="45.34183" lon="6.67117">
        <ele>2508</ele>
        <time>2018-09-20T12:17:47+02:00</time>
      </trkpt>
      <trkpt lat="45.34183" lon="6.67118">
        <ele>2507</ele>
        <time>2018-09-20T12:17:52+02:00</time>
      </trkpt>
      <trkpt lat="45.34182" lon="6.67134">
        <ele>2506</ele>
        <time>2018-09-20T12:18:15+02:00</time>
      </trkpt>
      <trkpt lat="45.34178" lon="6.67151">
        <ele>2506</ele>
        <time>2018-09-20T12:18:33+02:00</time>
      </trkpt>
      <trkpt lat="45.34171" lon="6.67171">
        <ele>2508</ele>
        <time>2018-09-20T12:18:53+02:00</time>
      </trkpt>
      <trkpt lat="45.34171" lon="6.67185">
        <ele>2511</ele>
        <time>2018-09-20T12:19:16+02:00</time>
      </trkpt>
      <trkpt lat="45.34168" lon="6.6719">
        <ele>2512</ele>
        <time>2018-09-20T12:19:43+02:00</time>
      </trkpt>
      <trkpt lat="45.34169" lon="6.67203">
        <ele>2513</ele>
        <time>2018-09-20T12:20:04+02:00</time>
      </trkpt>
      <trkpt lat="45.3416" lon="6.67216">
        <ele>2518</ele>
        <time>2018-09-20T12:20:23+02:00</time>
      </trkpt>
      <trkpt lat="45.34144" lon="6.67218">
        <ele>2525</ele>
        <time>2018-09-20T12:20:49+02:00</time>
      </trkpt>
      <trkpt lat="45.34143" lon="6.67217">
        <ele>2526</ele>
        <time>2018-09-20T12:20:55+02:00</time>
      </trkpt>
      <trkpt lat="45.34142" lon="6.67217">
        <ele>2526</ele>
        <time>2018-09-20T12:21:21+02:00</time>
      </trkpt>
      <trkpt lat="45.34142" lon="6.67218">
        <ele>2526</ele>
        <time>2018-09-20T12:21:27+02:00</time>
      </trkpt>
      <trkpt lat="45.34138" lon="6.67229">
        <ele>2528</ele>
        <time>2018-09-20T12:21:52+02:00</time>
      </trkpt>
      <trkpt lat="45.34134" lon="6.67221">
        <ele>2531</ele>
        <time>2018-09-20T12:22:15+02:00</time>
      </trkpt>
      <trkpt lat="45.34131" lon="6.67217">
        <ele>2533</ele>
        <time>2018-09-20T12:22:38+02:00</time>
      </trkpt>
      <trkpt lat="45.34127" lon="6.6722">
        <ele>2535</ele>
        <time>2018-09-20T12:23:06+02:00</time>
      </trkpt>
      <trkpt lat="45.34129" lon="6.67223">
        <ele>2534</ele>
        <time>2018-09-20T12:23:31+02:00</time>
      </trkpt>
      <trkpt lat="45.34134" lon="6.67226">
        <ele>2530</ele>
        <time>2018-09-20T12:23:57+02:00</time>
      </trkpt>
      <trkpt lat="45.3413" lon="6.6723">
        <ele>2532</ele>
        <time>2018-09-20T12:24:20+02:00</time>
      </trkpt>
      <trkpt lat="45.34127" lon="6.67216">
        <ele>2535</ele>
        <time>2018-09-20T12:24:48+02:00</time>
      </trkpt>
      <trkpt lat="45.34124" lon="6.6722">
        <ele>2537</ele>
        <time>2018-09-20T12:25:10+02:00</time>
      </trkpt>
      <trkpt lat="45.34118" lon="6.67225">
        <ele>2540</ele>
        <time>2018-09-20T12:25:32+02:00</time>
      </trkpt>
      <trkpt lat="45.34115" lon="6.67235">
        <ele>2541</ele>
        <time>2018-09-20T12:25:55+02:00</time>
      </trkpt>
      <trkpt lat="45.34105" lon="6.67242">
        <ele>2545</ele>
        <time>2018-09-20T12:26:19+02:00</time>
      </trkpt>
      <trkpt lat="45.34098" lon="6.67248">
        <ele>2548</ele>
        <time>2018-09-20T12:26:41+02:00</time>
      </trkpt>
      <trkpt lat="45.34092" lon="6.67256">
        <ele>2550</ele>
        <time>2018-09-20T12:27:04+02:00</time>
      </trkpt>
      <trkpt lat="45.34083" lon="6.67255">
        <ele>2555</ele>
        <time>2018-09-20T12:27:26+02:00</time>
      </trkpt>
      <trkpt lat="45.3408" lon="6.6726">
        <ele>2556</ele>
        <time>2018-09-20T12:27:47+02:00</time>
      </trkpt>
      <trkpt lat="45.34079" lon="6.67263">
        <ele>2557</ele>
        <time>2018-09-20T12:28:10+02:00</time>
      </trkpt>
      <trkpt lat="45.34077" lon="6.67268">
        <ele>2558</ele>
        <time>2018-09-20T12:28:36+02:00</time>
      </trkpt>
      <trkpt lat="45.34072" lon="6.67273">
        <ele>2561</ele>
        <time>2018-09-20T12:29:00+02:00</time>
      </trkpt>
      <trkpt lat="45.34065" lon="6.67277">
        <ele>2564</ele>
        <time>2018-09-20T12:29:25+02:00</time>
      </trkpt>
      <trkpt lat="45.3406" lon="6.67276">
        <ele>2566</ele>
        <time>2018-09-20T12:29:57+02:00</time>
      </trkpt>
      <trkpt lat="45.34048" lon="6.67271">
        <ele>2569</ele>
        <time>2018-09-20T12:30:21+02:00</time>
      </trkpt>
      <trkpt lat="45.34038" lon="6.67274">
        <ele>2571</ele>
        <time>2018-09-20T12:30:45+02:00</time>
      </trkpt>
      <trkpt lat="45.34028" lon="6.67279">
        <ele>2574</ele>
        <time>2018-09-20T12:31:06+02:00</time>
      </trkpt>
      <trkpt lat="45.34025" lon="6.67277">
        <ele>2574</ele>
        <time>2018-09-20T12:31:26+02:00</time>
      </trkpt>
      <trkpt lat="45.3401" lon="6.6727">
        <ele>2578</ele>
        <time>2018-09-20T12:31:55+02:00</time>
      </trkpt>
      <trkpt lat="45.34009" lon="6.67269">
        <ele>2578</ele>
        <time>2018-09-20T12:31:57+02:00</time>
      </trkpt>
      <trkpt lat="45.33997" lon="6.6726">
        <ele>2580</ele>
        <time>2018-09-20T12:32:19+02:00</time>
      </trkpt>
      <trkpt lat="45.33988" lon="6.67253">
        <ele>2581</ele>
        <time>2018-09-20T12:32:42+02:00</time>
      </trkpt>
      <trkpt lat="45.33982" lon="6.67253">
        <ele>2583</ele>
        <time>2018-09-20T12:33:04+02:00</time>
      </trkpt>
      <trkpt lat="45.33977" lon="6.6725">
        <ele>2584</ele>
        <time>2018-09-20T12:33:27+02:00</time>
      </trkpt>
      <trkpt lat="45.33969" lon="6.67248">
        <ele>2587</ele>
        <time>2018-09-20T12:33:50+02:00</time>
      </trkpt>
      <trkpt lat="45.33961" lon="6.6724">
        <ele>2591</ele>
        <time>2018-09-20T12:34:16+02:00</time>
      </trkpt>
      <trkpt lat="45.33958" lon="6.67235">
        <ele>2592</ele>
        <time>2018-09-20T12:34:44+02:00</time>
      </trkpt>
      <trkpt lat="45.33948" lon="6.67223">
        <ele>2596</ele>
        <time>2018-09-20T12:35:07+02:00</time>
      </trkpt>
      <trkpt lat="45.33943" lon="6.67214">
        <ele>2597</ele>
        <time>2018-09-20T12:35:25+02:00</time>
      </trkpt>
      <trkpt lat="45.3394" lon="6.67212">
        <ele>2598</ele>
        <time>2018-09-20T12:35:41+02:00</time>
      </trkpt>
      <trkpt lat="45.33932" lon="6.6721">
        <ele>2601</ele>
        <time>2018-09-20T12:36:04+02:00</time>
      </trkpt>
      <trkpt lat="45.33924" lon="6.67205">
        <ele>2605</ele>
        <time>2018-09-20T12:36:26+02:00</time>
      </trkpt>
      <trkpt lat="45.33919" lon="6.67203">
        <ele>2608</ele>
        <time>2018-09-20T12:36:48+02:00</time>
      </trkpt>
      <trkpt lat="45.33913" lon="6.672">
        <ele>2610</ele>
        <time>2018-09-20T12:37:09+02:00</time>
      </trkpt>
      <trkpt lat="45.33906" lon="6.67196">
        <ele>2612</ele>
        <time>2018-09-20T12:37:31+02:00</time>
      </trkpt>
      <trkpt lat="45.33904" lon="6.67195">
        <ele>2613</ele>
        <time>2018-09-20T12:37:52+02:00</time>
      </trkpt>
      <trkpt lat="45.33905" lon="6.67196">
        <ele>2613</ele>
        <time>2018-09-20T12:38:27+02:00</time>
      </trkpt>
      <trkpt lat="45.33905" lon="6.67195">
        <ele>2613</ele>
        <time>2018-09-20T12:39:00+02:00</time>
      </trkpt>
      <trkpt lat="45.33904" lon="6.67196">
        <ele>2613</ele>
        <time>2018-09-20T12:39:25+02:00</time>
      </trkpt>
      <trkpt lat="45.339" lon="6.672">
        <ele>2614</ele>
        <time>2018-09-20T12:39:51+02:00</time>
      </trkpt>
      <trkpt lat="45.33893" lon="6.67198">
        <ele>2616</ele>
        <time>2018-09-20T12:40:14+02:00</time>
      </trkpt>
      <trkpt lat="45.33884" lon="6.67191">
        <ele>2619</ele>
        <time>2018-09-20T12:40:39+02:00</time>
      </trkpt>
      <trkpt lat="45.33876" lon="6.67198">
        <ele>2620</ele>
        <time>2018-09-20T12:40:59+02:00</time>
      </trkpt>
      <trkpt lat="45.33867" lon="6.67202">
        <ele>2621</ele>
        <time>2018-09-20T12:41:23+02:00</time>
      </trkpt>
      <trkpt lat="45.33856" lon="6.67203">
        <ele>2623</ele>
        <time>2018-09-20T12:41:43+02:00</time>
      </trkpt>
      <trkpt lat="45.33844" lon="6.672">
        <ele>2626</ele>
        <time>2018-09-20T12:42:05+02:00</time>
      </trkpt>
      <trkpt lat="45.33836" lon="6.67186">
        <ele>2629</ele>
        <time>2018-09-20T12:42:24+02:00</time>
      </trkpt>
      <trkpt lat="45.3383" lon="6.67181">
        <ele>2629</ele>
        <time>2018-09-20T12:42:38+02:00</time>
      </trkpt>
      <trkpt lat="45.33816" lon="6.67173">
        <ele>2630</ele>
        <time>2018-09-20T12:42:59+02:00</time>
      </trkpt>
      <trkpt lat="45.33807" lon="6.67159">
        <ele>2630</ele>
        <time>2018-09-20T12:43:18+02:00</time>
      </trkpt>
      <trkpt lat="45.33795" lon="6.67158">
        <ele>2629</ele>
        <time>2018-09-20T12:43:41+02:00</time>
      </trkpt>
      <trkpt lat="45.33792" lon="6.67152">
        <ele>2630</ele>
        <time>2018-09-20T12:43:58+02:00</time>
      </trkpt>
      <trkpt lat="45.33787" lon="6.67152">
        <ele>2629</ele>
        <time>2018-09-20T12:44:17+02:00</time>
      </trkpt>
      <trkpt lat="45.33781" lon="6.67148">
        <ele>2629</ele>
        <time>2018-09-20T12:44:40+02:00</time>
      </trkpt>
      <trkpt lat="45.33772" lon="6.67144">
        <ele>2629</ele>
        <time>2018-09-20T12:45:10+02:00</time>
      </trkpt>
      <trkpt lat="45.33767" lon="6.67138">
        <ele>2630</ele>
        <time>2018-09-20T12:45:30+02:00</time>
      </trkpt>
      <trkpt lat="45.33757" lon="6.67129">
        <ele>2630</ele>
        <time>2018-09-20T12:45:51+02:00</time>
      </trkpt>
      <trkpt lat="45.33753" lon="6.67122">
        <ele>2630</ele>
        <time>2018-09-20T12:46:09+02:00</time>
      </trkpt>
      <trkpt lat="45.33751" lon="6.67116">
        <ele>2630</ele>
        <time>2018-09-20T12:46:28+02:00</time>
      </trkpt>
      <trkpt lat="45.33746" lon="6.6711">
        <ele>2630</ele>
        <time>2018-09-20T12:46:45+02:00</time>
      </trkpt>
      <trkpt lat="45.33739" lon="6.67103">
        <ele>2631</ele>
        <time>2018-09-20T12:47:02+02:00</time>
      </trkpt>
      <trkpt lat="45.3373" lon="6.67098">
        <ele>2632</ele>
        <time>2018-09-20T12:47:22+02:00</time>
      </trkpt>
      <trkpt lat="45.33723" lon="6.67089">
        <ele>2632</ele>
        <time>2018-09-20T12:47:41+02:00</time>
      </trkpt>
      <trkpt lat="45.33716" lon="6.67085">
        <ele>2634</ele>
        <time>2018-09-20T12:48:00+02:00</time>
      </trkpt>
      <trkpt lat="45.33709" lon="6.67082">
        <ele>2636</ele>
        <time>2018-09-20T12:48:26+02:00</time>
      </trkpt>
      <trkpt lat="45.33708" lon="6.67077">
        <ele>2637</ele>
        <time>2018-09-20T12:48:35+02:00</time>
      </trkpt>
      <trkpt lat="45.33713" lon="6.6707">
        <ele>2636</ele>
        <time>2018-09-20T12:48:47+02:00</time>
      </trkpt>
      <trkpt lat="45.337" lon="6.67061">
        <ele>2640</ele>
        <time>2018-09-20T12:49:07+02:00</time>
      </trkpt>
      <trkpt lat="45.33696" lon="6.67058">
        <ele>2641</ele>
        <time>2018-09-20T12:49:25+02:00</time>
      </trkpt>
      <trkpt lat="45.33694" lon="6.67052">
        <ele>2642</ele>
        <time>2018-09-20T12:49:51+02:00</time>
      </trkpt>
      <trkpt lat="45.33687" lon="6.67047">
        <ele>2647</ele>
        <time>2018-09-20T12:50:11+02:00</time>
      </trkpt>
      <trkpt lat="45.33682" lon="6.67043">
        <ele>2649</ele>
        <time>2018-09-20T12:50:35+02:00</time>
      </trkpt>
      <trkpt lat="45.3368" lon="6.67042">
        <ele>2651</ele>
        <time>2018-09-20T12:50:59+02:00</time>
      </trkpt>
      <trkpt lat="45.33677" lon="6.6704">
        <ele>2652</ele>
        <time>2018-09-20T12:51:25+02:00</time>
      </trkpt>
      <trkpt lat="45.33672" lon="6.67035">
        <ele>2655</ele>
        <time>2018-09-20T12:51:50+02:00</time>
      </trkpt>
      <trkpt lat="45.3367" lon="6.67034">
        <ele>2656</ele>
        <time>2018-09-20T12:52:16+02:00</time>
      </trkpt>
      <trkpt lat="45.33669" lon="6.67031">
        <ele>2657</ele>
        <time>2018-09-20T12:52:45+02:00</time>
      </trkpt>
      <trkpt lat="45.33666" lon="6.6703">
        <ele>2658</ele>
        <time>2018-09-20T12:53:08+02:00</time>
      </trkpt>
      <trkpt lat="45.33665" lon="6.67031">
        <ele>2659</ele>
        <time>2018-09-20T12:53:41+02:00</time>
      </trkpt>
      <trkpt lat="45.33663" lon="6.67026">
        <ele>2661</ele>
        <time>2018-09-20T12:54:07+02:00</time>
      </trkpt>
      <trkpt lat="45.33663" lon="6.67014">
        <ele>2664</ele>
        <time>2018-09-20T12:54:31+02:00</time>
      </trkpt>
      <trkpt lat="45.33663" lon="6.67013">
        <ele>2664</ele>
        <time>2018-09-20T12:54:58+02:00</time>
      </trkpt>
      <trkpt lat="45.33661" lon="6.67001">
        <ele>2668</ele>
        <time>2018-09-20T12:55:24+02:00</time>
      </trkpt>
      <trkpt lat="45.33658" lon="6.66997">
        <ele>2672</ele>
        <time>2018-09-20T12:55:51+02:00</time>
      </trkpt>
      <trkpt lat="45.33657" lon="6.66989">
        <ele>2676</ele>
        <time>2018-09-20T12:56:13+02:00</time>
      </trkpt>
      <trkpt lat="45.33654" lon="6.66994">
        <ele>2675</ele>
        <time>2018-09-20T12:56:35+02:00</time>
      </trkpt>
      <trkpt lat="45.33654" lon="6.6699">
        <ele>2677</ele>
        <time>2018-09-20T12:57:01+02:00</time>
      </trkpt>
      <trkpt lat="45.33653" lon="6.6698">
        <ele>2681</ele>
        <time>2018-09-20T12:57:26+02:00</time>
      </trkpt>
      <trkpt lat="45.33649" lon="6.66974">
        <ele>2684</ele>
        <time>2018-09-20T12:57:49+02:00</time>
      </trkpt>
      <trkpt lat="45.33643" lon="6.66976">
        <ele>2684</ele>
        <time>2018-09-20T12:58:16+02:00</time>
      </trkpt>
      <trkpt lat="45.33642" lon="6.66979">
        <ele>2684</ele>
        <time>2018-09-20T12:58:36+02:00</time>
      </trkpt>
      <trkpt lat="45.33647" lon="6.66973">
        <ele>2684</ele>
        <time>2018-09-20T12:58:59+02:00</time>
      </trkpt>
      <trkpt lat="45.33646" lon="6.66967">
        <ele>2685</ele>
        <time>2018-09-20T12:59:25+02:00</time>
      </trkpt>
      <trkpt lat="45.33641" lon="6.66965">
        <ele>2685</ele>
        <time>2018-09-20T12:59:44+02:00</time>
      </trkpt>
      <trkpt lat="45.33642" lon="6.66965">
        <ele>2685</ele>
        <time>2018-09-20T13:00:09+02:00</time>
      </trkpt>
      <trkpt lat="45.33642" lon="6.66965">
        <ele>2685</ele>
        <time>2018-09-20T13:00:11+02:00</time>
      </trkpt>
      <trkpt lat="45.33643" lon="6.66966">
        <ele>2685</ele>
        <time>2018-09-20T13:00:40+02:00</time>
      </trkpt>
      <trkpt lat="45.33642" lon="6.66965">
        <ele>2685</ele>
        <time>2018-09-20T13:01:09+02:00</time>
      </trkpt>
      <trkpt lat="45.33642" lon="6.66965">
        <ele>2685</ele>
        <time>2018-09-20T13:01:30+02:00</time>
      </trkpt>
      <trkpt lat="45.33642" lon="6.66967">
        <ele>2685</ele>
        <time>2018-09-20T13:38:18+02:00</time>
      </trkpt>
      <trkpt lat="45.33639" lon="6.6697">
        <ele>2686</ele>
        <time>2018-09-20T13:38:40+02:00</time>
      </trkpt>
      <trkpt lat="45.33631" lon="6.66969">
        <ele>2687</ele>
        <time>2018-09-20T13:39:03+02:00</time>
      </trkpt>
      <trkpt lat="45.33621" lon="6.66963">
        <ele>2687</ele>
        <time>2018-09-20T13:39:26+02:00</time>
      </trkpt>
      <trkpt lat="45.3362" lon="6.66961">
        <ele>2686</ele>
        <time>2018-09-20T13:39:46+02:00</time>
      </trkpt>
      <trkpt lat="45.33631" lon="6.66953">
        <ele>2683</ele>
        <time>2018-09-20T13:40:15+02:00</time>
      </trkpt>
      <trkpt lat="45.33635" lon="6.66945">
        <ele>2682</ele>
        <time>2018-09-20T13:40:40+02:00</time>
      </trkpt>
      <trkpt lat="45.33625" lon="6.66941">
        <ele>2679</ele>
        <time>2018-09-20T13:41:04+02:00</time>
      </trkpt>
      <trkpt lat="45.33625" lon="6.66939">
        <ele>2679</ele>
        <time>2018-09-20T13:41:31+02:00</time>
      </trkpt>
      <trkpt lat="45.3363" lon="6.6694">
        <ele>2679</ele>
        <time>2018-09-20T13:42:01+02:00</time>
      </trkpt>
      <trkpt lat="45.33631" lon="6.6693">
        <ele>2676</ele>
        <time>2018-09-20T13:42:29+02:00</time>
      </trkpt>
      <trkpt lat="45.33625" lon="6.66932">
        <ele>2675</ele>
        <time>2018-09-20T13:42:54+02:00</time>
      </trkpt>
      <trkpt lat="45.33625" lon="6.66928">
        <ele>2674</ele>
        <time>2018-09-20T13:43:20+02:00</time>
      </trkpt>
      <trkpt lat="45.33628" lon="6.66924">
        <ele>2673</ele>
        <time>2018-09-20T13:43:49+02:00</time>
      </trkpt>
      <trkpt lat="45.3362" lon="6.66917">
        <ele>2669</ele>
        <time>2018-09-20T13:44:14+02:00</time>
      </trkpt>
      <trkpt lat="45.33623" lon="6.66914">
        <ele>2668</ele>
        <time>2018-09-20T13:44:50+02:00</time>
      </trkpt>
      <trkpt lat="45.33624" lon="6.66903">
        <ele>2665</ele>
        <time>2018-09-20T13:45:12+02:00</time>
      </trkpt>
      <trkpt lat="45.33625" lon="6.66896">
        <ele>2663</ele>
        <time>2018-09-20T13:45:35+02:00</time>
      </trkpt>
      <trkpt lat="45.33628" lon="6.66885">
        <ele>2661</ele>
        <time>2018-09-20T13:45:58+02:00</time>
      </trkpt>
      <trkpt lat="45.33627" lon="6.66876">
        <ele>2659</ele>
        <time>2018-09-20T13:46:18+02:00</time>
      </trkpt>
      <trkpt lat="45.33628" lon="6.66872">
        <ele>2658</ele>
        <time>2018-09-20T13:46:34+02:00</time>
      </trkpt>
      <trkpt lat="45.33628" lon="6.66871">
        <ele>2658</ele>
        <time>2018-09-20T13:46:59+02:00</time>
      </trkpt>
      <trkpt lat="45.33623" lon="6.66865">
        <ele>2655</ele>
        <time>2018-09-20T13:47:17+02:00</time>
      </trkpt>
      <trkpt lat="45.3362" lon="6.66866">
        <ele>2654</ele>
        <time>2018-09-20T13:47:57+02:00</time>
      </trkpt>
      <trkpt lat="45.33615" lon="6.66861">
        <ele>2651</ele>
        <time>2018-09-20T13:48:19+02:00</time>
      </trkpt>
      <trkpt lat="45.33613" lon="6.66851">
        <ele>2648</ele>
        <time>2018-09-20T13:48:43+02:00</time>
      </trkpt>
      <trkpt lat="45.33607" lon="6.6686">
        <ele>2650</ele>
        <time>2018-09-20T13:49:08+02:00</time>
      </trkpt>
      <trkpt lat="45.33605" lon="6.66859">
        <ele>2649</ele>
        <time>2018-09-20T13:49:32+02:00</time>
      </trkpt>
      <trkpt lat="45.33601" lon="6.66852">
        <ele>2648</ele>
        <time>2018-09-20T13:49:50+02:00</time>
      </trkpt>
      <trkpt lat="45.33601" lon="6.66845">
        <ele>2646</ele>
        <time>2018-09-20T13:50:11+02:00</time>
      </trkpt>
      <trkpt lat="45.33601" lon="6.66842">
        <ele>2646</ele>
        <time>2018-09-20T13:50:42+02:00</time>
      </trkpt>
      <trkpt lat="45.33603" lon="6.66842">
        <ele>2646</ele>
        <time>2018-09-20T13:51:17+02:00</time>
      </trkpt>
      <trkpt lat="45.33601" lon="6.66835">
        <ele>2644</ele>
        <time>2018-09-20T13:51:39+02:00</time>
      </trkpt>
      <trkpt lat="45.33604" lon="6.66827">
        <ele>2643</ele>
        <time>2018-09-20T13:51:59+02:00</time>
      </trkpt>
      <trkpt lat="45.33607" lon="6.66822">
        <ele>2642</ele>
        <time>2018-09-20T13:52:19+02:00</time>
      </trkpt>
      <trkpt lat="45.33608" lon="6.66816">
        <ele>2641</ele>
        <time>2018-09-20T13:52:41+02:00</time>
      </trkpt>
      <trkpt lat="45.33613" lon="6.66822">
        <ele>2642</ele>
        <time>2018-09-20T13:53:04+02:00</time>
      </trkpt>
      <trkpt lat="45.33612" lon="6.66815">
        <ele>2641</ele>
        <time>2018-09-20T13:53:25+02:00</time>
      </trkpt>
      <trkpt lat="45.33613" lon="6.66811">
        <ele>2640</ele>
        <time>2018-09-20T13:53:47+02:00</time>
      </trkpt>
      <trkpt lat="45.33613" lon="6.66805">
        <ele>2639</ele>
        <time>2018-09-20T13:54:11+02:00</time>
      </trkpt>
      <trkpt lat="45.33615" lon="6.66799">
        <ele>2639</ele>
        <time>2018-09-20T13:54:29+02:00</time>
      </trkpt>
      <trkpt lat="45.33619" lon="6.66794">
        <ele>2639</ele>
        <time>2018-09-20T13:54:47+02:00</time>
      </trkpt>
      <trkpt lat="45.33619" lon="6.66792">
        <ele>2639</ele>
        <time>2018-09-20T13:55:10+02:00</time>
      </trkpt>
      <trkpt lat="45.33621" lon="6.66786">
        <ele>2639</ele>
        <time>2018-09-20T13:55:31+02:00</time>
      </trkpt>
      <trkpt lat="45.33621" lon="6.66778">
        <ele>2637</ele>
        <time>2018-09-20T13:55:52+02:00</time>
      </trkpt>
      <trkpt lat="45.33627" lon="6.66773">
        <ele>2638</ele>
        <time>2018-09-20T13:56:16+02:00</time>
      </trkpt>
      <trkpt lat="45.33635" lon="6.66759">
        <ele>2636</ele>
        <time>2018-09-20T13:56:38+02:00</time>
      </trkpt>
      <trkpt lat="45.33634" lon="6.66755">
        <ele>2636</ele>
        <time>2018-09-20T13:56:55+02:00</time>
      </trkpt>
      <trkpt lat="45.33635" lon="6.66747">
        <ele>2635</ele>
        <time>2018-09-20T13:57:16+02:00</time>
      </trkpt>
      <trkpt lat="45.33636" lon="6.66739">
        <ele>2633</ele>
        <time>2018-09-20T13:57:37+02:00</time>
      </trkpt>
      <trkpt lat="45.33636" lon="6.66735">
        <ele>2633</ele>
        <time>2018-09-20T13:57:53+02:00</time>
      </trkpt>
      <trkpt lat="45.33636" lon="6.6673">
        <ele>2632</ele>
        <time>2018-09-20T13:58:11+02:00</time>
      </trkpt>
      <trkpt lat="45.33637" lon="6.66723">
        <ele>2630</ele>
        <time>2018-09-20T13:58:33+02:00</time>
      </trkpt>
      <trkpt lat="45.33637" lon="6.66717">
        <ele>2629</ele>
        <time>2018-09-20T13:58:56+02:00</time>
      </trkpt>
      <trkpt lat="45.33639" lon="6.66706">
        <ele>2627</ele>
        <time>2018-09-20T13:59:19+02:00</time>
      </trkpt>
      <trkpt lat="45.33642" lon="6.66696">
        <ele>2626</ele>
        <time>2018-09-20T13:59:41+02:00</time>
      </trkpt>
      <trkpt lat="45.33642" lon="6.6669">
        <ele>2625</ele>
        <time>2018-09-20T14:00:02+02:00</time>
      </trkpt>
      <trkpt lat="45.33644" lon="6.66688">
        <ele>2626</ele>
        <time>2018-09-20T14:00:27+02:00</time>
      </trkpt>
      <trkpt lat="45.33644" lon="6.66683">
        <ele>2625</ele>
        <time>2018-09-20T14:00:50+02:00</time>
      </trkpt>
      <trkpt lat="45.33646" lon="6.66676">
        <ele>2625</ele>
        <time>2018-09-20T14:01:13+02:00</time>
      </trkpt>
      <trkpt lat="45.33646" lon="6.66672">
        <ele>2624</ele>
        <time>2018-09-20T14:01:30+02:00</time>
      </trkpt>
      <trkpt lat="45.33647" lon="6.66664">
        <ele>2624</ele>
        <time>2018-09-20T14:01:49+02:00</time>
      </trkpt>
      <trkpt lat="45.33649" lon="6.66653">
        <ele>2624</ele>
        <time>2018-09-20T14:02:07+02:00</time>
      </trkpt>
      <trkpt lat="45.3365" lon="6.66644">
        <ele>2625</ele>
        <time>2018-09-20T14:02:26+02:00</time>
      </trkpt>
      <trkpt lat="45.3365" lon="6.66634">
        <ele>2624</ele>
        <time>2018-09-20T14:02:47+02:00</time>
      </trkpt>
      <trkpt lat="45.33652" lon="6.66624">
        <ele>2625</ele>
        <time>2018-09-20T14:03:04+02:00</time>
      </trkpt>
      <trkpt lat="45.33653" lon="6.66619">
        <ele>2624</ele>
        <time>2018-09-20T14:03:24+02:00</time>
      </trkpt>
      <trkpt lat="45.33656" lon="6.66611">
        <ele>2624</ele>
        <time>2018-09-20T14:03:54+02:00</time>
      </trkpt>
      <trkpt lat="45.33657" lon="6.66602">
        <ele>2623</ele>
        <time>2018-09-20T14:04:17+02:00</time>
      </trkpt>
      <trkpt lat="45.33659" lon="6.66598">
        <ele>2623</ele>
        <time>2018-09-20T14:04:37+02:00</time>
      </trkpt>
      <trkpt lat="45.33659" lon="6.66593">
        <ele>2622</ele>
        <time>2018-09-20T14:05:01+02:00</time>
      </trkpt>
      <trkpt lat="45.3366" lon="6.66587">
        <ele>2621</ele>
        <time>2018-09-20T14:05:18+02:00</time>
      </trkpt>
      <trkpt lat="45.3366" lon="6.66581">
        <ele>2620</ele>
        <time>2018-09-20T14:05:38+02:00</time>
      </trkpt>
      <trkpt lat="45.33662" lon="6.66573">
        <ele>2618</ele>
        <time>2018-09-20T14:06:04+02:00</time>
      </trkpt>
      <trkpt lat="45.33661" lon="6.66572">
        <ele>2618</ele>
        <time>2018-09-20T14:06:25+02:00</time>
      </trkpt>
      <trkpt lat="45.33662" lon="6.66565">
        <ele>2616</ele>
        <time>2018-09-20T14:06:47+02:00</time>
      </trkpt>
      <trkpt lat="45.33661" lon="6.66559">
        <ele>2616</ele>
        <time>2018-09-20T14:07:06+02:00</time>
      </trkpt>
      <trkpt lat="45.33663" lon="6.66555">
        <ele>2614</ele>
        <time>2018-09-20T14:07:31+02:00</time>
      </trkpt>
      <trkpt lat="45.33664" lon="6.6655">
        <ele>2612</ele>
        <time>2018-09-20T14:07:51+02:00</time>
      </trkpt>
      <trkpt lat="45.33663" lon="6.66542">
        <ele>2611</ele>
        <time>2018-09-20T14:08:13+02:00</time>
      </trkpt>
      <trkpt lat="45.33663" lon="6.66537">
        <ele>2610</ele>
        <time>2018-09-20T14:08:33+02:00</time>
      </trkpt>
      <trkpt lat="45.33665" lon="6.66533">
        <ele>2608</ele>
        <time>2018-09-20T14:08:58+02:00</time>
      </trkpt>
      <trkpt lat="45.33666" lon="6.66528">
        <ele>2606</ele>
        <time>2018-09-20T14:09:19+02:00</time>
      </trkpt>
      <trkpt lat="45.33664" lon="6.66522">
        <ele>2606</ele>
        <time>2018-09-20T14:09:41+02:00</time>
      </trkpt>
      <trkpt lat="45.33665" lon="6.66516">
        <ele>2604</ele>
        <time>2018-09-20T14:10:08+02:00</time>
      </trkpt>
      <trkpt lat="45.33671" lon="6.66509">
        <ele>2603</ele>
        <time>2018-09-20T14:10:30+02:00</time>
      </trkpt>
      <trkpt lat="45.33672" lon="6.665">
        <ele>2601</ele>
        <time>2018-09-20T14:10:48+02:00</time>
      </trkpt>
      <trkpt lat="45.33669" lon="6.665">
        <ele>2600</ele>
        <time>2018-09-20T14:11:08+02:00</time>
      </trkpt>
      <trkpt lat="45.33666" lon="6.66494">
        <ele>2598</ele>
        <time>2018-09-20T14:11:24+02:00</time>
      </trkpt>
      <trkpt lat="45.33666" lon="6.66488">
        <ele>2597</ele>
        <time>2018-09-20T14:11:45+02:00</time>
      </trkpt>
      <trkpt lat="45.33666" lon="6.66482">
        <ele>2596</ele>
        <time>2018-09-20T14:12:03+02:00</time>
      </trkpt>
      <trkpt lat="45.33668" lon="6.66474">
        <ele>2595</ele>
        <time>2018-09-20T14:12:23+02:00</time>
      </trkpt>
      <trkpt lat="45.33669" lon="6.66468">
        <ele>2594</ele>
        <time>2018-09-20T14:12:43+02:00</time>
      </trkpt>
      <trkpt lat="45.33672" lon="6.66464">
        <ele>2594</ele>
        <time>2018-09-20T14:13:03+02:00</time>
      </trkpt>
      <trkpt lat="45.33674" lon="6.66452">
        <ele>2592</ele>
        <time>2018-09-20T14:13:25+02:00</time>
      </trkpt>
      <trkpt lat="45.33673" lon="6.66445">
        <ele>2591</ele>
        <time>2018-09-20T14:13:49+02:00</time>
      </trkpt>
      <trkpt lat="45.33672" lon="6.66438">
        <ele>2589</ele>
        <time>2018-09-20T14:14:06+02:00</time>
      </trkpt>
      <trkpt lat="45.33673" lon="6.6643">
        <ele>2587</ele>
        <time>2018-09-20T14:14:23+02:00</time>
      </trkpt>
      <trkpt lat="45.33675" lon="6.66421">
        <ele>2585</ele>
        <time>2018-09-20T14:14:42+02:00</time>
      </trkpt>
      <trkpt lat="45.33673" lon="6.66415">
        <ele>2584</ele>
        <time>2018-09-20T14:15:02+02:00</time>
      </trkpt>
      <trkpt lat="45.33678" lon="6.6641">
        <ele>2584</ele>
        <time>2018-09-20T14:15:20+02:00</time>
      </trkpt>
      <trkpt lat="45.33676" lon="6.66407">
        <ele>2583</ele>
        <time>2018-09-20T14:15:43+02:00</time>
      </trkpt>
      <trkpt lat="45.33675" lon="6.66401">
        <ele>2582</ele>
        <time>2018-09-20T14:16:02+02:00</time>
      </trkpt>
      <trkpt lat="45.33678" lon="6.66396">
        <ele>2581</ele>
        <time>2018-09-20T14:16:20+02:00</time>
      </trkpt>
      <trkpt lat="45.33674" lon="6.66392">
        <ele>2580</ele>
        <time>2018-09-20T14:16:38+02:00</time>
      </trkpt>
      <trkpt lat="45.33671" lon="6.66385">
        <ele>2578</ele>
        <time>2018-09-20T14:16:56+02:00</time>
      </trkpt>
      <trkpt lat="45.3367" lon="6.66378">
        <ele>2577</ele>
        <time>2018-09-20T14:17:14+02:00</time>
      </trkpt>
      <trkpt lat="45.33667" lon="6.66372">
        <ele>2575</ele>
        <time>2018-09-20T14:17:35+02:00</time>
      </trkpt>
      <trkpt lat="45.33666" lon="6.66369">
        <ele>2575</ele>
        <time>2018-09-20T14:17:52+02:00</time>
      </trkpt>
      <trkpt lat="45.33668" lon="6.66363">
        <ele>2574</ele>
        <time>2018-09-20T14:18:10+02:00</time>
      </trkpt>
      <trkpt lat="45.33668" lon="6.66359">
        <ele>2573</ele>
        <time>2018-09-20T14:18:28+02:00</time>
      </trkpt>
      <trkpt lat="45.33667" lon="6.66361">
        <ele>2573</ele>
        <time>2018-09-20T14:18:48+02:00</time>
      </trkpt>
      <trkpt lat="45.33662" lon="6.66356">
        <ele>2572</ele>
        <time>2018-09-20T14:19:05+02:00</time>
      </trkpt>
      <trkpt lat="45.33659" lon="6.66351">
        <ele>2571</ele>
        <time>2018-09-20T14:19:22+02:00</time>
      </trkpt>
      <trkpt lat="45.33656" lon="6.66348">
        <ele>2571</ele>
        <time>2018-09-20T14:19:42+02:00</time>
      </trkpt>
      <trkpt lat="45.33652" lon="6.66345">
        <ele>2569</ele>
        <time>2018-09-20T14:20:05+02:00</time>
      </trkpt>
      <trkpt lat="45.33648" lon="6.66344">
        <ele>2569</ele>
        <time>2018-09-20T14:20:25+02:00</time>
      </trkpt>
      <trkpt lat="45.33646" lon="6.66338">
        <ele>2566</ele>
        <time>2018-09-20T14:20:47+02:00</time>
      </trkpt>
      <trkpt lat="45.33646" lon="6.66328">
        <ele>2564</ele>
        <time>2018-09-20T14:21:07+02:00</time>
      </trkpt>
      <trkpt lat="45.33644" lon="6.66317">
        <ele>2562</ele>
        <time>2018-09-20T14:21:30+02:00</time>
      </trkpt>
      <trkpt lat="45.33641" lon="6.66307">
        <ele>2560</ele>
        <time>2018-09-20T14:21:46+02:00</time>
      </trkpt>
      <trkpt lat="45.33647" lon="6.66294">
        <ele>2560</ele>
        <time>2018-09-20T14:22:07+02:00</time>
      </trkpt>
      <trkpt lat="45.33651" lon="6.66286">
        <ele>2559</ele>
        <time>2018-09-20T14:22:18+02:00</time>
      </trkpt>
      <trkpt lat="45.3366" lon="6.66268">
        <ele>2556</ele>
        <time>2018-09-20T14:22:35+02:00</time>
      </trkpt>
      <trkpt lat="45.33666" lon="6.66251">
        <ele>2550</ele>
        <time>2018-09-20T14:22:51+02:00</time>
      </trkpt>
      <trkpt lat="45.33675" lon="6.66224">
        <ele>2547</ele>
        <time>2018-09-20T14:23:11+02:00</time>
      </trkpt>
      <trkpt lat="45.33678" lon="6.66222">
        <ele>2547</ele>
        <time>2018-09-20T14:23:31+02:00</time>
      </trkpt>
      <trkpt lat="45.33678" lon="6.66219">
        <ele>2546</ele>
        <time>2018-09-20T14:23:49+02:00</time>
      </trkpt>
      <trkpt lat="45.33677" lon="6.66208">
        <ele>2544</ele>
        <time>2018-09-20T14:24:13+02:00</time>
      </trkpt>
      <trkpt lat="45.33679" lon="6.66198">
        <ele>2542</ele>
        <time>2018-09-20T14:24:30+02:00</time>
      </trkpt>
      <trkpt lat="45.33681" lon="6.66188">
        <ele>2541</ele>
        <time>2018-09-20T14:24:50+02:00</time>
      </trkpt>
      <trkpt lat="45.33682" lon="6.66174">
        <ele>2540</ele>
        <time>2018-09-20T14:25:07+02:00</time>
      </trkpt>
      <trkpt lat="45.33683" lon="6.66172">
        <ele>2539</ele>
        <time>2018-09-20T14:25:22+02:00</time>
      </trkpt>
      <trkpt lat="45.33687" lon="6.66152">
        <ele>2538</ele>
        <time>2018-09-20T14:25:37+02:00</time>
      </trkpt>
      <trkpt lat="45.33691" lon="6.66126">
        <ele>2538</ele>
        <time>2018-09-20T14:25:57+02:00</time>
      </trkpt>
      <trkpt lat="45.33696" lon="6.66104">
        <ele>2538</ele>
        <time>2018-09-20T14:26:13+02:00</time>
      </trkpt>
      <trkpt lat="45.33696" lon="6.66081">
        <ele>2537</ele>
        <time>2018-09-20T14:26:31+02:00</time>
      </trkpt>
      <trkpt lat="45.33699" lon="6.66052">
        <ele>2537</ele>
        <time>2018-09-20T14:26:51+02:00</time>
      </trkpt>
      <trkpt lat="45.33698" lon="6.66024">
        <ele>2537</ele>
        <time>2018-09-20T14:27:12+02:00</time>
      </trkpt>
      <trkpt lat="45.33701" lon="6.65997">
        <ele>2537</ele>
        <time>2018-09-20T14:27:31+02:00</time>
      </trkpt>
      <trkpt lat="45.33703" lon="6.65973">
        <ele>2537</ele>
        <time>2018-09-20T14:27:46+02:00</time>
      </trkpt>
      <trkpt lat="45.33706" lon="6.65962">
        <ele>2537</ele>
        <time>2018-09-20T14:27:53+02:00</time>
      </trkpt>
      <trkpt lat="45.3371" lon="6.65947">
        <ele>2538</ele>
        <time>2018-09-20T14:28:11+02:00</time>
      </trkpt>
      <trkpt lat="45.33708" lon="6.65926">
        <ele>2537</ele>
        <time>2018-09-20T14:28:29+02:00</time>
      </trkpt>
      <trkpt lat="45.33708" lon="6.65924">
        <ele>2537</ele>
        <time>2018-09-20T14:28:31+02:00</time>
      </trkpt>
      <trkpt lat="45.33707" lon="6.65918">
        <ele>2537</ele>
        <time>2018-09-20T14:28:36+02:00</time>
      </trkpt>
      <trkpt lat="45.33706" lon="6.65911">
        <ele>2537</ele>
        <time>2018-09-20T14:28:42+02:00</time>
      </trkpt>
      <trkpt lat="45.33697" lon="6.65895">
        <ele>2534</ele>
        <time>2018-09-20T14:29:00+02:00</time>
      </trkpt>
      <trkpt lat="45.33689" lon="6.65884">
        <ele>2532</ele>
        <time>2018-09-20T14:29:18+02:00</time>
      </trkpt>
      <trkpt lat="45.33688" lon="6.65873">
        <ele>2530</ele>
        <time>2018-09-20T14:29:35+02:00</time>
      </trkpt>
      <trkpt lat="45.33683" lon="6.65864">
        <ele>2527</ele>
        <time>2018-09-20T14:29:55+02:00</time>
      </trkpt>
      <trkpt lat="45.33676" lon="6.65862">
        <ele>2525</ele>
        <time>2018-09-20T14:30:09+02:00</time>
      </trkpt>
      <trkpt lat="45.33673" lon="6.65853">
        <ele>2523</ele>
        <time>2018-09-20T14:30:24+02:00</time>
      </trkpt>
      <trkpt lat="45.33672" lon="6.65847">
        <ele>2522</ele>
        <time>2018-09-20T14:30:28+02:00</time>
      </trkpt>
      <trkpt lat="45.33669" lon="6.65831">
        <ele>2518</ele>
        <time>2018-09-20T14:30:42+02:00</time>
      </trkpt>
      <trkpt lat="45.33662" lon="6.6581">
        <ele>2514</ele>
        <time>2018-09-20T14:30:59+02:00</time>
      </trkpt>
      <trkpt lat="45.3366" lon="6.65802">
        <ele>2513</ele>
        <time>2018-09-20T14:31:23+02:00</time>
      </trkpt>
      <trkpt lat="45.33662" lon="6.65782">
        <ele>2508</ele>
        <time>2018-09-20T14:31:40+02:00</time>
      </trkpt>
      <trkpt lat="45.33659" lon="6.65777">
        <ele>2507</ele>
        <time>2018-09-20T14:31:48+02:00</time>
      </trkpt>
      <trkpt lat="45.33648" lon="6.65768">
        <ele>2505</ele>
        <time>2018-09-20T14:32:06+02:00</time>
      </trkpt>
      <trkpt lat="45.3364" lon="6.6576">
        <ele>2503</ele>
        <time>2018-09-20T14:32:19+02:00</time>
      </trkpt>
      <trkpt lat="45.33628" lon="6.65761">
        <ele>2501</ele>
        <time>2018-09-20T14:32:33+02:00</time>
      </trkpt>
      <trkpt lat="45.33623" lon="6.65753">
        <ele>2498</ele>
        <time>2018-09-20T14:32:48+02:00</time>
      </trkpt>
      <trkpt lat="45.33617" lon="6.65745">
        <ele>2495</ele>
        <time>2018-09-20T14:33:02+02:00</time>
      </trkpt>
      <trkpt lat="45.33614" lon="6.65732">
        <ele>2490</ele>
        <time>2018-09-20T14:33:18+02:00</time>
      </trkpt>
      <trkpt lat="45.33615" lon="6.65722">
        <ele>2488</ele>
        <time>2018-09-20T14:33:30+02:00</time>
      </trkpt>
      <trkpt lat="45.33616" lon="6.6571">
        <ele>2484</ele>
        <time>2018-09-20T14:33:45+02:00</time>
      </trkpt>
      <trkpt lat="45.33612" lon="6.65704">
        <ele>2482</ele>
        <time>2018-09-20T14:34:01+02:00</time>
      </trkpt>
      <trkpt lat="45.33602" lon="6.65705">
        <ele>2483</ele>
        <time>2018-09-20T14:34:19+02:00</time>
      </trkpt>
      <trkpt lat="45.33597" lon="6.657">
        <ele>2482</ele>
        <time>2018-09-20T14:34:36+02:00</time>
      </trkpt>
      <trkpt lat="45.33589" lon="6.65695">
        <ele>2482</ele>
        <time>2018-09-20T14:34:56+02:00</time>
      </trkpt>
      <trkpt lat="45.33587" lon="6.65694">
        <ele>2482</ele>
        <time>2018-09-20T14:35:29+02:00</time>
      </trkpt>
      <trkpt lat="45.33586" lon="6.65695">
        <ele>2482</ele>
        <time>2018-09-20T14:35:59+02:00</time>
      </trkpt>
      <trkpt lat="45.33586" lon="6.65695">
        <ele>2482</ele>
        <time>2018-09-20T14:36:21+02:00</time>
      </trkpt>
      <trkpt lat="45.33586" lon="6.65696">
        <ele>2482</ele>
        <time>2018-09-20T14:36:47+02:00</time>
      </trkpt>
      <trkpt lat="45.33587" lon="6.65696">
        <ele>2482</ele>
        <time>2018-09-20T14:37:18+02:00</time>
      </trkpt>
      <trkpt lat="45.33587" lon="6.65694">
        <ele>2482</ele>
        <time>2018-09-20T14:37:44+02:00</time>
      </trkpt>
      <trkpt lat="45.33588" lon="6.65693">
        <ele>2481</ele>
        <time>2018-09-20T14:38:08+02:00</time>
      </trkpt>
      <trkpt lat="45.33588" lon="6.65694">
        <ele>2481</ele>
        <time>2018-09-20T14:38:47+02:00</time>
      </trkpt>
      <trkpt lat="45.33588" lon="6.65695">
        <ele>2482</ele>
        <time>2018-09-20T14:39:08+02:00</time>
      </trkpt>
      <trkpt lat="45.33587" lon="6.65694">
        <ele>2482</ele>
        <time>2018-09-20T14:39:33+02:00</time>
      </trkpt>
      <trkpt lat="45.33586" lon="6.65691">
        <ele>2481</ele>
        <time>2018-09-20T14:39:58+02:00</time>
      </trkpt>
      <trkpt lat="45.3358" lon="6.65684">
        <ele>2481</ele>
        <time>2018-09-20T14:40:07+02:00</time>
      </trkpt>
      <trkpt lat="45.33559" lon="6.65679">
        <ele>2486</ele>
        <time>2018-09-20T14:40:28+02:00</time>
      </trkpt>
      <trkpt lat="45.33544" lon="6.6567">
        <ele>2490</ele>
        <time>2018-09-20T14:40:47+02:00</time>
      </trkpt>
      <trkpt lat="45.33535" lon="6.65651">
        <ele>2493</ele>
        <time>2018-09-20T14:41:05+02:00</time>
      </trkpt>
      <trkpt lat="45.33528" lon="6.65631">
        <ele>2496</ele>
        <time>2018-09-20T14:41:23+02:00</time>
      </trkpt>
      <trkpt lat="45.33523" lon="6.65621">
        <ele>2499</ele>
        <time>2018-09-20T14:41:43+02:00</time>
      </trkpt>
      <trkpt lat="45.3352" lon="6.65608">
        <ele>2499</ele>
        <time>2018-09-20T14:42:02+02:00</time>
      </trkpt>
      <trkpt lat="45.33511" lon="6.656">
        <ele>2502</ele>
        <time>2018-09-20T14:42:21+02:00</time>
      </trkpt>
      <trkpt lat="45.33501" lon="6.65588">
        <ele>2505</ele>
        <time>2018-09-20T14:42:40+02:00</time>
      </trkpt>
      <trkpt lat="45.33493" lon="6.65566">
        <ele>2505</ele>
        <time>2018-09-20T14:43:02+02:00</time>
      </trkpt>
      <trkpt lat="45.33483" lon="6.6555">
        <ele>2507</ele>
        <time>2018-09-20T14:43:19+02:00</time>
      </trkpt>
      <trkpt lat="45.33469" lon="6.65531">
        <ele>2509</ele>
        <time>2018-09-20T14:43:40+02:00</time>
      </trkpt>
      <trkpt lat="45.33458" lon="6.65517">
        <ele>2512</ele>
        <time>2018-09-20T14:43:59+02:00</time>
      </trkpt>
      <trkpt lat="45.33467" lon="6.65489">
        <ele>2512</ele>
        <time>2018-09-20T14:44:23+02:00</time>
      </trkpt>
      <trkpt lat="45.33463" lon="6.65471">
        <ele>2514</ele>
        <time>2018-09-20T14:44:40+02:00</time>
      </trkpt>
      <trkpt lat="45.33459" lon="6.65449">
        <ele>2517</ele>
        <time>2018-09-20T14:45:02+02:00</time>
      </trkpt>
      <trkpt lat="45.33465" lon="6.65426">
        <ele>2517</ele>
        <time>2018-09-20T14:45:24+02:00</time>
      </trkpt>
      <trkpt lat="45.33465" lon="6.65411">
        <ele>2518</ele>
        <time>2018-09-20T14:45:42+02:00</time>
      </trkpt>
      <trkpt lat="45.33465" lon="6.6541">
        <ele>2519</ele>
        <time>2018-09-20T14:45:43+02:00</time>
      </trkpt>
      <trkpt lat="45.33454" lon="6.65388">
        <ele>2524</ele>
        <time>2018-09-20T14:46:03+02:00</time>
      </trkpt>
      <trkpt lat="45.33448" lon="6.65385">
        <ele>2526</ele>
        <time>2018-09-20T14:46:22+02:00</time>
      </trkpt>
      <trkpt lat="45.33441" lon="6.65384">
        <ele>2527</ele>
        <time>2018-09-20T14:46:42+02:00</time>
      </trkpt>
      <trkpt lat="45.33429" lon="6.65366">
        <ele>2529</ele>
        <time>2018-09-20T14:47:06+02:00</time>
      </trkpt>
      <trkpt lat="45.33418" lon="6.6535">
        <ele>2530</ele>
        <time>2018-09-20T14:47:28+02:00</time>
      </trkpt>
      <trkpt lat="45.3341" lon="6.65342">
        <ele>2531</ele>
        <time>2018-09-20T14:47:50+02:00</time>
      </trkpt>
      <trkpt lat="45.33408" lon="6.6534">
        <ele>2531</ele>
        <time>2018-09-20T14:48:04+02:00</time>
      </trkpt>
      <trkpt lat="45.33412" lon="6.65326">
        <ele>2530</ele>
        <time>2018-09-20T14:48:24+02:00</time>
      </trkpt>
      <trkpt lat="45.33415" lon="6.6533">
        <ele>2530</ele>
        <time>2018-09-20T14:48:44+02:00</time>
      </trkpt>
      <trkpt lat="45.33418" lon="6.65336">
        <ele>2530</ele>
        <time>2018-09-20T14:48:54+02:00</time>
      </trkpt>
      <trkpt lat="45.33432" lon="6.65344">
        <ele>2529</ele>
        <time>2018-09-20T14:49:13+02:00</time>
      </trkpt>
      <trkpt lat="45.33441" lon="6.65347">
        <ele>2528</ele>
        <time>2018-09-20T14:49:27+02:00</time>
      </trkpt>
      <trkpt lat="45.33441" lon="6.65348">
        <ele>2528</ele>
        <time>2018-09-20T14:49:34+02:00</time>
      </trkpt>
      <trkpt lat="45.33442" lon="6.65336">
        <ele>2528</ele>
        <time>2018-09-20T14:49:40+02:00</time>
      </trkpt>
      <trkpt lat="45.33453" lon="6.65327">
        <ele>2529</ele>
        <time>2018-09-20T14:49:59+02:00</time>
      </trkpt>
      <trkpt lat="45.3345" lon="6.65336">
        <ele>2528</ele>
        <time>2018-09-20T14:50:08+02:00</time>
      </trkpt>
      <trkpt lat="45.3345" lon="6.65362">
        <ele>2526</ele>
        <time>2018-09-20T14:50:28+02:00</time>
      </trkpt>
      <trkpt lat="45.33451" lon="6.65385">
        <ele>2525</ele>
        <time>2018-09-20T14:50:46+02:00</time>
      </trkpt>
      <trkpt lat="45.33452" lon="6.65391">
        <ele>2524</ele>
        <time>2018-09-20T14:50:57+02:00</time>
      </trkpt>
      <trkpt lat="45.3346" lon="6.65405">
        <ele>2521</ele>
        <time>2018-09-20T14:51:18+02:00</time>
      </trkpt>
      <trkpt lat="45.33466" lon="6.65417">
        <ele>2518</ele>
        <time>2018-09-20T14:51:37+02:00</time>
      </trkpt>
      <trkpt lat="45.33464" lon="6.65426">
        <ele>2518</ele>
        <time>2018-09-20T14:51:47+02:00</time>
      </trkpt>
      <trkpt lat="45.33457" lon="6.65452">
        <ele>2517</ele>
        <time>2018-09-20T14:52:09+02:00</time>
      </trkpt>
      <trkpt lat="45.33458" lon="6.65453">
        <ele>2517</ele>
        <time>2018-09-20T14:52:10+02:00</time>
      </trkpt>
      <trkpt lat="45.33465" lon="6.65479">
        <ele>2513</ele>
        <time>2018-09-20T14:52:29+02:00</time>
      </trkpt>
      <trkpt lat="45.3346" lon="6.65507">
        <ele>2512</ele>
        <time>2018-09-20T14:52:49+02:00</time>
      </trkpt>
      <trkpt lat="45.33457" lon="6.65516">
        <ele>2512</ele>
        <time>2018-09-20T14:52:56+02:00</time>
      </trkpt>
      <trkpt lat="45.33472" lon="6.65532">
        <ele>2509</ele>
        <time>2018-09-20T14:53:15+02:00</time>
      </trkpt>
      <trkpt lat="45.33486" lon="6.65556">
        <ele>2506</ele>
        <time>2018-09-20T14:53:37+02:00</time>
      </trkpt>
      <trkpt lat="45.33499" lon="6.65582">
        <ele>2505</ele>
        <time>2018-09-20T14:53:58+02:00</time>
      </trkpt>
      <trkpt lat="45.3351" lon="6.65596">
        <ele>2502</ele>
        <time>2018-09-20T14:54:13+02:00</time>
      </trkpt>
      <trkpt lat="45.33511" lon="6.65599">
        <ele>2502</ele>
        <time>2018-09-20T14:54:15+02:00</time>
      </trkpt>
      <trkpt lat="45.33522" lon="6.65612">
        <ele>2499</ele>
        <time>2018-09-20T14:54:31+02:00</time>
      </trkpt>
      <trkpt lat="45.33525" lon="6.65621">
        <ele>2497</ele>
        <time>2018-09-20T14:54:48+02:00</time>
      </trkpt>
      <trkpt lat="45.33536" lon="6.65636">
        <ele>2493</ele>
        <time>2018-09-20T14:54:57+02:00</time>
      </trkpt>
      <trkpt lat="45.33539" lon="6.65657">
        <ele>2491</ele>
        <time>2018-09-20T14:55:13+02:00</time>
      </trkpt>
      <trkpt lat="45.33546" lon="6.65673">
        <ele>2490</ele>
        <time>2018-09-20T14:55:26+02:00</time>
      </trkpt>
      <trkpt lat="45.33563" lon="6.65679">
        <ele>2485</ele>
        <time>2018-09-20T14:55:44+02:00</time>
      </trkpt>
      <trkpt lat="45.33586" lon="6.65691">
        <ele>2481</ele>
        <time>2018-09-20T14:56:05+02:00</time>
      </trkpt>
      <trkpt lat="45.33588" lon="6.65686">
        <ele>2480</ele>
        <time>2018-09-20T14:56:12+02:00</time>
      </trkpt>
      <trkpt lat="45.33591" lon="6.65676">
        <ele>2478</ele>
        <time>2018-09-20T14:56:26+02:00</time>
      </trkpt>
      <trkpt lat="45.33591" lon="6.65672">
        <ele>2477</ele>
        <time>2018-09-20T14:56:29+02:00</time>
      </trkpt>
      <trkpt lat="45.33588" lon="6.6566">
        <ele>2475</ele>
        <time>2018-09-20T14:56:45+02:00</time>
      </trkpt>
      <trkpt lat="45.3358" lon="6.65632">
        <ele>2473</ele>
        <time>2018-09-20T14:57:03+02:00</time>
      </trkpt>
      <trkpt lat="45.33576" lon="6.65617">
        <ele>2472</ele>
        <time>2018-09-20T14:57:19+02:00</time>
      </trkpt>
      <trkpt lat="45.33577" lon="6.65605">
        <ele>2469</ele>
        <time>2018-09-20T14:57:35+02:00</time>
      </trkpt>
      <trkpt lat="45.33581" lon="6.65605">
        <ele>2467</ele>
        <time>2018-09-20T14:57:41+02:00</time>
      </trkpt>
      <trkpt lat="45.33595" lon="6.65612">
        <ele>2464</ele>
        <time>2018-09-20T14:58:00+02:00</time>
      </trkpt>
      <trkpt lat="45.33612" lon="6.65607">
        <ele>2458</ele>
        <time>2018-09-20T14:58:15+02:00</time>
      </trkpt>
      <trkpt lat="45.33603" lon="6.65596">
        <ele>2458</ele>
        <time>2018-09-20T14:58:31+02:00</time>
      </trkpt>
      <trkpt lat="45.33614" lon="6.65593">
        <ele>2454</ele>
        <time>2018-09-20T14:58:46+02:00</time>
      </trkpt>
      <trkpt lat="45.33616" lon="6.65591">
        <ele>2454</ele>
        <time>2018-09-20T14:58:55+02:00</time>
      </trkpt>
      <trkpt lat="45.33618" lon="6.65579">
        <ele>2451</ele>
        <time>2018-09-20T14:59:10+02:00</time>
      </trkpt>
      <trkpt lat="45.33622" lon="6.65571">
        <ele>2448</ele>
        <time>2018-09-20T14:59:21+02:00</time>
      </trkpt>
      <trkpt lat="45.33626" lon="6.65563">
        <ele>2446</ele>
        <time>2018-09-20T14:59:38+02:00</time>
      </trkpt>
      <trkpt lat="45.33628" lon="6.65565">
        <ele>2446</ele>
        <time>2018-09-20T14:59:48+02:00</time>
      </trkpt>
      <trkpt lat="45.33633" lon="6.65566">
        <ele>2445</ele>
        <time>2018-09-20T14:59:56+02:00</time>
      </trkpt>
      <trkpt lat="45.33634" lon="6.65556">
        <ele>2443</ele>
        <time>2018-09-20T15:00:06+02:00</time>
      </trkpt>
      <trkpt lat="45.33636" lon="6.65546">
        <ele>2441</ele>
        <time>2018-09-20T15:00:13+02:00</time>
      </trkpt>
      <trkpt lat="45.33643" lon="6.65537">
        <ele>2440</ele>
        <time>2018-09-20T15:00:22+02:00</time>
      </trkpt>
      <trkpt lat="45.33652" lon="6.6552">
        <ele>2437</ele>
        <time>2018-09-20T15:00:41+02:00</time>
      </trkpt>
      <trkpt lat="45.33654" lon="6.65516">
        <ele>2436</ele>
        <time>2018-09-20T15:00:45+02:00</time>
      </trkpt>
      <trkpt lat="45.33675" lon="6.65488">
        <ele>2432</ele>
        <time>2018-09-20T15:01:06+02:00</time>
      </trkpt>
      <trkpt lat="45.33694" lon="6.65469">
        <ele>2430</ele>
        <time>2018-09-20T15:01:27+02:00</time>
      </trkpt>
      <trkpt lat="45.33695" lon="6.65468">
        <ele>2430</ele>
        <time>2018-09-20T15:01:28+02:00</time>
      </trkpt>
      <trkpt lat="45.33707" lon="6.65455">
        <ele>2429</ele>
        <time>2018-09-20T15:01:45+02:00</time>
      </trkpt>
      <trkpt lat="45.33729" lon="6.65439">
        <ele>2429</ele>
        <time>2018-09-20T15:02:04+02:00</time>
      </trkpt>
      <trkpt lat="45.33751" lon="6.65421">
        <ele>2429</ele>
        <time>2018-09-20T15:02:26+02:00</time>
      </trkpt>
      <trkpt lat="45.3377" lon="6.65409">
        <ele>2429</ele>
        <time>2018-09-20T15:02:48+02:00</time>
      </trkpt>
      <trkpt lat="45.33794" lon="6.65388">
        <ele>2427</ele>
        <time>2018-09-20T15:03:12+02:00</time>
      </trkpt>
      <trkpt lat="45.33818" lon="6.65368">
        <ele>2423</ele>
        <time>2018-09-20T15:03:33+02:00</time>
      </trkpt>
      <trkpt lat="45.3384" lon="6.65351">
        <ele>2421</ele>
        <time>2018-09-20T15:03:55+02:00</time>
      </trkpt>
      <trkpt lat="45.33864" lon="6.65335">
        <ele>2420</ele>
        <time>2018-09-20T15:04:17+02:00</time>
      </trkpt>
      <trkpt lat="45.33889" lon="6.65314">
        <ele>2419</ele>
        <time>2018-09-20T15:04:42+02:00</time>
      </trkpt>
      <trkpt lat="45.33902" lon="6.65303">
        <ele>2419</ele>
        <time>2018-09-20T15:04:57+02:00</time>
      </trkpt>
      <trkpt lat="45.33916" lon="6.65294">
        <ele>2419</ele>
        <time>2018-09-20T15:05:14+02:00</time>
      </trkpt>
      <trkpt lat="45.3393" lon="6.6529">
        <ele>2417</ele>
        <time>2018-09-20T15:05:31+02:00</time>
      </trkpt>
      <trkpt lat="45.33943" lon="6.65287">
        <ele>2416</ele>
        <time>2018-09-20T15:05:46+02:00</time>
      </trkpt>
      <trkpt lat="45.33953" lon="6.65287">
        <ele>2415</ele>
        <time>2018-09-20T15:06:00+02:00</time>
      </trkpt>
      <trkpt lat="45.33965" lon="6.65279">
        <ele>2412</ele>
        <time>2018-09-20T15:06:17+02:00</time>
      </trkpt>
      <trkpt lat="45.33967" lon="6.6528">
        <ele>2412</ele>
        <time>2018-09-20T15:06:19+02:00</time>
      </trkpt>
      <trkpt lat="45.33982" lon="6.6528">
        <ele>2411</ele>
        <time>2018-09-20T15:06:38+02:00</time>
      </trkpt>
      <trkpt lat="45.33996" lon="6.65278">
        <ele>2409</ele>
        <time>2018-09-20T15:06:55+02:00</time>
      </trkpt>
      <trkpt lat="45.33999" lon="6.65277">
        <ele>2409</ele>
        <time>2018-09-20T15:06:58+02:00</time>
      </trkpt>
      <trkpt lat="45.3402" lon="6.65268">
        <ele>2407</ele>
        <time>2018-09-20T15:07:22+02:00</time>
      </trkpt>
      <trkpt lat="45.34033" lon="6.6526">
        <ele>2405</ele>
        <time>2018-09-20T15:07:40+02:00</time>
      </trkpt>
      <trkpt lat="45.3404" lon="6.65252">
        <ele>2403</ele>
        <time>2018-09-20T15:07:51+02:00</time>
      </trkpt>
      <trkpt lat="45.34053" lon="6.65232">
        <ele>2400</ele>
        <time>2018-09-20T15:08:12+02:00</time>
      </trkpt>
      <trkpt lat="45.34069" lon="6.65228">
        <ele>2395</ele>
        <time>2018-09-20T15:08:32+02:00</time>
      </trkpt>
      <trkpt lat="45.34079" lon="6.65218">
        <ele>2392</ele>
        <time>2018-09-20T15:08:49+02:00</time>
      </trkpt>
      <trkpt lat="45.3409" lon="6.65215">
        <ele>2391</ele>
        <time>2018-09-20T15:09:07+02:00</time>
      </trkpt>
      <trkpt lat="45.34096" lon="6.65201">
        <ele>2391</ele>
        <time>2018-09-20T15:09:28+02:00</time>
      </trkpt>
      <trkpt lat="45.34104" lon="6.65203">
        <ele>2390</ele>
        <time>2018-09-20T15:09:46+02:00</time>
      </trkpt>
      <trkpt lat="45.34116" lon="6.65197">
        <ele>2389</ele>
        <time>2018-09-20T15:10:03+02:00</time>
      </trkpt>
      <trkpt lat="45.34117" lon="6.65196">
        <ele>2388</ele>
        <time>2018-09-20T15:10:05+02:00</time>
      </trkpt>
      <trkpt lat="45.34137" lon="6.65183">
        <ele>2387</ele>
        <time>2018-09-20T15:10:25+02:00</time>
      </trkpt>
      <trkpt lat="45.34144" lon="6.65178">
        <ele>2385</ele>
        <time>2018-09-20T15:10:34+02:00</time>
      </trkpt>
      <trkpt lat="45.34158" lon="6.65165">
        <ele>2383</ele>
        <time>2018-09-20T15:10:54+02:00</time>
      </trkpt>
      <trkpt lat="45.3417" lon="6.65155">
        <ele>2381</ele>
        <time>2018-09-20T15:11:13+02:00</time>
      </trkpt>
      <trkpt lat="45.34186" lon="6.65149">
        <ele>2380</ele>
        <time>2018-09-20T15:11:29+02:00</time>
      </trkpt>
      <trkpt lat="45.34188" lon="6.65148">
        <ele>2379</ele>
        <time>2018-09-20T15:11:31+02:00</time>
      </trkpt>
      <trkpt lat="45.34196" lon="6.65153">
        <ele>2378</ele>
        <time>2018-09-20T15:11:39+02:00</time>
      </trkpt>
      <trkpt lat="45.34201" lon="6.65153">
        <ele>2378</ele>
        <time>2018-09-20T15:11:43+02:00</time>
      </trkpt>
      <trkpt lat="45.34207" lon="6.65154">
        <ele>2378</ele>
        <time>2018-09-20T15:11:48+02:00</time>
      </trkpt>
      <trkpt lat="45.34209" lon="6.65154">
        <ele>2377</ele>
        <time>2018-09-20T15:11:50+02:00</time>
      </trkpt>
      <trkpt lat="45.34226" lon="6.65161">
        <ele>2376</ele>
        <time>2018-09-20T15:12:07+02:00</time>
      </trkpt>
      <trkpt lat="45.34248" lon="6.65178">
        <ele>2375</ele>
        <time>2018-09-20T15:12:28+02:00</time>
      </trkpt>
      <trkpt lat="45.34268" lon="6.65176">
        <ele>2374</ele>
        <time>2018-09-20T15:12:47+02:00</time>
      </trkpt>
      <trkpt lat="45.34291" lon="6.65168">
        <ele>2371</ele>
        <time>2018-09-20T15:13:09+02:00</time>
      </trkpt>
      <trkpt lat="45.34295" lon="6.65172">
        <ele>2372</ele>
        <time>2018-09-20T15:13:13+02:00</time>
      </trkpt>
      <trkpt lat="45.34316" lon="6.65163">
        <ele>2370</ele>
        <time>2018-09-20T15:13:36+02:00</time>
      </trkpt>
      <trkpt lat="45.3433" lon="6.65156">
        <ele>2370</ele>
        <time>2018-09-20T15:13:52+02:00</time>
      </trkpt>
      <trkpt lat="45.34346" lon="6.65151">
        <ele>2370</ele>
        <time>2018-09-20T15:14:11+02:00</time>
      </trkpt>
      <trkpt lat="45.3436" lon="6.65148">
        <ele>2370</ele>
        <time>2018-09-20T15:14:27+02:00</time>
      </trkpt>
      <trkpt lat="45.34362" lon="6.65148">
        <ele>2369</ele>
        <time>2018-09-20T15:14:29+02:00</time>
      </trkpt>
      <trkpt lat="45.34376" lon="6.65144">
        <ele>2367</ele>
        <time>2018-09-20T15:14:45+02:00</time>
      </trkpt>
      <trkpt lat="45.34396" lon="6.65137">
        <ele>2362</ele>
        <time>2018-09-20T15:15:06+02:00</time>
      </trkpt>
      <trkpt lat="45.34398" lon="6.65135">
        <ele>2362</ele>
        <time>2018-09-20T15:15:09+02:00</time>
      </trkpt>
      <trkpt lat="45.34415" lon="6.65132">
        <ele>2359</ele>
        <time>2018-09-20T15:15:29+02:00</time>
      </trkpt>
      <trkpt lat="45.34422" lon="6.65125">
        <ele>2358</ele>
        <time>2018-09-20T15:15:44+02:00</time>
      </trkpt>
      <trkpt lat="45.34425" lon="6.65113">
        <ele>2357</ele>
        <time>2018-09-20T15:15:54+02:00</time>
      </trkpt>
      <trkpt lat="45.34428" lon="6.65108">
        <ele>2357</ele>
        <time>2018-09-20T15:15:59+02:00</time>
      </trkpt>
      <trkpt lat="45.34431" lon="6.65094">
        <ele>2356</ele>
        <time>2018-09-20T15:16:10+02:00</time>
      </trkpt>
      <trkpt lat="45.34433" lon="6.65091">
        <ele>2356</ele>
        <time>2018-09-20T15:16:13+02:00</time>
      </trkpt>
      <trkpt lat="45.34442" lon="6.65076">
        <ele>2355</ele>
        <time>2018-09-20T15:16:32+02:00</time>
      </trkpt>
      <trkpt lat="45.34453" lon="6.65062">
        <ele>2354</ele>
        <time>2018-09-20T15:16:48+02:00</time>
      </trkpt>
      <trkpt lat="45.34471" lon="6.65047">
        <ele>2353</ele>
        <time>2018-09-20T15:17:08+02:00</time>
      </trkpt>
      <trkpt lat="45.3449" lon="6.65046">
        <ele>2352</ele>
        <time>2018-09-20T15:17:27+02:00</time>
      </trkpt>
      <trkpt lat="45.345" lon="6.65053">
        <ele>2350</ele>
        <time>2018-09-20T15:17:39+02:00</time>
      </trkpt>
      <trkpt lat="45.34503" lon="6.65057">
        <ele>2350</ele>
        <time>2018-09-20T15:17:43+02:00</time>
      </trkpt>
      <trkpt lat="45.34517" lon="6.65057">
        <ele>2350</ele>
        <time>2018-09-20T15:18:00+02:00</time>
      </trkpt>
      <trkpt lat="45.34532" lon="6.65057">
        <ele>2350</ele>
        <time>2018-09-20T15:18:17+02:00</time>
      </trkpt>
      <trkpt lat="45.34534" lon="6.65057">
        <ele>2350</ele>
        <time>2018-09-20T15:18:19+02:00</time>
      </trkpt>
      <trkpt lat="45.34558" lon="6.6506">
        <ele>2350</ele>
        <time>2018-09-20T15:18:40+02:00</time>
      </trkpt>
      <trkpt lat="45.34579" lon="6.65062">
        <ele>2350</ele>
        <time>2018-09-20T15:18:59+02:00</time>
      </trkpt>
      <trkpt lat="45.3458" lon="6.65063">
        <ele>2350</ele>
        <time>2018-09-20T15:19:00+02:00</time>
      </trkpt>
      <trkpt lat="45.34595" lon="6.65066">
        <ele>2350</ele>
        <time>2018-09-20T15:19:18+02:00</time>
      </trkpt>
      <trkpt lat="45.34604" lon="6.65075">
        <ele>2349</ele>
        <time>2018-09-20T15:19:31+02:00</time>
      </trkpt>
      <trkpt lat="45.34615" lon="6.65073">
        <ele>2349</ele>
        <time>2018-09-20T15:19:49+02:00</time>
      </trkpt>
      <trkpt lat="45.34629" lon="6.65065">
        <ele>2349</ele>
        <time>2018-09-20T15:20:08+02:00</time>
      </trkpt>
      <trkpt lat="45.34646" lon="6.65067">
        <ele>2347</ele>
        <time>2018-09-20T15:20:29+02:00</time>
      </trkpt>
      <trkpt lat="45.34653" lon="6.65067">
        <ele>2345</ele>
        <time>2018-09-20T15:20:40+02:00</time>
      </trkpt>
      <trkpt lat="45.34669" lon="6.65077">
        <ele>2341</ele>
        <time>2018-09-20T15:21:02+02:00</time>
      </trkpt>
      <trkpt lat="45.34684" lon="6.65072">
        <ele>2338</ele>
        <time>2018-09-20T15:21:21+02:00</time>
      </trkpt>
      <trkpt lat="45.34688" lon="6.65071">
        <ele>2337</ele>
        <time>2018-09-20T15:21:27+02:00</time>
      </trkpt>
      <trkpt lat="45.34696" lon="6.65083">
        <ele>2335</ele>
        <time>2018-09-20T15:21:42+02:00</time>
      </trkpt>
      <trkpt lat="45.34709" lon="6.65092">
        <ele>2332</ele>
        <time>2018-09-20T15:21:57+02:00</time>
      </trkpt>
      <trkpt lat="45.34728" lon="6.65107">
        <ele>2330</ele>
        <time>2018-09-20T15:22:18+02:00</time>
      </trkpt>
      <trkpt lat="45.34752" lon="6.65114">
        <ele>2330</ele>
        <time>2018-09-20T15:22:41+02:00</time>
      </trkpt>
      <trkpt lat="45.3477" lon="6.65123">
        <ele>2330</ele>
        <time>2018-09-20T15:23:00+02:00</time>
      </trkpt>
      <trkpt lat="45.34786" lon="6.65118">
        <ele>2330</ele>
        <time>2018-09-20T15:23:18+02:00</time>
      </trkpt>
      <trkpt lat="45.34797" lon="6.65099">
        <ele>2330</ele>
        <time>2018-09-20T15:23:36+02:00</time>
      </trkpt>
      <trkpt lat="45.34806" lon="6.65096">
        <ele>2331</ele>
        <time>2018-09-20T15:23:47+02:00</time>
      </trkpt>
      <trkpt lat="45.34827" lon="6.65108">
        <ele>2324</ele>
        <time>2018-09-20T15:24:13+02:00</time>
      </trkpt>
      <trkpt lat="45.34835" lon="6.65124">
        <ele>2322</ele>
        <time>2018-09-20T15:24:34+02:00</time>
      </trkpt>
      <trkpt lat="45.34837" lon="6.65129">
        <ele>2321</ele>
        <time>2018-09-20T15:24:39+02:00</time>
      </trkpt>
      <trkpt lat="45.34839" lon="6.65132">
        <ele>2321</ele>
        <time>2018-09-20T15:24:41+02:00</time>
      </trkpt>
      <trkpt lat="45.34839" lon="6.6514">
        <ele>2321</ele>
        <time>2018-09-20T15:25:02+02:00</time>
      </trkpt>
      <trkpt lat="45.34839" lon="6.65144">
        <ele>2321</ele>
        <time>2018-09-20T15:26:02+02:00</time>
      </trkpt>
      <trkpt lat="45.34841" lon="6.65153">
        <ele>2320</ele>
        <time>2018-09-20T15:26:23+02:00</time>
      </trkpt>
      <trkpt lat="45.34846" lon="6.65168">
        <ele>2318</ele>
        <time>2018-09-20T15:27:06+02:00</time>
      </trkpt>
      <trkpt lat="45.34852" lon="6.65172">
        <ele>2316</ele>
        <time>2018-09-20T15:27:22+02:00</time>
      </trkpt>
      <trkpt lat="45.34853" lon="6.65173">
        <ele>2316</ele>
        <time>2018-09-20T15:28:11+02:00</time>
      </trkpt>
      <trkpt lat="45.34858" lon="6.65168">
        <ele>2314</ele>
        <time>2018-09-20T15:28:48+02:00</time>
      </trkpt>
      <trkpt lat="45.34866" lon="6.65163">
        <ele>2312</ele>
        <time>2018-09-20T15:29:09+02:00</time>
      </trkpt>
      <trkpt lat="45.34868" lon="6.6516">
        <ele>2311</ele>
        <time>2018-09-20T15:29:40+02:00</time>
      </trkpt>
      <trkpt lat="45.34878" lon="6.65168">
        <ele>2308</ele>
        <time>2018-09-20T15:29:56+02:00</time>
      </trkpt>
      <trkpt lat="45.34884" lon="6.65169">
        <ele>2307</ele>
        <time>2018-09-20T15:30:16+02:00</time>
      </trkpt>
      <trkpt lat="45.34898" lon="6.65171">
        <ele>2304</ele>
        <time>2018-09-20T15:30:38+02:00</time>
      </trkpt>
      <trkpt lat="45.34906" lon="6.65174">
        <ele>2302</ele>
        <time>2018-09-20T15:31:06+02:00</time>
      </trkpt>
      <trkpt lat="45.34915" lon="6.65181">
        <ele>2301</ele>
        <time>2018-09-20T15:31:24+02:00</time>
      </trkpt>
      <trkpt lat="45.34919" lon="6.65186">
        <ele>2300</ele>
        <time>2018-09-20T15:31:29+02:00</time>
      </trkpt>
      <trkpt lat="45.34934" lon="6.65202">
        <ele>2297</ele>
        <time>2018-09-20T15:31:48+02:00</time>
      </trkpt>
      <trkpt lat="45.3494" lon="6.65213">
        <ele>2295</ele>
        <time>2018-09-20T15:31:57+02:00</time>
      </trkpt>
      <trkpt lat="45.3495" lon="6.65221">
        <ele>2292</ele>
        <time>2018-09-20T15:32:17+02:00</time>
      </trkpt>
      <trkpt lat="45.34951" lon="6.65221">
        <ele>2292</ele>
        <time>2018-09-20T15:32:26+02:00</time>
      </trkpt>
      <trkpt lat="45.34963" lon="6.65239">
        <ele>2291</ele>
        <time>2018-09-20T15:32:42+02:00</time>
      </trkpt>
      <trkpt lat="45.34974" lon="6.65255">
        <ele>2290</ele>
        <time>2018-09-20T15:32:57+02:00</time>
      </trkpt>
      <trkpt lat="45.34982" lon="6.65275">
        <ele>2290</ele>
        <time>2018-09-20T15:33:14+02:00</time>
      </trkpt>
      <trkpt lat="45.34999" lon="6.65298">
        <ele>2290</ele>
        <time>2018-09-20T15:33:38+02:00</time>
      </trkpt>
      <trkpt lat="45.35014" lon="6.65318">
        <ele>2290</ele>
        <time>2018-09-20T15:33:58+02:00</time>
      </trkpt>
      <trkpt lat="45.35023" lon="6.65336">
        <ele>2290</ele>
        <time>2018-09-20T15:34:17+02:00</time>
      </trkpt>
      <trkpt lat="45.35034" lon="6.65353">
        <ele>2290</ele>
        <time>2018-09-20T15:34:34+02:00</time>
      </trkpt>
      <trkpt lat="45.35042" lon="6.65361">
        <ele>2290</ele>
        <time>2018-09-20T15:34:43+02:00</time>
      </trkpt>
      <trkpt lat="45.35058" lon="6.6538">
        <ele>2290</ele>
        <time>2018-09-20T15:35:07+02:00</time>
      </trkpt>
      <trkpt lat="45.3507" lon="6.65387">
        <ele>2291</ele>
        <time>2018-09-20T15:35:28+02:00</time>
      </trkpt>
      <trkpt lat="45.35079" lon="6.65392">
        <ele>2291</ele>
        <time>2018-09-20T15:35:47+02:00</time>
      </trkpt>
      <trkpt lat="45.35094" lon="6.65408">
        <ele>2292</ele>
        <time>2018-09-20T15:36:09+02:00</time>
      </trkpt>
      <trkpt lat="45.35102" lon="6.65415">
        <ele>2293</ele>
        <time>2018-09-20T15:36:28+02:00</time>
      </trkpt>
      <trkpt lat="45.35111" lon="6.65411">
        <ele>2295</ele>
        <time>2018-09-20T15:36:52+02:00</time>
      </trkpt>
      <trkpt lat="45.35123" lon="6.6542">
        <ele>2295</ele>
        <time>2018-09-20T15:37:09+02:00</time>
      </trkpt>
      <trkpt lat="45.35127" lon="6.65423">
        <ele>2295</ele>
        <time>2018-09-20T15:37:13+02:00</time>
      </trkpt>
      <trkpt lat="45.35145" lon="6.65439">
        <ele>2294</ele>
        <time>2018-09-20T15:37:38+02:00</time>
      </trkpt>
      <trkpt lat="45.3516" lon="6.65447">
        <ele>2294</ele>
        <time>2018-09-20T15:37:57+02:00</time>
      </trkpt>
      <trkpt lat="45.35174" lon="6.65449">
        <ele>2294</ele>
        <time>2018-09-20T15:38:16+02:00</time>
      </trkpt>
      <trkpt lat="45.35192" lon="6.65453">
        <ele>2292</ele>
        <time>2018-09-20T15:38:37+02:00</time>
      </trkpt>
      <trkpt lat="45.35208" lon="6.65451">
        <ele>2291</ele>
        <time>2018-09-20T15:38:54+02:00</time>
      </trkpt>
      <trkpt lat="45.35222" lon="6.65453">
        <ele>2290</ele>
        <time>2018-09-20T15:39:10+02:00</time>
      </trkpt>
      <trkpt lat="45.35225" lon="6.65453">
        <ele>2290</ele>
        <time>2018-09-20T15:39:13+02:00</time>
      </trkpt>
      <trkpt lat="45.35242" lon="6.65455">
        <ele>2290</ele>
        <time>2018-09-20T15:39:29+02:00</time>
      </trkpt>
      <trkpt lat="45.3525" lon="6.65458">
        <ele>2290</ele>
        <time>2018-09-20T15:39:42+02:00</time>
      </trkpt>
      <trkpt lat="45.35261" lon="6.65475">
        <ele>2290</ele>
        <time>2018-09-20T15:40:04+02:00</time>
      </trkpt>
      <trkpt lat="45.35271" lon="6.65494">
        <ele>2290</ele>
        <time>2018-09-20T15:40:25+02:00</time>
      </trkpt>
      <trkpt lat="45.35282" lon="6.65508">
        <ele>2291</ele>
        <time>2018-09-20T15:40:46+02:00</time>
      </trkpt>
      <trkpt lat="45.35288" lon="6.65515">
        <ele>2292</ele>
        <time>2018-09-20T15:41:07+02:00</time>
      </trkpt>
      <trkpt lat="45.35297" lon="6.65529">
        <ele>2293</ele>
        <time>2018-09-20T15:41:28+02:00</time>
      </trkpt>
      <trkpt lat="45.35304" lon="6.65542">
        <ele>2293</ele>
        <time>2018-09-20T15:41:50+02:00</time>
      </trkpt>
      <trkpt lat="45.35314" lon="6.65556">
        <ele>2294</ele>
        <time>2018-09-20T15:42:10+02:00</time>
      </trkpt>
      <trkpt lat="45.35317" lon="6.65558">
        <ele>2294</ele>
        <time>2018-09-20T15:42:14+02:00</time>
      </trkpt>
      <trkpt lat="45.35334" lon="6.65575">
        <ele>2295</ele>
        <time>2018-09-20T15:42:37+02:00</time>
      </trkpt>
      <trkpt lat="45.35348" lon="6.65594">
        <ele>2296</ele>
        <time>2018-09-20T15:43:00+02:00</time>
      </trkpt>
      <trkpt lat="45.35354" lon="6.65602">
        <ele>2296</ele>
        <time>2018-09-20T15:43:18+02:00</time>
      </trkpt>
      <trkpt lat="45.3536" lon="6.65594">
        <ele>2298</ele>
        <time>2018-09-20T15:43:35+02:00</time>
      </trkpt>
      <trkpt lat="45.35361" lon="6.65581">
        <ele>2300</ele>
        <time>2018-09-20T15:43:53+02:00</time>
      </trkpt>
      <trkpt lat="45.35374" lon="6.65585">
        <ele>2302</ele>
        <time>2018-09-20T15:44:11+02:00</time>
      </trkpt>
      <trkpt lat="45.35382" lon="6.65584">
        <ele>2304</ele>
        <time>2018-09-20T15:44:35+02:00</time>
      </trkpt>
      <trkpt lat="45.35391" lon="6.6558">
        <ele>2305</ele>
        <time>2018-09-20T15:44:51+02:00</time>
      </trkpt>
      <trkpt lat="45.35406" lon="6.65585">
        <ele>2304</ele>
        <time>2018-09-20T15:45:10+02:00</time>
      </trkpt>
      <trkpt lat="45.35424" lon="6.65584">
        <ele>2303</ele>
        <time>2018-09-20T15:45:30+02:00</time>
      </trkpt>
      <trkpt lat="45.35426" lon="6.65584">
        <ele>2303</ele>
        <time>2018-09-20T15:45:32+02:00</time>
      </trkpt>
      <trkpt lat="45.35444" lon="6.65577">
        <ele>2303</ele>
        <time>2018-09-20T15:45:54+02:00</time>
      </trkpt>
      <trkpt lat="45.3546" lon="6.6557">
        <ele>2302</ele>
        <time>2018-09-20T15:46:12+02:00</time>
      </trkpt>
      <trkpt lat="45.35476" lon="6.65575">
        <ele>2301</ele>
        <time>2018-09-20T15:46:29+02:00</time>
      </trkpt>
      <trkpt lat="45.35479" lon="6.65579">
        <ele>2300</ele>
        <time>2018-09-20T15:46:33+02:00</time>
      </trkpt>
      <trkpt lat="45.35489" lon="6.65599">
        <ele>2299</ele>
        <time>2018-09-20T15:46:51+02:00</time>
      </trkpt>
      <trkpt lat="45.35491" lon="6.65617">
        <ele>2297</ele>
        <time>2018-09-20T15:47:13+02:00</time>
      </trkpt>
      <trkpt lat="45.3549" lon="6.65632">
        <ele>2295</ele>
        <time>2018-09-20T15:47:37+02:00</time>
      </trkpt>
      <trkpt lat="45.35489" lon="6.65645">
        <ele>2293</ele>
        <time>2018-09-20T15:47:59+02:00</time>
      </trkpt>
      <trkpt lat="45.35486" lon="6.65661">
        <ele>2290</ele>
        <time>2018-09-20T15:48:16+02:00</time>
      </trkpt>
      <trkpt lat="45.3549" lon="6.65671">
        <ele>2289</ele>
        <time>2018-09-20T15:48:31+02:00</time>
      </trkpt>
      <trkpt lat="45.3549" lon="6.65673">
        <ele>2289</ele>
        <time>2018-09-20T15:49:00+02:00</time>
      </trkpt>
      <trkpt lat="45.35491" lon="6.65671">
        <ele>2289</ele>
        <time>2018-09-20T15:49:41+02:00</time>
      </trkpt>
      <trkpt lat="45.35493" lon="6.65674">
        <ele>2289</ele>
        <time>2018-09-20T15:50:06+02:00</time>
      </trkpt>
      <trkpt lat="45.35494" lon="6.65679">
        <ele>2289</ele>
        <time>2018-09-20T15:50:22+02:00</time>
      </trkpt>
      <trkpt lat="45.35497" lon="6.65685">
        <ele>2288</ele>
        <time>2018-09-20T15:50:27+02:00</time>
      </trkpt>
      <trkpt lat="45.35513" lon="6.65708">
        <ele>2288</ele>
        <time>2018-09-20T15:50:49+02:00</time>
      </trkpt>
      <trkpt lat="45.35531" lon="6.65736">
        <ele>2288</ele>
        <time>2018-09-20T15:51:12+02:00</time>
      </trkpt>
      <trkpt lat="45.35545" lon="6.65762">
        <ele>2284</ele>
        <time>2018-09-20T15:51:33+02:00</time>
      </trkpt>
      <trkpt lat="45.35546" lon="6.65766">
        <ele>2283</ele>
        <time>2018-09-20T15:51:39+02:00</time>
      </trkpt>
      <trkpt lat="45.35552" lon="6.65779">
        <ele>2281</ele>
        <time>2018-09-20T15:51:48+02:00</time>
      </trkpt>
      <trkpt lat="45.35571" lon="6.65796">
        <ele>2279</ele>
        <time>2018-09-20T15:52:09+02:00</time>
      </trkpt>
      <trkpt lat="45.35588" lon="6.65815">
        <ele>2276</ele>
        <time>2018-09-20T15:52:28+02:00</time>
      </trkpt>
      <trkpt lat="45.35598" lon="6.65838">
        <ele>2272</ele>
        <time>2018-09-20T15:52:46+02:00</time>
      </trkpt>
      <trkpt lat="45.35603" lon="6.65847">
        <ele>2270</ele>
        <time>2018-09-20T15:52:54+02:00</time>
      </trkpt>
      <trkpt lat="45.35608" lon="6.65852">
        <ele>2269</ele>
        <time>2018-09-20T15:53:12+02:00</time>
      </trkpt>
      <trkpt lat="45.35611" lon="6.65856">
        <ele>2269</ele>
        <time>2018-09-20T15:53:17+02:00</time>
      </trkpt>
      <trkpt lat="45.35617" lon="6.65865">
        <ele>2267</ele>
        <time>2018-09-20T15:53:24+02:00</time>
      </trkpt>
      <trkpt lat="45.35619" lon="6.65869">
        <ele>2266</ele>
        <time>2018-09-20T15:53:27+02:00</time>
      </trkpt>
      <trkpt lat="45.35632" lon="6.65889">
        <ele>2262</ele>
        <time>2018-09-20T15:53:46+02:00</time>
      </trkpt>
      <trkpt lat="45.3564" lon="6.65905">
        <ele>2258</ele>
        <time>2018-09-20T15:53:58+02:00</time>
      </trkpt>
      <trkpt lat="45.35662" lon="6.65907">
        <ele>2253</ele>
        <time>2018-09-20T15:54:20+02:00</time>
      </trkpt>
      <trkpt lat="45.3568" lon="6.65901">
        <ele>2249</ele>
        <time>2018-09-20T15:54:39+02:00</time>
      </trkpt>
      <trkpt lat="45.35691" lon="6.65903">
        <ele>2245</ele>
        <time>2018-09-20T15:54:51+02:00</time>
      </trkpt>
      <trkpt lat="45.35703" lon="6.65896">
        <ele>2243</ele>
        <time>2018-09-20T15:55:05+02:00</time>
      </trkpt>
      <trkpt lat="45.35706" lon="6.6589">
        <ele>2244</ele>
        <time>2018-09-20T15:55:32+02:00</time>
      </trkpt>
      <trkpt lat="45.35706" lon="6.65892">
        <ele>2244</ele>
        <time>2018-09-20T15:55:52+02:00</time>
      </trkpt>
      <trkpt lat="45.35707" lon="6.65887">
        <ele>2245</ele>
        <time>2018-09-20T15:55:57+02:00</time>
      </trkpt>
      <trkpt lat="45.35718" lon="6.65878">
        <ele>2245</ele>
        <time>2018-09-20T15:56:15+02:00</time>
      </trkpt>
      <trkpt lat="45.3572" lon="6.65878">
        <ele>2244</ele>
        <time>2018-09-20T15:56:17+02:00</time>
      </trkpt>
      <trkpt lat="45.35727" lon="6.65882">
        <ele>2245</ele>
        <time>2018-09-20T15:56:23+02:00</time>
      </trkpt>
      <trkpt lat="45.35739" lon="6.65904">
        <ele>2244</ele>
        <time>2018-09-20T15:56:39+02:00</time>
      </trkpt>
      <trkpt lat="45.35744" lon="6.65913">
        <ele>2244</ele>
        <time>2018-09-20T15:56:47+02:00</time>
      </trkpt>
      <trkpt lat="45.35745" lon="6.65915">
        <ele>2244</ele>
        <time>2018-09-20T15:56:49+02:00</time>
      </trkpt>
      <trkpt lat="45.3575" lon="6.65919">
        <ele>2245</ele>
        <time>2018-09-20T15:56:55+02:00</time>
      </trkpt>
      <trkpt lat="45.35764" lon="6.65935">
        <ele>2243</ele>
        <time>2018-09-20T15:57:13+02:00</time>
      </trkpt>
      <trkpt lat="45.35782" lon="6.65956">
        <ele>2241</ele>
        <time>2018-09-20T15:57:35+02:00</time>
      </trkpt>
      <trkpt lat="45.35785" lon="6.65959">
        <ele>2240</ele>
        <time>2018-09-20T15:57:38+02:00</time>
      </trkpt>
      <trkpt lat="45.3579" lon="6.65965">
        <ele>2240</ele>
        <time>2018-09-20T15:57:44+02:00</time>
      </trkpt>
      <trkpt lat="45.35794" lon="6.6597">
        <ele>2239</ele>
        <time>2018-09-20T15:57:49+02:00</time>
      </trkpt>
      <trkpt lat="45.35805" lon="6.65987">
        <ele>2238</ele>
        <time>2018-09-20T15:58:04+02:00</time>
      </trkpt>
      <trkpt lat="45.35811" lon="6.65995">
        <ele>2237</ele>
        <time>2018-09-20T15:58:12+02:00</time>
      </trkpt>
      <trkpt lat="45.35825" lon="6.66011">
        <ele>2238</ele>
        <time>2018-09-20T15:58:29+02:00</time>
      </trkpt>
      <trkpt lat="45.3584" lon="6.66035">
        <ele>2236</ele>
        <time>2018-09-20T15:58:48+02:00</time>
      </trkpt>
      <trkpt lat="45.35853" lon="6.66056">
        <ele>2233</ele>
        <time>2018-09-20T15:59:06+02:00</time>
      </trkpt>
      <trkpt lat="45.3586" lon="6.6608">
        <ele>2229</ele>
        <time>2018-09-20T15:59:23+02:00</time>
      </trkpt>
      <trkpt lat="45.35866" lon="6.66105">
        <ele>2228</ele>
        <time>2018-09-20T15:59:40+02:00</time>
      </trkpt>
      <trkpt lat="45.35866" lon="6.66107">
        <ele>2228</ele>
        <time>2018-09-20T15:59:42+02:00</time>
      </trkpt>
      <trkpt lat="45.3587" lon="6.66135">
        <ele>2226</ele>
        <time>2018-09-20T16:00:00+02:00</time>
      </trkpt>
      <trkpt lat="45.35876" lon="6.66149">
        <ele>2225</ele>
        <time>2018-09-20T16:00:11+02:00</time>
      </trkpt>
      <trkpt lat="45.35891" lon="6.66169">
        <ele>2225</ele>
        <time>2018-09-20T16:00:31+02:00</time>
      </trkpt>
      <trkpt lat="45.35899" lon="6.66179">
        <ele>2224</ele>
        <time>2018-09-20T16:00:41+02:00</time>
      </trkpt>
      <trkpt lat="45.35901" lon="6.66181">
        <ele>2223</ele>
        <time>2018-09-20T16:00:44+02:00</time>
      </trkpt>
      <trkpt lat="45.35909" lon="6.66188">
        <ele>2223</ele>
        <time>2018-09-20T16:00:52+02:00</time>
      </trkpt>
      <trkpt lat="45.35927" lon="6.66194">
        <ele>2223</ele>
        <time>2018-09-20T16:01:09+02:00</time>
      </trkpt>
      <trkpt lat="45.3594" lon="6.66194">
        <ele>2224</ele>
        <time>2018-09-20T16:01:21+02:00</time>
      </trkpt>
      <trkpt lat="45.35952" lon="6.66204">
        <ele>2224</ele>
        <time>2018-09-20T16:01:39+02:00</time>
      </trkpt>
      <trkpt lat="45.35961" lon="6.66206">
        <ele>2225</ele>
        <time>2018-09-20T16:02:01+02:00</time>
      </trkpt>
      <trkpt lat="45.35963" lon="6.66203">
        <ele>2226</ele>
        <time>2018-09-20T16:02:31+02:00</time>
      </trkpt>
      <trkpt lat="45.35966" lon="6.66209">
        <ele>2225</ele>
        <time>2018-09-20T16:02:55+02:00</time>
      </trkpt>
      <trkpt lat="45.35964" lon="6.66208">
        <ele>2225</ele>
        <time>2018-09-20T16:03:21+02:00</time>
      </trkpt>
      <trkpt lat="45.35964" lon="6.66208">
        <ele>2225</ele>
        <time>2018-09-20T16:03:55+02:00</time>
      </trkpt>
      <trkpt lat="45.35962" lon="6.66213">
        <ele>2224</ele>
        <time>2018-09-20T16:04:19+02:00</time>
      </trkpt>
      <trkpt lat="45.35961" lon="6.66215">
        <ele>2223</ele>
        <time>2018-09-20T16:04:21+02:00</time>
      </trkpt>
      <trkpt lat="45.35957" lon="6.6622">
        <ele>2222</ele>
        <time>2018-09-20T16:04:27+02:00</time>
      </trkpt>
      <trkpt lat="45.35963" lon="6.66241">
        <ele>2218</ele>
        <time>2018-09-20T16:04:45+02:00</time>
      </trkpt>
      <trkpt lat="45.35964" lon="6.66247">
        <ele>2217</ele>
        <time>2018-09-20T16:05:03+02:00</time>
      </trkpt>
      <trkpt lat="45.35964" lon="6.66262">
        <ele>2215</ele>
        <time>2018-09-20T16:05:14+02:00</time>
      </trkpt>
      <trkpt lat="45.3597" lon="6.66284">
        <ele>2212</ele>
        <time>2018-09-20T16:05:31+02:00</time>
      </trkpt>
      <trkpt lat="45.35976" lon="6.66304">
        <ele>2210</ele>
        <time>2018-09-20T16:05:48+02:00</time>
      </trkpt>
      <trkpt lat="45.35983" lon="6.66327">
        <ele>2207</ele>
        <time>2018-09-20T16:06:06+02:00</time>
      </trkpt>
      <trkpt lat="45.3599" lon="6.66353">
        <ele>2204</ele>
        <time>2018-09-20T16:06:27+02:00</time>
      </trkpt>
      <trkpt lat="45.35995" lon="6.66372">
        <ele>2203</ele>
        <time>2018-09-20T16:06:49+02:00</time>
      </trkpt>
      <trkpt lat="45.36005" lon="6.66396">
        <ele>2201</ele>
        <time>2018-09-20T16:07:09+02:00</time>
      </trkpt>
      <trkpt lat="45.36016" lon="6.66406">
        <ele>2201</ele>
        <time>2018-09-20T16:07:27+02:00</time>
      </trkpt>
      <trkpt lat="45.36033" lon="6.66413">
        <ele>2203</ele>
        <time>2018-09-20T16:07:51+02:00</time>
      </trkpt>
      <trkpt lat="45.36044" lon="6.66429">
        <ele>2199</ele>
        <time>2018-09-20T16:08:10+02:00</time>
      </trkpt>
      <trkpt lat="45.36058" lon="6.66447">
        <ele>2197</ele>
        <time>2018-09-20T16:08:31+02:00</time>
      </trkpt>
      <trkpt lat="45.3607" lon="6.6647">
        <ele>2193</ele>
        <time>2018-09-20T16:08:55+02:00</time>
      </trkpt>
      <trkpt lat="45.3607" lon="6.66474">
        <ele>2192</ele>
        <time>2018-09-20T16:08:57+02:00</time>
      </trkpt>
      <trkpt lat="45.36088" lon="6.66498">
        <ele>2190</ele>
        <time>2018-09-20T16:09:24+02:00</time>
      </trkpt>
      <trkpt lat="45.36109" lon="6.66523">
        <ele>2187</ele>
        <time>2018-09-20T16:09:54+02:00</time>
      </trkpt>
      <trkpt lat="45.36116" lon="6.66525">
        <ele>2187</ele>
        <time>2018-09-20T16:10:03+02:00</time>
      </trkpt>
      <trkpt lat="45.3614" lon="6.66532">
        <ele>2184</ele>
        <time>2018-09-20T16:10:29+02:00</time>
      </trkpt>
      <trkpt lat="45.36166" lon="6.66542">
        <ele>2180</ele>
        <time>2018-09-20T16:10:54+02:00</time>
      </trkpt>
      <trkpt lat="45.36187" lon="6.66548">
        <ele>2177</ele>
        <time>2018-09-20T16:11:14+02:00</time>
      </trkpt>
      <trkpt lat="45.36209" lon="6.66549">
        <ele>2175</ele>
        <time>2018-09-20T16:11:37+02:00</time>
      </trkpt>
      <trkpt lat="45.36228" lon="6.66547">
        <ele>2174</ele>
        <time>2018-09-20T16:11:54+02:00</time>
      </trkpt>
      <trkpt lat="45.36247" lon="6.66545">
        <ele>2172</ele>
        <time>2018-09-20T16:12:13+02:00</time>
      </trkpt>
      <trkpt lat="45.36263" lon="6.66546">
        <ele>2171</ele>
        <time>2018-09-20T16:12:27+02:00</time>
      </trkpt>
      <trkpt lat="45.36271" lon="6.66552">
        <ele>2170</ele>
        <time>2018-09-20T16:12:46+02:00</time>
      </trkpt>
      <trkpt lat="45.36282" lon="6.66554">
        <ele>2169</ele>
        <time>2018-09-20T16:12:57+02:00</time>
      </trkpt>
      <trkpt lat="45.36299" lon="6.66559">
        <ele>2168</ele>
        <time>2018-09-20T16:13:12+02:00</time>
      </trkpt>
      <trkpt lat="45.36304" lon="6.66559">
        <ele>2168</ele>
        <time>2018-09-20T16:13:17+02:00</time>
      </trkpt>
      <trkpt lat="45.36329" lon="6.66556">
        <ele>2167</ele>
        <time>2018-09-20T16:13:40+02:00</time>
      </trkpt>
      <trkpt lat="45.36339" lon="6.66555">
        <ele>2167</ele>
        <time>2018-09-20T16:13:50+02:00</time>
      </trkpt>
      <trkpt lat="45.36348" lon="6.66556">
        <ele>2165</ele>
        <time>2018-09-20T16:13:57+02:00</time>
      </trkpt>
      <trkpt lat="45.36361" lon="6.66551">
        <ele>2165</ele>
        <time>2018-09-20T16:14:08+02:00</time>
      </trkpt>
      <trkpt lat="45.36376" lon="6.66541">
        <ele>2164</ele>
        <time>2018-09-20T16:14:23+02:00</time>
      </trkpt>
      <trkpt lat="45.36396" lon="6.6653">
        <ele>2163</ele>
        <time>2018-09-20T16:14:41+02:00</time>
      </trkpt>
      <trkpt lat="45.36412" lon="6.66516">
        <ele>2163</ele>
        <time>2018-09-20T16:14:57+02:00</time>
      </trkpt>
      <trkpt lat="45.36413" lon="6.66515">
        <ele>2162</ele>
        <time>2018-09-20T16:14:58+02:00</time>
      </trkpt>
      <trkpt lat="45.36419" lon="6.66512">
        <ele>2162</ele>
        <time>2018-09-20T16:15:03+02:00</time>
      </trkpt>
      <trkpt lat="45.36438" lon="6.6651">
        <ele>2160</ele>
        <time>2018-09-20T16:15:20+02:00</time>
      </trkpt>
      <trkpt lat="45.36453" lon="6.66496">
        <ele>2159</ele>
        <time>2018-09-20T16:15:41+02:00</time>
      </trkpt>
      <trkpt lat="45.36455" lon="6.66494">
        <ele>2159</ele>
        <time>2018-09-20T16:15:44+02:00</time>
      </trkpt>
      <trkpt lat="45.36473" lon="6.66478">
        <ele>2158</ele>
        <time>2018-09-20T16:16:07+02:00</time>
      </trkpt>
      <trkpt lat="45.36484" lon="6.66469">
        <ele>2155</ele>
        <time>2018-09-20T16:16:23+02:00</time>
      </trkpt>
      <trkpt lat="45.36485" lon="6.66467">
        <ele>2154</ele>
        <time>2018-09-20T16:16:25+02:00</time>
      </trkpt>
      <trkpt lat="45.36496" lon="6.66456">
        <ele>2151</ele>
        <time>2018-09-20T16:16:40+02:00</time>
      </trkpt>
      <trkpt lat="45.36498" lon="6.66451">
        <ele>2150</ele>
        <time>2018-09-20T16:16:45+02:00</time>
      </trkpt>
      <trkpt lat="45.36515" lon="6.66437">
        <ele>2146</ele>
        <time>2018-09-20T16:17:05+02:00</time>
      </trkpt>
      <trkpt lat="45.36518" lon="6.66433">
        <ele>2145</ele>
        <time>2018-09-20T16:17:10+02:00</time>
      </trkpt>
      <trkpt lat="45.36528" lon="6.66421">
        <ele>2142</ele>
        <time>2018-09-20T16:17:26+02:00</time>
      </trkpt>
      <trkpt lat="45.36529" lon="6.66417">
        <ele>2141</ele>
        <time>2018-09-20T16:17:29+02:00</time>
      </trkpt>
      <trkpt lat="45.36541" lon="6.664">
        <ele>2138</ele>
        <time>2018-09-20T16:17:45+02:00</time>
      </trkpt>
      <trkpt lat="45.36541" lon="6.664">
        <ele>2138</ele>
        <time>2018-09-20T16:17:46+02:00</time>
      </trkpt>
      <trkpt lat="45.36556" lon="6.66386">
        <ele>2135</ele>
        <time>2018-09-20T16:18:04+02:00</time>
      </trkpt>
      <trkpt lat="45.36569" lon="6.66371">
        <ele>2131</ele>
        <time>2018-09-20T16:18:21+02:00</time>
      </trkpt>
      <trkpt lat="45.36573" lon="6.66362">
        <ele>2130</ele>
        <time>2018-09-20T16:18:28+02:00</time>
      </trkpt>
      <trkpt lat="45.36581" lon="6.66346">
        <ele>2130</ele>
        <time>2018-09-20T16:18:45+02:00</time>
      </trkpt>
      <trkpt lat="45.36582" lon="6.66344">
        <ele>2129</ele>
        <time>2018-09-20T16:18:47+02:00</time>
      </trkpt>
      <trkpt lat="45.36584" lon="6.66343">
        <ele>2129</ele>
        <time>2018-09-20T16:18:49+02:00</time>
      </trkpt>
      <trkpt lat="45.36587" lon="6.66337">
        <ele>2129</ele>
        <time>2018-09-20T16:18:54+02:00</time>
      </trkpt>
      <trkpt lat="45.3659" lon="6.66333">
        <ele>2129</ele>
        <time>2018-09-20T16:18:58+02:00</time>
      </trkpt>
      <trkpt lat="45.36605" lon="6.66325">
        <ele>2126</ele>
        <time>2018-09-20T16:19:16+02:00</time>
      </trkpt>
      <trkpt lat="45.36615" lon="6.66312">
        <ele>2123</ele>
        <time>2018-09-20T16:19:30+02:00</time>
      </trkpt>
      <trkpt lat="45.36612" lon="6.66292">
        <ele>2121</ele>
        <time>2018-09-20T16:19:47+02:00</time>
      </trkpt>
      <trkpt lat="45.36609" lon="6.66283">
        <ele>2121</ele>
        <time>2018-09-20T16:19:53+02:00</time>
      </trkpt>
      <trkpt lat="45.36613" lon="6.6627">
        <ele>2121</ele>
        <time>2018-09-20T16:20:02+02:00</time>
      </trkpt>
      <trkpt lat="45.36621" lon="6.66266">
        <ele>2121</ele>
        <time>2018-09-20T16:20:22+02:00</time>
      </trkpt>
      <trkpt lat="45.36632" lon="6.66267">
        <ele>2119</ele>
        <time>2018-09-20T16:20:47+02:00</time>
      </trkpt>
      <trkpt lat="45.36649" lon="6.66268">
        <ele>2118</ele>
        <time>2018-09-20T16:21:16+02:00</time>
      </trkpt>
      <trkpt lat="45.36667" lon="6.6627">
        <ele>2116</ele>
        <time>2018-09-20T16:21:43+02:00</time>
      </trkpt>
      <trkpt lat="45.36691" lon="6.66262">
        <ele>2113</ele>
        <time>2018-09-20T16:22:15+02:00</time>
      </trkpt>
      <trkpt lat="45.36712" lon="6.66251">
        <ele>2110</ele>
        <time>2018-09-20T16:22:40+02:00</time>
      </trkpt>
      <trkpt lat="45.36718" lon="6.66245">
        <ele>2109</ele>
        <time>2018-09-20T16:22:48+02:00</time>
      </trkpt>
      <trkpt lat="45.36721" lon="6.66232">
        <ele>2110</ele>
        <time>2018-09-20T16:23:04+02:00</time>
      </trkpt>
      <trkpt lat="45.36721" lon="6.66231">
        <ele>2110</ele>
        <time>2018-09-20T16:24:01+02:00</time>
      </trkpt>
      <trkpt lat="45.36721" lon="6.66231">
        <ele>2110</ele>
        <time>2018-09-20T16:24:32+02:00</time>
      </trkpt>
      <trkpt lat="45.36721" lon="6.6623">
        <ele>2110</ele>
        <time>2018-09-20T16:25:47+02:00</time>
      </trkpt>
      <trkpt lat="45.3672" lon="6.6623">
        <ele>2110</ele>
        <time>2018-09-20T16:26:27+02:00</time>
      </trkpt>
      <trkpt lat="45.36725" lon="6.66225">
        <ele>2110</ele>
        <time>2018-09-20T16:26:40+02:00</time>
      </trkpt>
      <trkpt lat="45.36733" lon="6.66213">
        <ele>2109</ele>
        <time>2018-09-20T16:26:52+02:00</time>
      </trkpt>
      <trkpt lat="45.36735" lon="6.6621">
        <ele>2109</ele>
        <time>2018-09-20T16:26:55+02:00</time>
      </trkpt>
      <trkpt lat="45.36739" lon="6.66207">
        <ele>2109</ele>
        <time>2018-09-20T16:26:59+02:00</time>
      </trkpt>
      <trkpt lat="45.36755" lon="6.66203">
        <ele>2106</ele>
        <time>2018-09-20T16:27:18+02:00</time>
      </trkpt>
      <trkpt lat="45.36772" lon="6.66202">
        <ele>2102</ele>
        <time>2018-09-20T16:27:36+02:00</time>
      </trkpt>
      <trkpt lat="45.36787" lon="6.66206">
        <ele>2098</ele>
        <time>2018-09-20T16:27:55+02:00</time>
      </trkpt>
      <trkpt lat="45.36803" lon="6.662">
        <ele>2095</ele>
        <time>2018-09-20T16:28:14+02:00</time>
      </trkpt>
      <trkpt lat="45.36806" lon="6.66198">
        <ele>2095</ele>
        <time>2018-09-20T16:28:17+02:00</time>
      </trkpt>
      <trkpt lat="45.36822" lon="6.66185">
        <ele>2094</ele>
        <time>2018-09-20T16:28:36+02:00</time>
      </trkpt>
      <trkpt lat="45.36823" lon="6.66184">
        <ele>2094</ele>
        <time>2018-09-20T16:28:37+02:00</time>
      </trkpt>
      <trkpt lat="45.3684" lon="6.66177">
        <ele>2090</ele>
        <time>2018-09-20T16:28:56+02:00</time>
      </trkpt>
      <trkpt lat="45.36853" lon="6.66171">
        <ele>2086</ele>
        <time>2018-09-20T16:29:15+02:00</time>
      </trkpt>
      <trkpt lat="45.36864" lon="6.66161">
        <ele>2085</ele>
        <time>2018-09-20T16:29:31+02:00</time>
      </trkpt>
      <trkpt lat="45.36875" lon="6.66149">
        <ele>2084</ele>
        <time>2018-09-20T16:29:49+02:00</time>
      </trkpt>
      <trkpt lat="45.36892" lon="6.66143">
        <ele>2079</ele>
        <time>2018-09-20T16:30:09+02:00</time>
      </trkpt>
      <trkpt lat="45.36902" lon="6.66147">
        <ele>2077</ele>
        <time>2018-09-20T16:30:20+02:00</time>
      </trkpt>
      <trkpt lat="45.36912" lon="6.66158">
        <ele>2072</ele>
        <time>2018-09-20T16:30:33+02:00</time>
      </trkpt>
      <trkpt lat="45.36908" lon="6.66168">
        <ele>2069</ele>
        <time>2018-09-20T16:30:53+02:00</time>
      </trkpt>
      <trkpt lat="45.36898" lon="6.66168">
        <ele>2070</ele>
        <time>2018-09-20T16:31:17+02:00</time>
      </trkpt>
      <trkpt lat="45.36904" lon="6.66187">
        <ele>2064</ele>
        <time>2018-09-20T16:31:36+02:00</time>
      </trkpt>
      <trkpt lat="45.36905" lon="6.66189">
        <ele>2064</ele>
        <time>2018-09-20T16:31:38+02:00</time>
      </trkpt>
      <trkpt lat="45.36922" lon="6.66198">
        <ele>2061</ele>
        <time>2018-09-20T16:31:59+02:00</time>
      </trkpt>
      <trkpt lat="45.36942" lon="6.6621">
        <ele>2056</ele>
        <time>2018-09-20T16:32:23+02:00</time>
      </trkpt>
      <trkpt lat="45.36961" lon="6.66222">
        <ele>2051</ele>
        <time>2018-09-20T16:32:46+02:00</time>
      </trkpt>
      <trkpt lat="45.36979" lon="6.66229">
        <ele>2046</ele>
        <time>2018-09-20T16:33:05+02:00</time>
      </trkpt>
      <trkpt lat="45.36979" lon="6.66234">
        <ele>2045</ele>
        <time>2018-09-20T16:33:09+02:00</time>
      </trkpt>
      <trkpt lat="45.36969" lon="6.66248">
        <ele>2044</ele>
        <time>2018-09-20T16:33:27+02:00</time>
      </trkpt>
      <trkpt lat="45.36977" lon="6.66259">
        <ele>2040</ele>
        <time>2018-09-20T16:33:47+02:00</time>
      </trkpt>
      <trkpt lat="45.36983" lon="6.6628">
        <ele>2035</ele>
        <time>2018-09-20T16:34:05+02:00</time>
      </trkpt>
      <trkpt lat="45.36992" lon="6.66289">
        <ele>2032</ele>
        <time>2018-09-20T16:34:23+02:00</time>
      </trkpt>
      <trkpt lat="45.37003" lon="6.66295">
        <ele>2030</ele>
        <time>2018-09-20T16:34:38+02:00</time>
      </trkpt>
      <trkpt lat="45.37013" lon="6.66303">
        <ele>2026</ele>
        <time>2018-09-20T16:34:56+02:00</time>
      </trkpt>
      <trkpt lat="45.37024" lon="6.66313">
        <ele>2024</ele>
        <time>2018-09-20T16:35:15+02:00</time>
      </trkpt>
      <trkpt lat="45.37036" lon="6.66319">
        <ele>2021</ele>
        <time>2018-09-20T16:35:34+02:00</time>
      </trkpt>
      <trkpt lat="45.37046" lon="6.66331">
        <ele>2017</ele>
        <time>2018-09-20T16:35:55+02:00</time>
      </trkpt>
      <trkpt lat="45.37054" lon="6.66325">
        <ele>2017</ele>
        <time>2018-09-20T16:36:04+02:00</time>
      </trkpt>
      <trkpt lat="45.37075" lon="6.66321">
        <ele>2013</ele>
        <time>2018-09-20T16:36:27+02:00</time>
      </trkpt>
      <trkpt lat="45.3709" lon="6.66324">
        <ele>2009</ele>
        <time>2018-09-20T16:36:44+02:00</time>
      </trkpt>
      <trkpt lat="45.37102" lon="6.66338">
        <ele>2006</ele>
        <time>2018-09-20T16:37:02+02:00</time>
      </trkpt>
      <trkpt lat="45.37108" lon="6.66341">
        <ele>2005</ele>
        <time>2018-09-20T16:37:09+02:00</time>
      </trkpt>
      <trkpt lat="45.37125" lon="6.6635">
        <ele>2001</ele>
        <time>2018-09-20T16:37:27+02:00</time>
      </trkpt>
      <trkpt lat="45.37142" lon="6.66344">
        <ele>1999</ele>
        <time>2018-09-20T16:37:45+02:00</time>
      </trkpt>
      <trkpt lat="45.37157" lon="6.66339">
        <ele>1996</ele>
        <time>2018-09-20T16:38:03+02:00</time>
      </trkpt>
      <trkpt lat="45.37175" lon="6.66343">
        <ele>1993</ele>
        <time>2018-09-20T16:38:23+02:00</time>
      </trkpt>
      <trkpt lat="45.37188" lon="6.66349">
        <ele>1990</ele>
        <time>2018-09-20T16:38:39+02:00</time>
      </trkpt>
      <trkpt lat="45.37202" lon="6.66354">
        <ele>1988</ele>
        <time>2018-09-20T16:39:03+02:00</time>
      </trkpt>
      <trkpt lat="45.37217" lon="6.66359">
        <ele>1984</ele>
        <time>2018-09-20T16:39:21+02:00</time>
      </trkpt>
      <trkpt lat="45.37235" lon="6.66363">
        <ele>1982</ele>
        <time>2018-09-20T16:39:40+02:00</time>
      </trkpt>
      <trkpt lat="45.37246" lon="6.66368">
        <ele>1980</ele>
        <time>2018-09-20T16:39:54+02:00</time>
      </trkpt>
      <trkpt lat="45.37263" lon="6.66377">
        <ele>1978</ele>
        <time>2018-09-20T16:40:14+02:00</time>
      </trkpt>
      <trkpt lat="45.37274" lon="6.66385">
        <ele>1976</ele>
        <time>2018-09-20T16:40:29+02:00</time>
      </trkpt>
      <trkpt lat="45.37277" lon="6.66388">
        <ele>1975</ele>
        <time>2018-09-20T16:40:34+02:00</time>
      </trkpt>
      <trkpt lat="45.37292" lon="6.66399">
        <ele>1974</ele>
        <time>2018-09-20T16:40:54+02:00</time>
      </trkpt>
      <trkpt lat="45.37303" lon="6.66413">
        <ele>1969</ele>
        <time>2018-09-20T16:41:10+02:00</time>
      </trkpt>
      <trkpt lat="45.37313" lon="6.66421">
        <ele>1966</ele>
        <time>2018-09-20T16:41:22+02:00</time>
      </trkpt>
      <trkpt lat="45.3732" lon="6.66426">
        <ele>1965</ele>
        <time>2018-09-20T16:41:29+02:00</time>
      </trkpt>
      <trkpt lat="45.37335" lon="6.66435">
        <ele>1960</ele>
        <time>2018-09-20T16:41:47+02:00</time>
      </trkpt>
      <trkpt lat="45.37352" lon="6.66432">
        <ele>1958</ele>
        <time>2018-09-20T16:42:07+02:00</time>
      </trkpt>
      <trkpt lat="45.37371" lon="6.66432">
        <ele>1956</ele>
        <time>2018-09-20T16:42:29+02:00</time>
      </trkpt>
      <trkpt lat="45.3739" lon="6.66435">
        <ele>1953</ele>
        <time>2018-09-20T16:42:50+02:00</time>
      </trkpt>
      <trkpt lat="45.37406" lon="6.66441">
        <ele>1951</ele>
        <time>2018-09-20T16:43:09+02:00</time>
      </trkpt>
      <trkpt lat="45.37425" lon="6.66454">
        <ele>1947</ele>
        <time>2018-09-20T16:43:31+02:00</time>
      </trkpt>
      <trkpt lat="45.37443" lon="6.66461">
        <ele>1944</ele>
        <time>2018-09-20T16:43:53+02:00</time>
      </trkpt>
      <trkpt lat="45.37459" lon="6.66468">
        <ele>1942</ele>
        <time>2018-09-20T16:44:13+02:00</time>
      </trkpt>
      <trkpt lat="45.37479" lon="6.66474">
        <ele>1940</ele>
        <time>2018-09-20T16:44:34+02:00</time>
      </trkpt>
      <trkpt lat="45.37496" lon="6.66486">
        <ele>1938</ele>
        <time>2018-09-20T16:44:54+02:00</time>
      </trkpt>
      <trkpt lat="45.37504" lon="6.66489">
        <ele>1938</ele>
        <time>2018-09-20T16:45:01+02:00</time>
      </trkpt>
      <trkpt lat="45.37516" lon="6.66496">
        <ele>1936</ele>
        <time>2018-09-20T16:45:13+02:00</time>
      </trkpt>
      <trkpt lat="45.37521" lon="6.66499">
        <ele>1934</ele>
        <time>2018-09-20T16:45:18+02:00</time>
      </trkpt>
      <trkpt lat="45.37536" lon="6.66508">
        <ele>1933</ele>
        <time>2018-09-20T16:45:33+02:00</time>
      </trkpt>
      <trkpt lat="45.3754" lon="6.66512">
        <ele>1932</ele>
        <time>2018-09-20T16:45:38+02:00</time>
      </trkpt>
      <trkpt lat="45.37545" lon="6.66517">
        <ele>1931</ele>
        <time>2018-09-20T16:45:43+02:00</time>
      </trkpt>
      <trkpt lat="45.37558" lon="6.66527">
        <ele>1927</ele>
        <time>2018-09-20T16:45:57+02:00</time>
      </trkpt>
      <trkpt lat="45.37573" lon="6.66538">
        <ele>1926</ele>
        <time>2018-09-20T16:46:13+02:00</time>
      </trkpt>
      <trkpt lat="45.37575" lon="6.6654">
        <ele>1925</ele>
        <time>2018-09-20T16:46:15+02:00</time>
      </trkpt>
      <trkpt lat="45.37583" lon="6.66544">
        <ele>1924</ele>
        <time>2018-09-20T16:46:22+02:00</time>
      </trkpt>
      <trkpt lat="45.3759" lon="6.66549">
        <ele>1923</ele>
        <time>2018-09-20T16:46:31+02:00</time>
      </trkpt>
      <trkpt lat="45.37605" lon="6.66556">
        <ele>1922</ele>
        <time>2018-09-20T16:46:46+02:00</time>
      </trkpt>
      <trkpt lat="45.37613" lon="6.66565">
        <ele>1921</ele>
        <time>2018-09-20T16:46:56+02:00</time>
      </trkpt>
      <trkpt lat="45.37617" lon="6.66567">
        <ele>1922</ele>
        <time>2018-09-20T16:46:59+02:00</time>
      </trkpt>
      <trkpt lat="45.37618" lon="6.66569">
        <ele>1922</ele>
        <time>2018-09-20T16:47:01+02:00</time>
      </trkpt>
      <trkpt lat="45.3762" lon="6.66571">
        <ele>1922</ele>
        <time>2018-09-20T16:47:03+02:00</time>
      </trkpt>
      <trkpt lat="45.37622" lon="6.66573">
        <ele>1921</ele>
        <time>2018-09-20T16:47:05+02:00</time>
      </trkpt>
      <trkpt lat="45.37632" lon="6.66579">
        <ele>1921</ele>
        <time>2018-09-20T16:47:22+02:00</time>
      </trkpt>
      <trkpt lat="45.37639" lon="6.66584">
        <ele>1920</ele>
        <time>2018-09-20T16:47:47+02:00</time>
      </trkpt>
      <trkpt lat="45.37641" lon="6.66585">
        <ele>1920</ele>
        <time>2018-09-20T16:47:49+02:00</time>
      </trkpt>
      <trkpt lat="45.37645" lon="6.66588">
        <ele>1920</ele>
        <time>2018-09-20T16:47:54+02:00</time>
      </trkpt>
      <trkpt lat="45.3765" lon="6.66591">
        <ele>1920</ele>
        <time>2018-09-20T16:48:00+02:00</time>
      </trkpt>
      <trkpt lat="45.37655" lon="6.66598">
        <ele>1919</ele>
        <time>2018-09-20T16:48:07+02:00</time>
      </trkpt>
      <trkpt lat="45.37659" lon="6.66599">
        <ele>1919</ele>
        <time>2018-09-20T16:48:10+02:00</time>
      </trkpt>
      <trkpt lat="45.37671" lon="6.66611">
        <ele>1917</ele>
        <time>2018-09-20T16:48:24+02:00</time>
      </trkpt>
      <trkpt lat="45.37683" lon="6.66635">
        <ele>1913</ele>
        <time>2018-09-20T16:48:43+02:00</time>
      </trkpt>
      <trkpt lat="45.37701" lon="6.66653">
        <ele>1911</ele>
        <time>2018-09-20T16:49:02+02:00</time>
      </trkpt>
      <trkpt lat="45.37708" lon="6.66661">
        <ele>1910</ele>
        <time>2018-09-20T16:49:09+02:00</time>
      </trkpt>
      <trkpt lat="45.37723" lon="6.66683">
        <ele>1909</ele>
        <time>2018-09-20T16:49:27+02:00</time>
      </trkpt>
      <trkpt lat="45.37725" lon="6.66685">
        <ele>1910</ele>
        <time>2018-09-20T16:49:29+02:00</time>
      </trkpt>
      <trkpt lat="45.37732" lon="6.66694">
        <ele>1909</ele>
        <time>2018-09-20T16:49:37+02:00</time>
      </trkpt>
      <trkpt lat="45.37736" lon="6.667">
        <ele>1909</ele>
        <time>2018-09-20T16:49:42+02:00</time>
      </trkpt>
      <trkpt lat="45.37743" lon="6.66711">
        <ele>1909</ele>
        <time>2018-09-20T16:49:51+02:00</time>
      </trkpt>
      <trkpt lat="45.37751" lon="6.66722">
        <ele>1908</ele>
        <time>2018-09-20T16:50:00+02:00</time>
      </trkpt>
      <trkpt lat="45.37761" lon="6.66732">
        <ele>1907</ele>
        <time>2018-09-20T16:50:11+02:00</time>
      </trkpt>
      <trkpt lat="45.37779" lon="6.66744">
        <ele>1905</ele>
        <time>2018-09-20T16:50:27+02:00</time>
      </trkpt>
      <trkpt lat="45.37796" lon="6.66752">
        <ele>1902</ele>
        <time>2018-09-20T16:50:46+02:00</time>
      </trkpt>
      <trkpt lat="45.37812" lon="6.66758">
        <ele>1901</ele>
        <time>2018-09-20T16:51:04+02:00</time>
      </trkpt>
      <trkpt lat="45.37829" lon="6.66766">
        <ele>1900</ele>
        <time>2018-09-20T16:51:21+02:00</time>
      </trkpt>
      <trkpt lat="45.37852" lon="6.66779">
        <ele>1900</ele>
        <time>2018-09-20T16:51:40+02:00</time>
      </trkpt>
      <trkpt lat="45.37873" lon="6.66788">
        <ele>1900</ele>
        <time>2018-09-20T16:51:57+02:00</time>
      </trkpt>
      <trkpt lat="45.37879" lon="6.66791">
        <ele>1900</ele>
        <time>2018-09-20T16:52:02+02:00</time>
      </trkpt>
      <trkpt lat="45.37898" lon="6.66799">
        <ele>1900</ele>
        <time>2018-09-20T16:52:20+02:00</time>
      </trkpt>
      <trkpt lat="45.37914" lon="6.66809">
        <ele>1900</ele>
        <time>2018-09-20T16:52:38+02:00</time>
      </trkpt>
      <trkpt lat="45.37929" lon="6.66818">
        <ele>1900</ele>
        <time>2018-09-20T16:52:56+02:00</time>
      </trkpt>
      <trkpt lat="45.37933" lon="6.66821">
        <ele>1900</ele>
        <time>2018-09-20T16:53:02+02:00</time>
      </trkpt>
      <trkpt lat="45.37941" lon="6.66828">
        <ele>1900</ele>
        <time>2018-09-20T16:53:12+02:00</time>
      </trkpt>
      <trkpt lat="45.37943" lon="6.66829">
        <ele>1900</ele>
        <time>2018-09-20T16:53:14+02:00</time>
      </trkpt>
      <trkpt lat="45.37945" lon="6.66832">
        <ele>1900</ele>
        <time>2018-09-20T16:53:17+02:00</time>
      </trkpt>
      <trkpt lat="45.3796" lon="6.66848">
        <ele>1900</ele>
        <time>2018-09-20T16:53:35+02:00</time>
      </trkpt>
      <trkpt lat="45.37976" lon="6.6686">
        <ele>1900</ele>
        <time>2018-09-20T16:53:52+02:00</time>
      </trkpt>
      <trkpt lat="45.37995" lon="6.6687">
        <ele>1900</ele>
        <time>2018-09-20T16:54:09+02:00</time>
      </trkpt>
      <trkpt lat="45.38012" lon="6.66884">
        <ele>1900</ele>
        <time>2018-09-20T16:54:27+02:00</time>
      </trkpt>
      <trkpt lat="45.38034" lon="6.66899">
        <ele>1899</ele>
        <time>2018-09-20T16:54:47+02:00</time>
      </trkpt>
      <trkpt lat="45.38052" lon="6.66907">
        <ele>1898</ele>
        <time>2018-09-20T16:55:06+02:00</time>
      </trkpt>
      <trkpt lat="45.38058" lon="6.66908">
        <ele>1897</ele>
        <time>2018-09-20T16:55:12+02:00</time>
      </trkpt>
      <trkpt lat="45.38075" lon="6.66918">
        <ele>1894</ele>
        <time>2018-09-20T16:55:33+02:00</time>
      </trkpt>
      <trkpt lat="45.38095" lon="6.66934">
        <ele>1892</ele>
        <time>2018-09-20T16:55:55+02:00</time>
      </trkpt>
      <trkpt lat="45.381" lon="6.66938">
        <ele>1891</ele>
        <time>2018-09-20T16:56:00+02:00</time>
      </trkpt>
      <trkpt lat="45.38121" lon="6.66949">
        <ele>1891</ele>
        <time>2018-09-20T16:56:17+02:00</time>
      </trkpt>
      <trkpt lat="45.38129" lon="6.66958">
        <ele>1891</ele>
        <time>2018-09-20T16:56:27+02:00</time>
      </trkpt>
      <trkpt lat="45.38134" lon="6.66965">
        <ele>1891</ele>
        <time>2018-09-20T16:56:35+02:00</time>
      </trkpt>
      <trkpt lat="45.38146" lon="6.66979">
        <ele>1891</ele>
        <time>2018-09-20T16:56:51+02:00</time>
      </trkpt>
      <trkpt lat="45.38155" lon="6.66996">
        <ele>1890</ele>
        <time>2018-09-20T16:57:05+02:00</time>
      </trkpt>
      <trkpt lat="45.3816" lon="6.67004">
        <ele>1890</ele>
        <time>2018-09-20T16:57:13+02:00</time>
      </trkpt>
      <trkpt lat="45.38163" lon="6.67009">
        <ele>1890</ele>
        <time>2018-09-20T16:57:17+02:00</time>
      </trkpt>
      <trkpt lat="45.38171" lon="6.67019">
        <ele>1890</ele>
        <time>2018-09-20T16:57:26+02:00</time>
      </trkpt>
      <trkpt lat="45.38177" lon="6.6703">
        <ele>1890</ele>
        <time>2018-09-20T16:57:34+02:00</time>
      </trkpt>
      <trkpt lat="45.38179" lon="6.67032">
        <ele>1890</ele>
        <time>2018-09-20T16:57:36+02:00</time>
      </trkpt>
      <trkpt lat="45.38191" lon="6.67055">
        <ele>1889</ele>
        <time>2018-09-20T16:57:55+02:00</time>
      </trkpt>
      <trkpt lat="45.38197" lon="6.6706">
        <ele>1888</ele>
        <time>2018-09-20T16:58:01+02:00</time>
      </trkpt>
      <trkpt lat="45.3821" lon="6.67067">
        <ele>1886</ele>
        <time>2018-09-20T16:58:16+02:00</time>
      </trkpt>
      <trkpt lat="45.38222" lon="6.6707">
        <ele>1885</ele>
        <time>2018-09-20T16:58:28+02:00</time>
      </trkpt>
      <trkpt lat="45.38228" lon="6.67075">
        <ele>1884</ele>
        <time>2018-09-20T16:58:32+02:00</time>
      </trkpt>
      <trkpt lat="45.38237" lon="6.67082">
        <ele>1882</ele>
        <time>2018-09-20T16:58:51+02:00</time>
      </trkpt>
      <trkpt lat="45.38241" lon="6.67095">
        <ele>1881</ele>
        <time>2018-09-20T16:59:01+02:00</time>
      </trkpt>
      <trkpt lat="45.38242" lon="6.671">
        <ele>1880</ele>
        <time>2018-09-20T16:59:04+02:00</time>
      </trkpt>
      <trkpt lat="45.38244" lon="6.6712">
        <ele>1880</ele>
        <time>2018-09-20T16:59:16+02:00</time>
      </trkpt>
      <trkpt lat="45.38248" lon="6.67127">
        <ele>1880</ele>
        <time>2018-09-20T16:59:21+02:00</time>
      </trkpt>
      <trkpt lat="45.38254" lon="6.67132">
        <ele>1880</ele>
        <time>2018-09-20T16:59:26+02:00</time>
      </trkpt>
      <trkpt lat="45.38264" lon="6.6714">
        <ele>1879</ele>
        <time>2018-09-20T16:59:37+02:00</time>
      </trkpt>
      <trkpt lat="45.38267" lon="6.67141">
        <ele>1879</ele>
        <time>2018-09-20T16:59:39+02:00</time>
      </trkpt>
      <trkpt lat="45.38283" lon="6.67159">
        <ele>1879</ele>
        <time>2018-09-20T16:59:56+02:00</time>
      </trkpt>
      <trkpt lat="45.38296" lon="6.67173">
        <ele>1879</ele>
        <time>2018-09-20T17:00:09+02:00</time>
      </trkpt>
      <trkpt lat="45.38306" lon="6.67178">
        <ele>1879</ele>
        <time>2018-09-20T17:00:19+02:00</time>
      </trkpt>
      <trkpt lat="45.38318" lon="6.67181">
        <ele>1879</ele>
        <time>2018-09-20T17:00:35+02:00</time>
      </trkpt>
      <trkpt lat="45.38342" lon="6.67191">
        <ele>1879</ele>
        <time>2018-09-20T17:00:58+02:00</time>
      </trkpt>
      <trkpt lat="45.38345" lon="6.67193">
        <ele>1879</ele>
        <time>2018-09-20T17:01:02+02:00</time>
      </trkpt>
      <trkpt lat="45.3837" lon="6.67217">
        <ele>1878</ele>
        <time>2018-09-20T17:01:28+02:00</time>
      </trkpt>
      <trkpt lat="45.38377" lon="6.67227">
        <ele>1877</ele>
        <time>2018-09-20T17:01:38+02:00</time>
      </trkpt>
      <trkpt lat="45.38384" lon="6.67249">
        <ele>1877</ele>
        <time>2018-09-20T17:01:56+02:00</time>
      </trkpt>
      <trkpt lat="45.38396" lon="6.67268">
        <ele>1877</ele>
        <time>2018-09-20T17:02:12+02:00</time>
      </trkpt>
      <trkpt lat="45.38401" lon="6.6727">
        <ele>1876</ele>
        <time>2018-09-20T17:02:16+02:00</time>
      </trkpt>
      <trkpt lat="45.38419" lon="6.67264">
        <ele>1871</ele>
        <time>2018-09-20T17:02:36+02:00</time>
      </trkpt>
      <trkpt lat="45.38427" lon="6.67258">
        <ele>1869</ele>
        <time>2018-09-20T17:02:45+02:00</time>
      </trkpt>
      <trkpt lat="45.38438" lon="6.67245">
        <ele>1867</ele>
        <time>2018-09-20T17:03:02+02:00</time>
      </trkpt>
      <trkpt lat="45.38459" lon="6.67242">
        <ele>1864</ele>
        <time>2018-09-20T17:03:21+02:00</time>
      </trkpt>
      <trkpt lat="45.38472" lon="6.67236">
        <ele>1862</ele>
        <time>2018-09-20T17:03:36+02:00</time>
      </trkpt>
      <trkpt lat="45.38484" lon="6.67231">
        <ele>1861</ele>
        <time>2018-09-20T17:03:48+02:00</time>
      </trkpt>
      <trkpt lat="45.3849" lon="6.6723">
        <ele>1860</ele>
        <time>2018-09-20T17:03:53+02:00</time>
      </trkpt>
      <trkpt lat="45.385" lon="6.6723">
        <ele>1859</ele>
        <time>2018-09-20T17:04:10+02:00</time>
      </trkpt>
    </trkseg>
  </trk>
</gpx>